<?xml version="1.0" encoding="UTF-8" standalone="no" ?>
<gpx xmlns="http://www.topografix.com/GPX/1/1" xmlns:xsi="http://www.w3.org/2001/XMLSchema-instance" xsi:schemaLocation="http://www.topografix.com/GPX/1/1 http://www.topografix.com/GPX/1/1/gpx.xsd" version="1.1" creator="VisuGPX - https://www.visugpx.com">
  <metadata>
    <name>Le Môle, tour et sommet </name>
  </metadata>
  <trk>
    <name><![CDATA[2018-09-23 17:38:14-Course TT]]></name>
    <extensions>
      <line xmlns="http://www.topografix.com/GPX/gpx_style/0/2">
        <color>0000FF</color>
        <width>4</width>
      </line>
    </extensions>
    <trkseg>
      <trkpt lat="46.10284" lon="6.47112">
        <ele>1320.51</ele>
        <time>2018-09-23T13:52:06Z</time>
      </trkpt>
      <trkpt lat="46.10285" lon="6.47111">
        <ele>1340.7</ele>
        <time>2018-09-23T13:52:07Z</time>
      </trkpt>
      <trkpt lat="46.10286" lon="6.47109">
        <ele>1340.7</ele>
        <time>2018-09-23T13:52:08Z</time>
      </trkpt>
      <trkpt lat="46.10288" lon="6.47107">
        <ele>1340.7</ele>
        <time>2018-09-23T13:52:09Z</time>
      </trkpt>
      <trkpt lat="46.10289" lon="6.47104">
        <ele>1340.7</ele>
        <time>2018-09-23T13:52:10Z</time>
      </trkpt>
      <trkpt lat="46.10292" lon="6.47102">
        <ele>1320.99</ele>
        <time>2018-09-23T13:52:11Z</time>
      </trkpt>
      <trkpt lat="46.10294" lon="6.471">
        <ele>1321.47</ele>
        <time>2018-09-23T13:52:12Z</time>
      </trkpt>
      <trkpt lat="46.10299" lon="6.47096">
        <ele>1321.47</ele>
        <time>2018-09-23T13:52:14Z</time>
      </trkpt>
      <trkpt lat="46.10304" lon="6.47092">
        <ele>1321.95</ele>
        <time>2018-09-23T13:52:16Z</time>
      </trkpt>
      <trkpt lat="46.10309" lon="6.47089">
        <ele>1321.95</ele>
        <time>2018-09-23T13:52:18Z</time>
      </trkpt>
      <trkpt lat="46.10315" lon="6.47086">
        <ele>1321.95</ele>
        <time>2018-09-23T13:52:20Z</time>
      </trkpt>
      <trkpt lat="46.1032" lon="6.47082">
        <ele>1321.95</ele>
        <time>2018-09-23T13:52:22Z</time>
      </trkpt>
      <trkpt lat="46.10327" lon="6.47074">
        <ele>1321.47</ele>
        <time>2018-09-23T13:52:25Z</time>
      </trkpt>
      <trkpt lat="46.10329" lon="6.47068">
        <ele>1321.95</ele>
        <time>2018-09-23T13:52:27Z</time>
      </trkpt>
      <trkpt lat="46.10331" lon="6.47061">
        <ele>1322.43</ele>
        <time>2018-09-23T13:52:29Z</time>
      </trkpt>
      <trkpt lat="46.10334" lon="6.47053">
        <ele>1322.43</ele>
        <time>2018-09-23T13:52:32Z</time>
      </trkpt>
      <trkpt lat="46.10335" lon="6.4705">
        <ele>1322.43</ele>
        <time>2018-09-23T13:52:33Z</time>
      </trkpt>
      <trkpt lat="46.10337" lon="6.47044">
        <ele>1322.91</ele>
        <time>2018-09-23T13:52:35Z</time>
      </trkpt>
      <trkpt lat="46.10343" lon="6.47034">
        <ele>1323.39</ele>
        <time>2018-09-23T13:52:39Z</time>
      </trkpt>
      <trkpt lat="46.10352" lon="6.47019">
        <ele>1324.35</ele>
        <time>2018-09-23T13:52:45Z</time>
      </trkpt>
      <trkpt lat="46.10361" lon="6.46994">
        <ele>1324.83</ele>
        <time>2018-09-23T13:52:53Z</time>
      </trkpt>
      <trkpt lat="46.10367" lon="6.46975">
        <ele>1325.8</ele>
        <time>2018-09-23T13:52:59Z</time>
      </trkpt>
      <trkpt lat="46.10381" lon="6.46954">
        <ele>1327.72</ele>
        <time>2018-09-23T13:53:08Z</time>
      </trkpt>
      <trkpt lat="46.10402" lon="6.46941">
        <ele>1328.2</ele>
        <time>2018-09-23T13:53:16Z</time>
      </trkpt>
      <trkpt lat="46.10421" lon="6.46932">
        <ele>1329.16</ele>
        <time>2018-09-23T13:53:24Z</time>
      </trkpt>
      <trkpt lat="46.10435" lon="6.46914">
        <ele>1331.08</ele>
        <time>2018-09-23T13:53:33Z</time>
      </trkpt>
      <trkpt lat="46.10453" lon="6.46898">
        <ele>1331.56</ele>
        <time>2018-09-23T13:53:42Z</time>
      </trkpt>
      <trkpt lat="46.10473" lon="6.46889">
        <ele>1332.04</ele>
        <time>2018-09-23T13:53:51Z</time>
      </trkpt>
      <trkpt lat="46.10492" lon="6.46889">
        <ele>1333.01</ele>
        <time>2018-09-23T13:54:00Z</time>
      </trkpt>
      <trkpt lat="46.10514" lon="6.46888">
        <ele>1332.04</ele>
        <time>2018-09-23T13:54:09Z</time>
      </trkpt>
      <trkpt lat="46.10532" lon="6.46884">
        <ele>1334.93</ele>
        <time>2018-09-23T13:54:18Z</time>
      </trkpt>
      <trkpt lat="46.10554" lon="6.46877">
        <ele>1334.45</ele>
        <time>2018-09-23T13:54:27Z</time>
      </trkpt>
      <trkpt lat="46.10575" lon="6.46873">
        <ele>1335.89</ele>
        <time>2018-09-23T13:54:35Z</time>
      </trkpt>
      <trkpt lat="46.10595" lon="6.4686">
        <ele>1337.33</ele>
        <time>2018-09-23T13:54:45Z</time>
      </trkpt>
      <trkpt lat="46.10613" lon="6.46849">
        <ele>1337.33</ele>
        <time>2018-09-23T13:54:54Z</time>
      </trkpt>
      <trkpt lat="46.10634" lon="6.4685">
        <ele>1335.41</ele>
        <time>2018-09-23T13:55:02Z</time>
      </trkpt>
      <trkpt lat="46.10655" lon="6.46857">
        <ele>1335.41</ele>
        <time>2018-09-23T13:55:10Z</time>
      </trkpt>
      <trkpt lat="46.10677" lon="6.46857">
        <ele>1336.85</ele>
        <time>2018-09-23T13:55:19Z</time>
      </trkpt>
      <trkpt lat="46.10699" lon="6.4686">
        <ele>1336.85</ele>
        <time>2018-09-23T13:55:28Z</time>
      </trkpt>
      <trkpt lat="46.1072" lon="6.46863">
        <ele>1337.33</ele>
        <time>2018-09-23T13:55:37Z</time>
      </trkpt>
      <trkpt lat="46.1074" lon="6.46879">
        <ele>1337.81</ele>
        <time>2018-09-23T13:55:46Z</time>
      </trkpt>
      <trkpt lat="46.10754" lon="6.46901">
        <ele>1336.37</ele>
        <time>2018-09-23T13:55:53Z</time>
      </trkpt>
      <trkpt lat="46.10771" lon="6.46922">
        <ele>1335.89</ele>
        <time>2018-09-23T13:56:01Z</time>
      </trkpt>
      <trkpt lat="46.10788" lon="6.46939">
        <ele>1335.41</ele>
        <time>2018-09-23T13:56:09Z</time>
      </trkpt>
      <trkpt lat="46.10809" lon="6.46947">
        <ele>1333.01</ele>
        <time>2018-09-23T13:56:18Z</time>
      </trkpt>
      <trkpt lat="46.10824" lon="6.46945">
        <ele>1330.12</ele>
        <time>2018-09-23T13:56:24Z</time>
      </trkpt>
      <trkpt lat="46.10847" lon="6.46939">
        <ele>1328.2</ele>
        <time>2018-09-23T13:56:32Z</time>
      </trkpt>
      <trkpt lat="46.10866" lon="6.46932">
        <ele>1328.2</ele>
        <time>2018-09-23T13:56:40Z</time>
      </trkpt>
      <trkpt lat="46.10887" lon="6.46918">
        <ele>1329.64</ele>
        <time>2018-09-23T13:56:49Z</time>
      </trkpt>
      <trkpt lat="46.10901" lon="6.46909">
        <ele>1330.6</ele>
        <time>2018-09-23T13:56:57Z</time>
      </trkpt>
      <trkpt lat="46.1091" lon="6.46899">
        <ele>1333.01</ele>
        <time>2018-09-23T13:57:04Z</time>
      </trkpt>
      <trkpt lat="46.10911" lon="6.46898">
        <ele>1333.01</ele>
        <time>2018-09-23T13:57:05Z</time>
      </trkpt>
      <trkpt lat="46.10926" lon="6.46886">
        <ele>1336.37</ele>
        <time>2018-09-23T13:57:14Z</time>
      </trkpt>
      <trkpt lat="46.10942" lon="6.4688">
        <ele>1337.81</ele>
        <time>2018-09-23T13:57:22Z</time>
      </trkpt>
      <trkpt lat="46.10943" lon="6.4688">
        <ele>1338.29</ele>
        <time>2018-09-23T13:57:23Z</time>
      </trkpt>
      <trkpt lat="46.10964" lon="6.46876">
        <ele>1341.18</ele>
        <time>2018-09-23T13:57:34Z</time>
      </trkpt>
      <trkpt lat="46.10966" lon="6.46876">
        <ele>1341.66</ele>
        <time>2018-09-23T13:57:35Z</time>
      </trkpt>
      <trkpt lat="46.10967" lon="6.46875">
        <ele>1342.14</ele>
        <time>2018-09-23T13:57:36Z</time>
      </trkpt>
      <trkpt lat="46.10969" lon="6.46875">
        <ele>1342.14</ele>
        <time>2018-09-23T13:57:37Z</time>
      </trkpt>
      <trkpt lat="46.1097" lon="6.46875">
        <ele>1342.62</ele>
        <time>2018-09-23T13:57:38Z</time>
      </trkpt>
      <trkpt lat="46.10981" lon="6.46873">
        <ele>1345.5</ele>
        <time>2018-09-23T13:57:46Z</time>
      </trkpt>
      <trkpt lat="46.10982" lon="6.46873">
        <ele>1345.98</ele>
        <time>2018-09-23T13:57:47Z</time>
      </trkpt>
      <trkpt lat="46.10983" lon="6.46873">
        <ele>1345.98</ele>
        <time>2018-09-23T13:57:48Z</time>
      </trkpt>
      <trkpt lat="46.10984" lon="6.46873">
        <ele>1345.98</ele>
        <time>2018-09-23T13:57:49Z</time>
      </trkpt>
      <trkpt lat="46.10985" lon="6.46872">
        <ele>1346.46</ele>
        <time>2018-09-23T13:57:50Z</time>
      </trkpt>
      <trkpt lat="46.10987" lon="6.46872">
        <ele>1346.94</ele>
        <time>2018-09-23T13:57:51Z</time>
      </trkpt>
      <trkpt lat="46.10988" lon="6.46872">
        <ele>1347.43</ele>
        <time>2018-09-23T13:57:52Z</time>
      </trkpt>
      <trkpt lat="46.10989" lon="6.46872">
        <ele>1347.91</ele>
        <time>2018-09-23T13:57:53Z</time>
      </trkpt>
      <trkpt lat="46.10991" lon="6.46871">
        <ele>1348.39</ele>
        <time>2018-09-23T13:57:54Z</time>
      </trkpt>
      <trkpt lat="46.11005" lon="6.46871">
        <ele>1351.27</ele>
        <time>2018-09-23T13:58:04Z</time>
      </trkpt>
      <trkpt lat="46.11026" lon="6.46862">
        <ele>1353.19</ele>
        <time>2018-09-23T13:58:16Z</time>
      </trkpt>
      <trkpt lat="46.11045" lon="6.46853">
        <ele>1354.63</ele>
        <time>2018-09-23T13:58:27Z</time>
      </trkpt>
      <trkpt lat="46.11062" lon="6.46841">
        <ele>1357.04</ele>
        <time>2018-09-23T13:58:39Z</time>
      </trkpt>
      <trkpt lat="46.11074" lon="6.46832">
        <ele>1359.92</ele>
        <time>2018-09-23T13:58:48Z</time>
      </trkpt>
      <trkpt lat="46.11075" lon="6.4683">
        <ele>1360.4</ele>
        <time>2018-09-23T13:58:49Z</time>
      </trkpt>
      <trkpt lat="46.11076" lon="6.4683">
        <ele>1360.4</ele>
        <time>2018-09-23T13:58:50Z</time>
      </trkpt>
      <trkpt lat="46.11077" lon="6.46829">
        <ele>1360.88</ele>
        <time>2018-09-23T13:58:51Z</time>
      </trkpt>
      <trkpt lat="46.11078" lon="6.46829">
        <ele>1361.36</ele>
        <time>2018-09-23T13:58:52Z</time>
      </trkpt>
      <trkpt lat="46.11078" lon="6.46828">
        <ele>1361.36</ele>
        <time>2018-09-23T13:58:53Z</time>
      </trkpt>
      <trkpt lat="46.11079" lon="6.46827">
        <ele>1361.84</ele>
        <time>2018-09-23T13:58:54Z</time>
      </trkpt>
      <trkpt lat="46.1108" lon="6.46826">
        <ele>1362.33</ele>
        <time>2018-09-23T13:58:55Z</time>
      </trkpt>
      <trkpt lat="46.11094" lon="6.4682">
        <ele>1365.21</ele>
        <time>2018-09-23T13:59:06Z</time>
      </trkpt>
      <trkpt lat="46.11112" lon="6.46809">
        <ele>1367.61</ele>
        <time>2018-09-23T13:59:19Z</time>
      </trkpt>
      <trkpt lat="46.11117" lon="6.46805">
        <ele>1368.57</ele>
        <time>2018-09-23T13:59:24Z</time>
      </trkpt>
      <trkpt lat="46.11119" lon="6.46803">
        <ele>1368.57</ele>
        <time>2018-09-23T13:59:25Z</time>
      </trkpt>
      <trkpt lat="46.11137" lon="6.4679">
        <ele>1371.94</ele>
        <time>2018-09-23T13:59:38Z</time>
      </trkpt>
      <trkpt lat="46.11156" lon="6.46778">
        <ele>1374.34</ele>
        <time>2018-09-23T13:59:50Z</time>
      </trkpt>
      <trkpt lat="46.11172" lon="6.46764">
        <ele>1376.75</ele>
        <time>2018-09-23T14:00:02Z</time>
      </trkpt>
      <trkpt lat="46.11188" lon="6.46746">
        <ele>1379.63</ele>
        <time>2018-09-23T14:00:14Z</time>
      </trkpt>
      <trkpt lat="46.11205" lon="6.46734">
        <ele>1382.03</ele>
        <time>2018-09-23T14:00:26Z</time>
      </trkpt>
      <trkpt lat="46.11219" lon="6.46723">
        <ele>1384.92</ele>
        <time>2018-09-23T14:00:38Z</time>
      </trkpt>
      <trkpt lat="46.11224" lon="6.46718">
        <ele>1387.8</ele>
        <time>2018-09-23T14:00:45Z</time>
      </trkpt>
      <trkpt lat="46.11232" lon="6.46712">
        <ele>1390.2</ele>
        <time>2018-09-23T14:00:56Z</time>
      </trkpt>
      <trkpt lat="46.11233" lon="6.46711">
        <ele>1390.68</ele>
        <time>2018-09-23T14:00:57Z</time>
      </trkpt>
      <trkpt lat="46.11234" lon="6.46711">
        <ele>1390.68</ele>
        <time>2018-09-23T14:00:58Z</time>
      </trkpt>
      <trkpt lat="46.11236" lon="6.46709">
        <ele>1391.17</ele>
        <time>2018-09-23T14:01:00Z</time>
      </trkpt>
      <trkpt lat="46.11237" lon="6.46709">
        <ele>1391.17</ele>
        <time>2018-09-23T14:01:01Z</time>
      </trkpt>
      <trkpt lat="46.11238" lon="6.46709">
        <ele>1391.65</ele>
        <time>2018-09-23T14:01:02Z</time>
      </trkpt>
      <trkpt lat="46.11245" lon="6.46709">
        <ele>1394.05</ele>
        <time>2018-09-23T14:01:11Z</time>
      </trkpt>
      <trkpt lat="46.11256" lon="6.46718">
        <ele>1396.93</ele>
        <time>2018-09-23T14:01:23Z</time>
      </trkpt>
      <trkpt lat="46.11264" lon="6.46728">
        <ele>1398.86</ele>
        <time>2018-09-23T14:01:31Z</time>
      </trkpt>
      <trkpt lat="46.11266" lon="6.4673">
        <ele>1398.86</ele>
        <time>2018-09-23T14:01:32Z</time>
      </trkpt>
      <trkpt lat="46.11267" lon="6.46732">
        <ele>1399.34</ele>
        <time>2018-09-23T14:01:33Z</time>
      </trkpt>
      <trkpt lat="46.11268" lon="6.46734">
        <ele>1399.34</ele>
        <time>2018-09-23T14:01:34Z</time>
      </trkpt>
      <trkpt lat="46.11269" lon="6.46736">
        <ele>1399.82</ele>
        <time>2018-09-23T14:01:35Z</time>
      </trkpt>
      <trkpt lat="46.1127" lon="6.46737">
        <ele>1399.82</ele>
        <time>2018-09-23T14:01:36Z</time>
      </trkpt>
      <trkpt lat="46.11272" lon="6.46739">
        <ele>1399.82</ele>
        <time>2018-09-23T14:01:37Z</time>
      </trkpt>
      <trkpt lat="46.11288" lon="6.4675">
        <ele>1403.18</ele>
        <time>2018-09-23T14:01:51Z</time>
      </trkpt>
      <trkpt lat="46.11293" lon="6.46753">
        <ele>1405.1</ele>
        <time>2018-09-23T14:01:57Z</time>
      </trkpt>
      <trkpt lat="46.11294" lon="6.46755">
        <ele>1405.58</ele>
        <time>2018-09-23T14:01:59Z</time>
      </trkpt>
      <trkpt lat="46.11295" lon="6.46756">
        <ele>1406.07</ele>
        <time>2018-09-23T14:02:00Z</time>
      </trkpt>
      <trkpt lat="46.113" lon="6.4676">
        <ele>1407.99</ele>
        <time>2018-09-23T14:02:06Z</time>
      </trkpt>
      <trkpt lat="46.11302" lon="6.46761">
        <ele>1407.99</ele>
        <time>2018-09-23T14:02:07Z</time>
      </trkpt>
      <trkpt lat="46.11303" lon="6.46762">
        <ele>1407.99</ele>
        <time>2018-09-23T14:02:08Z</time>
      </trkpt>
      <trkpt lat="46.11304" lon="6.46762">
        <ele>1408.47</ele>
        <time>2018-09-23T14:02:09Z</time>
      </trkpt>
      <trkpt lat="46.11306" lon="6.46763">
        <ele>1408.47</ele>
        <time>2018-09-23T14:02:10Z</time>
      </trkpt>
      <trkpt lat="46.11307" lon="6.46764">
        <ele>1408.95</ele>
        <time>2018-09-23T14:02:11Z</time>
      </trkpt>
      <trkpt lat="46.11308" lon="6.46766">
        <ele>1409.43</ele>
        <time>2018-09-23T14:02:12Z</time>
      </trkpt>
      <trkpt lat="46.1131" lon="6.46768">
        <ele>1409.43</ele>
        <time>2018-09-23T14:02:13Z</time>
      </trkpt>
      <trkpt lat="46.11311" lon="6.46769">
        <ele>1409.91</ele>
        <time>2018-09-23T14:02:14Z</time>
      </trkpt>
      <trkpt lat="46.11319" lon="6.46774">
        <ele>1409.91</ele>
        <time>2018-09-23T14:02:19Z</time>
      </trkpt>
      <trkpt lat="46.11321" lon="6.46774">
        <ele>1409.91</ele>
        <time>2018-09-23T14:02:20Z</time>
      </trkpt>
      <trkpt lat="46.11322" lon="6.46775">
        <ele>1410.39</ele>
        <time>2018-09-23T14:02:21Z</time>
      </trkpt>
      <trkpt lat="46.11343" lon="6.46771">
        <ele>1413.28</ele>
        <time>2018-09-23T14:02:34Z</time>
      </trkpt>
      <trkpt lat="46.1136" lon="6.46762">
        <ele>1416.64</ele>
        <time>2018-09-23T14:02:45Z</time>
      </trkpt>
      <trkpt lat="46.11364" lon="6.46757">
        <ele>1417.6</ele>
        <time>2018-09-23T14:02:49Z</time>
      </trkpt>
      <trkpt lat="46.11365" lon="6.46755">
        <ele>1417.6</ele>
        <time>2018-09-23T14:02:50Z</time>
      </trkpt>
      <trkpt lat="46.11365" lon="6.46754">
        <ele>1418.08</ele>
        <time>2018-09-23T14:02:51Z</time>
      </trkpt>
      <trkpt lat="46.11377" lon="6.46737">
        <ele>1420.97</ele>
        <time>2018-09-23T14:03:04Z</time>
      </trkpt>
      <trkpt lat="46.1139" lon="6.4671">
        <ele>1423.37</ele>
        <time>2018-09-23T14:03:18Z</time>
      </trkpt>
      <trkpt lat="46.1139" lon="6.46707">
        <ele>1423.37</ele>
        <time>2018-09-23T14:03:19Z</time>
      </trkpt>
      <trkpt lat="46.114" lon="6.46691">
        <ele>1426.25</ele>
        <time>2018-09-23T14:03:30Z</time>
      </trkpt>
      <trkpt lat="46.11406" lon="6.46683">
        <ele>1427.7</ele>
        <time>2018-09-23T14:03:37Z</time>
      </trkpt>
      <trkpt lat="46.11407" lon="6.46682">
        <ele>1428.18</ele>
        <time>2018-09-23T14:03:38Z</time>
      </trkpt>
      <trkpt lat="46.11409" lon="6.46681">
        <ele>1428.18</ele>
        <time>2018-09-23T14:03:39Z</time>
      </trkpt>
      <trkpt lat="46.1141" lon="6.4668">
        <ele>1428.18</ele>
        <time>2018-09-23T14:03:40Z</time>
      </trkpt>
      <trkpt lat="46.11411" lon="6.46679">
        <ele>1428.18</ele>
        <time>2018-09-23T14:03:41Z</time>
      </trkpt>
      <trkpt lat="46.11412" lon="6.46677">
        <ele>1428.66</ele>
        <time>2018-09-23T14:03:42Z</time>
      </trkpt>
      <trkpt lat="46.11413" lon="6.46676">
        <ele>1429.14</ele>
        <time>2018-09-23T14:03:43Z</time>
      </trkpt>
      <trkpt lat="46.11414" lon="6.46674">
        <ele>1429.62</ele>
        <time>2018-09-23T14:03:44Z</time>
      </trkpt>
      <trkpt lat="46.11421" lon="6.46664">
        <ele>1431.06</ele>
        <time>2018-09-23T14:03:51Z</time>
      </trkpt>
      <trkpt lat="46.11427" lon="6.46651">
        <ele>1431.54</ele>
        <time>2018-09-23T14:03:58Z</time>
      </trkpt>
      <trkpt lat="46.11428" lon="6.46648">
        <ele>1431.54</ele>
        <time>2018-09-23T14:03:59Z</time>
      </trkpt>
      <trkpt lat="46.1143" lon="6.46618">
        <ele>1431.54</ele>
        <time>2018-09-23T14:04:11Z</time>
      </trkpt>
      <trkpt lat="46.1143" lon="6.46613">
        <ele>1432.5</ele>
        <time>2018-09-23T14:04:13Z</time>
      </trkpt>
      <trkpt lat="46.1143" lon="6.46612">
        <ele>1433.46</ele>
        <time>2018-09-23T14:04:14Z</time>
      </trkpt>
      <trkpt lat="46.1143" lon="6.4661">
        <ele>1433.46</ele>
        <time>2018-09-23T14:04:15Z</time>
      </trkpt>
      <trkpt lat="46.1143" lon="6.46609">
        <ele>1432.98</ele>
        <time>2018-09-23T14:04:16Z</time>
      </trkpt>
      <trkpt lat="46.1143" lon="6.46608">
        <ele>1432.98</ele>
        <time>2018-09-23T14:04:17Z</time>
      </trkpt>
      <trkpt lat="46.1143" lon="6.46606">
        <ele>1432.5</ele>
        <time>2018-09-23T14:04:18Z</time>
      </trkpt>
      <trkpt lat="46.11431" lon="6.46606">
        <ele>1433.46</ele>
        <time>2018-09-23T14:04:23Z</time>
      </trkpt>
      <trkpt lat="46.11431" lon="6.46606">
        <ele>1433.46</ele>
        <time>2018-09-23T14:04:26Z</time>
      </trkpt>
      <trkpt lat="46.11432" lon="6.46605">
        <ele>1433.94</ele>
        <time>2018-09-23T14:04:30Z</time>
      </trkpt>
      <trkpt lat="46.11433" lon="6.46604">
        <ele>1433.94</ele>
        <time>2018-09-23T14:04:34Z</time>
      </trkpt>
      <trkpt lat="46.11434" lon="6.46602">
        <ele>1433.46</ele>
        <time>2018-09-23T14:04:40Z</time>
      </trkpt>
      <trkpt lat="46.11435" lon="6.46602">
        <ele>1433.46</ele>
        <time>2018-09-23T14:04:42Z</time>
      </trkpt>
      <trkpt lat="46.11436" lon="6.46602">
        <ele>1433.94</ele>
        <time>2018-09-23T14:04:48Z</time>
      </trkpt>
      <trkpt lat="46.11436" lon="6.46602">
        <ele>1433.94</ele>
        <time>2018-09-23T14:04:50Z</time>
      </trkpt>
      <trkpt lat="46.11437" lon="6.46602">
        <ele>1434.42</ele>
        <time>2018-09-23T14:04:57Z</time>
      </trkpt>
      <trkpt lat="46.11437" lon="6.46602">
        <ele>1434.42</ele>
        <time>2018-09-23T14:04:59Z</time>
      </trkpt>
      <trkpt lat="46.11437" lon="6.46601">
        <ele>1434.42</ele>
        <time>2018-09-23T14:05:01Z</time>
      </trkpt>
      <trkpt lat="46.11439" lon="6.46599">
        <ele>1434.42</ele>
        <time>2018-09-23T14:05:26Z</time>
      </trkpt>
      <trkpt lat="46.1144" lon="6.46596">
        <ele>1433.94</ele>
        <time>2018-09-23T14:05:27Z</time>
      </trkpt>
      <trkpt lat="46.11441" lon="6.46594">
        <ele>1433.94</ele>
        <time>2018-09-23T14:05:28Z</time>
      </trkpt>
      <trkpt lat="46.11441" lon="6.46592">
        <ele>1433.46</ele>
        <time>2018-09-23T14:05:29Z</time>
      </trkpt>
      <trkpt lat="46.11442" lon="6.46591">
        <ele>1433.46</ele>
        <time>2018-09-23T14:05:30Z</time>
      </trkpt>
      <trkpt lat="46.11443" lon="6.46589">
        <ele>1432.98</ele>
        <time>2018-09-23T14:05:31Z</time>
      </trkpt>
      <trkpt lat="46.11452" lon="6.46575">
        <ele>1430.1</ele>
        <time>2018-09-23T14:05:37Z</time>
      </trkpt>
      <trkpt lat="46.11465" lon="6.46563">
        <ele>1426.73</ele>
        <time>2018-09-23T14:05:43Z</time>
      </trkpt>
      <trkpt lat="46.11477" lon="6.46554">
        <ele>1423.37</ele>
        <time>2018-09-23T14:05:49Z</time>
      </trkpt>
      <trkpt lat="46.11486" lon="6.46544">
        <ele>1420</ele>
        <time>2018-09-23T14:05:54Z</time>
      </trkpt>
      <trkpt lat="46.11495" lon="6.46533">
        <ele>1416.64</ele>
        <time>2018-09-23T14:05:58Z</time>
      </trkpt>
      <trkpt lat="46.11502" lon="6.46527">
        <ele>1414.24</ele>
        <time>2018-09-23T14:06:01Z</time>
      </trkpt>
      <trkpt lat="46.11511" lon="6.46511">
        <ele>1411.35</ele>
        <time>2018-09-23T14:06:07Z</time>
      </trkpt>
      <trkpt lat="46.11516" lon="6.465">
        <ele>1407.51</ele>
        <time>2018-09-23T14:06:11Z</time>
      </trkpt>
      <trkpt lat="46.11517" lon="6.46497">
        <ele>1407.51</ele>
        <time>2018-09-23T14:06:12Z</time>
      </trkpt>
      <trkpt lat="46.11522" lon="6.46491">
        <ele>1404.14</ele>
        <time>2018-09-23T14:06:15Z</time>
      </trkpt>
      <trkpt lat="46.1153" lon="6.46481">
        <ele>1400.78</ele>
        <time>2018-09-23T14:06:20Z</time>
      </trkpt>
      <trkpt lat="46.11538" lon="6.46473">
        <ele>1396.93</ele>
        <time>2018-09-23T14:06:24Z</time>
      </trkpt>
      <trkpt lat="46.11542" lon="6.46468">
        <ele>1393.57</ele>
        <time>2018-09-23T14:06:27Z</time>
      </trkpt>
      <trkpt lat="46.11544" lon="6.46467">
        <ele>1392.61</ele>
        <time>2018-09-23T14:06:28Z</time>
      </trkpt>
      <trkpt lat="46.1155" lon="6.4646">
        <ele>1389.72</ele>
        <time>2018-09-23T14:06:32Z</time>
      </trkpt>
      <trkpt lat="46.11552" lon="6.46458">
        <ele>1389.72</ele>
        <time>2018-09-23T14:06:33Z</time>
      </trkpt>
      <trkpt lat="46.1156" lon="6.46451">
        <ele>1386.36</ele>
        <time>2018-09-23T14:06:37Z</time>
      </trkpt>
      <trkpt lat="46.11566" lon="6.46443">
        <ele>1382.99</ele>
        <time>2018-09-23T14:06:40Z</time>
      </trkpt>
      <trkpt lat="46.11569" lon="6.46433">
        <ele>1380.11</ele>
        <time>2018-09-23T14:06:43Z</time>
      </trkpt>
      <trkpt lat="46.11574" lon="6.46416">
        <ele>1376.26</ele>
        <time>2018-09-23T14:06:48Z</time>
      </trkpt>
      <trkpt lat="46.11578" lon="6.46397">
        <ele>1374.34</ele>
        <time>2018-09-23T14:06:52Z</time>
      </trkpt>
      <trkpt lat="46.1158" lon="6.46382">
        <ele>1373.86</ele>
        <time>2018-09-23T14:06:56Z</time>
      </trkpt>
      <trkpt lat="46.11579" lon="6.4638">
        <ele>1373.86</ele>
        <time>2018-09-23T14:06:57Z</time>
      </trkpt>
      <trkpt lat="46.11578" lon="6.46377">
        <ele>1373.86</ele>
        <time>2018-09-23T14:06:58Z</time>
      </trkpt>
      <trkpt lat="46.11577" lon="6.46374">
        <ele>1374.34</ele>
        <time>2018-09-23T14:06:59Z</time>
      </trkpt>
      <trkpt lat="46.11576" lon="6.46371">
        <ele>1374.34</ele>
        <time>2018-09-23T14:07:00Z</time>
      </trkpt>
      <trkpt lat="46.11575" lon="6.46369">
        <ele>1374.82</ele>
        <time>2018-09-23T14:07:01Z</time>
      </trkpt>
      <trkpt lat="46.11574" lon="6.46357">
        <ele>1375.78</ele>
        <time>2018-09-23T14:07:05Z</time>
      </trkpt>
      <trkpt lat="46.11575" lon="6.46353">
        <ele>1375.78</ele>
        <time>2018-09-23T14:07:06Z</time>
      </trkpt>
      <trkpt lat="46.11585" lon="6.46326">
        <ele>1374.82</ele>
        <time>2018-09-23T14:07:13Z</time>
      </trkpt>
      <trkpt lat="46.1159" lon="6.46295">
        <ele>1373.86</ele>
        <time>2018-09-23T14:07:21Z</time>
      </trkpt>
      <trkpt lat="46.11581" lon="6.4627">
        <ele>1373.38</ele>
        <time>2018-09-23T14:07:29Z</time>
      </trkpt>
      <trkpt lat="46.1157" lon="6.46251">
        <ele>1374.82</ele>
        <time>2018-09-23T14:07:37Z</time>
      </trkpt>
      <trkpt lat="46.1157" lon="6.46248">
        <ele>1374.82</ele>
        <time>2018-09-23T14:07:38Z</time>
      </trkpt>
      <trkpt lat="46.11571" lon="6.46245">
        <ele>1374.82</ele>
        <time>2018-09-23T14:07:39Z</time>
      </trkpt>
      <trkpt lat="46.11572" lon="6.46242">
        <ele>1374.82</ele>
        <time>2018-09-23T14:07:40Z</time>
      </trkpt>
      <trkpt lat="46.11573" lon="6.46239">
        <ele>1374.82</ele>
        <time>2018-09-23T14:07:41Z</time>
      </trkpt>
      <trkpt lat="46.11574" lon="6.46236">
        <ele>1373.86</ele>
        <time>2018-09-23T14:07:42Z</time>
      </trkpt>
      <trkpt lat="46.11574" lon="6.46232">
        <ele>1373.38</ele>
        <time>2018-09-23T14:07:43Z</time>
      </trkpt>
      <trkpt lat="46.11575" lon="6.46229">
        <ele>1372.9</ele>
        <time>2018-09-23T14:07:44Z</time>
      </trkpt>
      <trkpt lat="46.11575" lon="6.46225">
        <ele>1372.42</ele>
        <time>2018-09-23T14:07:45Z</time>
      </trkpt>
      <trkpt lat="46.11576" lon="6.46222">
        <ele>1372.42</ele>
        <time>2018-09-23T14:07:46Z</time>
      </trkpt>
      <trkpt lat="46.11579" lon="6.46209">
        <ele>1370.02</ele>
        <time>2018-09-23T14:07:50Z</time>
      </trkpt>
      <trkpt lat="46.11581" lon="6.46207">
        <ele>1370.02</ele>
        <time>2018-09-23T14:07:51Z</time>
      </trkpt>
      <trkpt lat="46.11591" lon="6.46201">
        <ele>1368.57</ele>
        <time>2018-09-23T14:07:55Z</time>
      </trkpt>
      <trkpt lat="46.11604" lon="6.46197">
        <ele>1364.73</ele>
        <time>2018-09-23T14:08:01Z</time>
      </trkpt>
      <trkpt lat="46.11608" lon="6.4618">
        <ele>1361.36</ele>
        <time>2018-09-23T14:08:07Z</time>
      </trkpt>
      <trkpt lat="46.11609" lon="6.46176">
        <ele>1360.88</ele>
        <time>2018-09-23T14:08:08Z</time>
      </trkpt>
      <trkpt lat="46.1161" lon="6.46172">
        <ele>1359.92</ele>
        <time>2018-09-23T14:08:09Z</time>
      </trkpt>
      <trkpt lat="46.11615" lon="6.46164">
        <ele>1358</ele>
        <time>2018-09-23T14:08:16Z</time>
      </trkpt>
      <trkpt lat="46.11617" lon="6.46161">
        <ele>1358</ele>
        <time>2018-09-23T14:08:23Z</time>
      </trkpt>
      <trkpt lat="46.11617" lon="6.46159">
        <ele>1357.52</ele>
        <time>2018-09-23T14:08:29Z</time>
      </trkpt>
      <trkpt lat="46.11617" lon="6.46157">
        <ele>1357.52</ele>
        <time>2018-09-23T14:08:35Z</time>
      </trkpt>
      <trkpt lat="46.11598" lon="6.46145">
        <ele>1356.56</ele>
        <time>2018-09-23T14:08:47Z</time>
      </trkpt>
      <trkpt lat="46.11594" lon="6.46145">
        <ele>1356.56</ele>
        <time>2018-09-23T14:08:52Z</time>
      </trkpt>
      <trkpt lat="46.11594" lon="6.46146">
        <ele>1356.56</ele>
        <time>2018-09-23T14:08:54Z</time>
      </trkpt>
      <trkpt lat="46.11597" lon="6.4615">
        <ele>1356.56</ele>
        <time>2018-09-23T14:08:57Z</time>
      </trkpt>
      <trkpt lat="46.11598" lon="6.4615">
        <ele>1356.56</ele>
        <time>2018-09-23T14:08:58Z</time>
      </trkpt>
      <trkpt lat="46.11602" lon="6.46153">
        <ele>1356.08</ele>
        <time>2018-09-23T14:09:02Z</time>
      </trkpt>
      <trkpt lat="46.11607" lon="6.46155">
        <ele>1356.08</ele>
        <time>2018-09-23T14:09:06Z</time>
      </trkpt>
      <trkpt lat="46.11612" lon="6.46161">
        <ele>1357.04</ele>
        <time>2018-09-23T14:09:11Z</time>
      </trkpt>
      <trkpt lat="46.11613" lon="6.46163">
        <ele>1357.04</ele>
        <time>2018-09-23T14:09:12Z</time>
      </trkpt>
      <trkpt lat="46.11613" lon="6.46165">
        <ele>1357.52</ele>
        <time>2018-09-23T14:09:13Z</time>
      </trkpt>
      <trkpt lat="46.11613" lon="6.46168">
        <ele>1357.52</ele>
        <time>2018-09-23T14:09:14Z</time>
      </trkpt>
      <trkpt lat="46.11612" lon="6.4617">
        <ele>1358</ele>
        <time>2018-09-23T14:09:15Z</time>
      </trkpt>
      <trkpt lat="46.11611" lon="6.46172">
        <ele>1358</ele>
        <time>2018-09-23T14:09:16Z</time>
      </trkpt>
      <trkpt lat="46.1161" lon="6.46175">
        <ele>1358.48</ele>
        <time>2018-09-23T14:09:17Z</time>
      </trkpt>
      <trkpt lat="46.1161" lon="6.46178">
        <ele>1358.48</ele>
        <time>2018-09-23T14:09:18Z</time>
      </trkpt>
      <trkpt lat="46.1161" lon="6.4618">
        <ele>1358.96</ele>
        <time>2018-09-23T14:09:19Z</time>
      </trkpt>
      <trkpt lat="46.1161" lon="6.46182">
        <ele>1359.44</ele>
        <time>2018-09-23T14:09:20Z</time>
      </trkpt>
      <trkpt lat="46.11611" lon="6.46184">
        <ele>1359.92</ele>
        <time>2018-09-23T14:09:21Z</time>
      </trkpt>
      <trkpt lat="46.11611" lon="6.46186">
        <ele>1360.4</ele>
        <time>2018-09-23T14:09:22Z</time>
      </trkpt>
      <trkpt lat="46.11612" lon="6.46188">
        <ele>1360.4</ele>
        <time>2018-09-23T14:09:23Z</time>
      </trkpt>
      <trkpt lat="46.11612" lon="6.46189">
        <ele>1360.88</ele>
        <time>2018-09-23T14:09:24Z</time>
      </trkpt>
      <trkpt lat="46.11612" lon="6.46191">
        <ele>1361.36</ele>
        <time>2018-09-23T14:09:25Z</time>
      </trkpt>
      <trkpt lat="46.11611" lon="6.46193">
        <ele>1361.84</ele>
        <time>2018-09-23T14:09:26Z</time>
      </trkpt>
      <trkpt lat="46.11611" lon="6.46194">
        <ele>1362.33</ele>
        <time>2018-09-23T14:09:27Z</time>
      </trkpt>
      <trkpt lat="46.1161" lon="6.46195">
        <ele>1362.81</ele>
        <time>2018-09-23T14:09:28Z</time>
      </trkpt>
      <trkpt lat="46.11609" lon="6.46197">
        <ele>1362.81</ele>
        <time>2018-09-23T14:09:29Z</time>
      </trkpt>
      <trkpt lat="46.11607" lon="6.46198">
        <ele>1363.29</ele>
        <time>2018-09-23T14:09:30Z</time>
      </trkpt>
      <trkpt lat="46.11606" lon="6.46198">
        <ele>1363.29</ele>
        <time>2018-09-23T14:09:31Z</time>
      </trkpt>
      <trkpt lat="46.11604" lon="6.46199">
        <ele>1363.77</ele>
        <time>2018-09-23T14:09:33Z</time>
      </trkpt>
      <trkpt lat="46.11603" lon="6.46199">
        <ele>1364.25</ele>
        <time>2018-09-23T14:09:34Z</time>
      </trkpt>
      <trkpt lat="46.11602" lon="6.462">
        <ele>1364.73</ele>
        <time>2018-09-23T14:09:35Z</time>
      </trkpt>
      <trkpt lat="46.116" lon="6.46199">
        <ele>1365.21</ele>
        <time>2018-09-23T14:09:36Z</time>
      </trkpt>
      <trkpt lat="46.11599" lon="6.46199">
        <ele>1365.21</ele>
        <time>2018-09-23T14:09:37Z</time>
      </trkpt>
      <trkpt lat="46.11598" lon="6.462">
        <ele>1365.21</ele>
        <time>2018-09-23T14:09:38Z</time>
      </trkpt>
      <trkpt lat="46.11597" lon="6.462">
        <ele>1365.21</ele>
        <time>2018-09-23T14:09:39Z</time>
      </trkpt>
      <trkpt lat="46.11595" lon="6.462">
        <ele>1365.69</ele>
        <time>2018-09-23T14:09:40Z</time>
      </trkpt>
      <trkpt lat="46.11594" lon="6.462">
        <ele>1366.17</ele>
        <time>2018-09-23T14:09:41Z</time>
      </trkpt>
      <trkpt lat="46.11592" lon="6.462">
        <ele>1366.17</ele>
        <time>2018-09-23T14:09:42Z</time>
      </trkpt>
      <trkpt lat="46.11591" lon="6.46201">
        <ele>1366.17</ele>
        <time>2018-09-23T14:09:43Z</time>
      </trkpt>
      <trkpt lat="46.11582" lon="6.46206">
        <ele>1367.61</ele>
        <time>2018-09-23T14:09:50Z</time>
      </trkpt>
      <trkpt lat="46.11581" lon="6.46207">
        <ele>1368.09</ele>
        <time>2018-09-23T14:09:51Z</time>
      </trkpt>
      <trkpt lat="46.1158" lon="6.46208">
        <ele>1368.57</ele>
        <time>2018-09-23T14:09:52Z</time>
      </trkpt>
      <trkpt lat="46.11579" lon="6.4621">
        <ele>1368.57</ele>
        <time>2018-09-23T14:09:53Z</time>
      </trkpt>
      <trkpt lat="46.11578" lon="6.46212">
        <ele>1368.57</ele>
        <time>2018-09-23T14:09:54Z</time>
      </trkpt>
      <trkpt lat="46.11578" lon="6.46215">
        <ele>1369.05</ele>
        <time>2018-09-23T14:09:55Z</time>
      </trkpt>
      <trkpt lat="46.11578" lon="6.46217">
        <ele>1369.54</ele>
        <time>2018-09-23T14:09:56Z</time>
      </trkpt>
      <trkpt lat="46.11579" lon="6.46219">
        <ele>1370.02</ele>
        <time>2018-09-23T14:09:57Z</time>
      </trkpt>
      <trkpt lat="46.11579" lon="6.46221">
        <ele>1370.02</ele>
        <time>2018-09-23T14:09:58Z</time>
      </trkpt>
      <trkpt lat="46.11579" lon="6.46224">
        <ele>1370.5</ele>
        <time>2018-09-23T14:09:59Z</time>
      </trkpt>
      <trkpt lat="46.11579" lon="6.46226">
        <ele>1370.98</ele>
        <time>2018-09-23T14:10:00Z</time>
      </trkpt>
      <trkpt lat="46.11579" lon="6.46228">
        <ele>1370.98</ele>
        <time>2018-09-23T14:10:01Z</time>
      </trkpt>
      <trkpt lat="46.11579" lon="6.46231">
        <ele>1370.98</ele>
        <time>2018-09-23T14:10:02Z</time>
      </trkpt>
      <trkpt lat="46.11579" lon="6.46234">
        <ele>1371.46</ele>
        <time>2018-09-23T14:10:03Z</time>
      </trkpt>
      <trkpt lat="46.11576" lon="6.46247">
        <ele>1373.38</ele>
        <time>2018-09-23T14:10:10Z</time>
      </trkpt>
      <trkpt lat="46.11585" lon="6.4627">
        <ele>1373.38</ele>
        <time>2018-09-23T14:10:22Z</time>
      </trkpt>
      <trkpt lat="46.11593" lon="6.46295">
        <ele>1372.9</ele>
        <time>2018-09-23T14:10:34Z</time>
      </trkpt>
      <trkpt lat="46.11593" lon="6.46296">
        <ele>1372.9</ele>
        <time>2018-09-23T14:10:35Z</time>
      </trkpt>
      <trkpt lat="46.11594" lon="6.46296">
        <ele>1373.38</ele>
        <time>2018-09-23T14:10:36Z</time>
      </trkpt>
      <trkpt lat="46.11595" lon="6.46297">
        <ele>1373.38</ele>
        <time>2018-09-23T14:10:37Z</time>
      </trkpt>
      <trkpt lat="46.11597" lon="6.46296">
        <ele>1372.9</ele>
        <time>2018-09-23T14:10:40Z</time>
      </trkpt>
      <trkpt lat="46.11598" lon="6.46294">
        <ele>1372.9</ele>
        <time>2018-09-23T14:10:41Z</time>
      </trkpt>
      <trkpt lat="46.11599" lon="6.46292">
        <ele>1372.42</ele>
        <time>2018-09-23T14:10:42Z</time>
      </trkpt>
      <trkpt lat="46.11607" lon="6.4628">
        <ele>1370.02</ele>
        <time>2018-09-23T14:10:48Z</time>
      </trkpt>
      <trkpt lat="46.11615" lon="6.4627">
        <ele>1366.65</ele>
        <time>2018-09-23T14:10:54Z</time>
      </trkpt>
      <trkpt lat="46.11622" lon="6.46268">
        <ele>1363.29</ele>
        <time>2018-09-23T14:10:58Z</time>
      </trkpt>
      <trkpt lat="46.11633" lon="6.4627">
        <ele>1359.92</ele>
        <time>2018-09-23T14:11:02Z</time>
      </trkpt>
      <trkpt lat="46.11644" lon="6.46267">
        <ele>1357.52</ele>
        <time>2018-09-23T14:11:06Z</time>
      </trkpt>
      <trkpt lat="46.11656" lon="6.46247">
        <ele>1355.12</ele>
        <time>2018-09-23T14:11:14Z</time>
      </trkpt>
      <trkpt lat="46.11665" lon="6.46234">
        <ele>1351.75</ele>
        <time>2018-09-23T14:11:19Z</time>
      </trkpt>
      <trkpt lat="46.11671" lon="6.46226">
        <ele>1350.31</ele>
        <time>2018-09-23T14:11:22Z</time>
      </trkpt>
      <trkpt lat="46.11677" lon="6.46209">
        <ele>1346.94</ele>
        <time>2018-09-23T14:11:28Z</time>
      </trkpt>
      <trkpt lat="46.1168" lon="6.46199">
        <ele>1343.58</ele>
        <time>2018-09-23T14:11:32Z</time>
      </trkpt>
      <trkpt lat="46.11681" lon="6.46197">
        <ele>1343.58</ele>
        <time>2018-09-23T14:11:33Z</time>
      </trkpt>
      <trkpt lat="46.11683" lon="6.46195">
        <ele>1342.14</ele>
        <time>2018-09-23T14:11:34Z</time>
      </trkpt>
      <trkpt lat="46.11685" lon="6.46194">
        <ele>1341.18</ele>
        <time>2018-09-23T14:11:35Z</time>
      </trkpt>
      <trkpt lat="46.11686" lon="6.46192">
        <ele>1340.22</ele>
        <time>2018-09-23T14:11:36Z</time>
      </trkpt>
      <trkpt lat="46.11692" lon="6.46187">
        <ele>1337.33</ele>
        <time>2018-09-23T14:11:40Z</time>
      </trkpt>
      <trkpt lat="46.11694" lon="6.46186">
        <ele>1336.37</ele>
        <time>2018-09-23T14:11:41Z</time>
      </trkpt>
      <trkpt lat="46.11702" lon="6.46186">
        <ele>1333.01</ele>
        <time>2018-09-23T14:11:45Z</time>
      </trkpt>
      <trkpt lat="46.1171" lon="6.46186">
        <ele>1329.16</ele>
        <time>2018-09-23T14:11:49Z</time>
      </trkpt>
      <trkpt lat="46.11716" lon="6.46179">
        <ele>1327.72</ele>
        <time>2018-09-23T14:11:52Z</time>
      </trkpt>
      <trkpt lat="46.11725" lon="6.46147">
        <ele>1326.76</ele>
        <time>2018-09-23T14:12:01Z</time>
      </trkpt>
      <trkpt lat="46.11724" lon="6.46117">
        <ele>1327.24</ele>
        <time>2018-09-23T14:12:10Z</time>
      </trkpt>
      <trkpt lat="46.11719" lon="6.46095">
        <ele>1327.24</ele>
        <time>2018-09-23T14:12:16Z</time>
      </trkpt>
      <trkpt lat="46.11721" lon="6.46072">
        <ele>1328.2</ele>
        <time>2018-09-23T14:12:22Z</time>
      </trkpt>
      <trkpt lat="46.1172" lon="6.46042">
        <ele>1328.2</ele>
        <time>2018-09-23T14:12:30Z</time>
      </trkpt>
      <trkpt lat="46.11712" lon="6.46011">
        <ele>1328.2</ele>
        <time>2018-09-23T14:12:38Z</time>
      </trkpt>
      <trkpt lat="46.11701" lon="6.45984">
        <ele>1328.2</ele>
        <time>2018-09-23T14:12:46Z</time>
      </trkpt>
      <trkpt lat="46.11698" lon="6.45956">
        <ele>1328.2</ele>
        <time>2018-09-23T14:12:54Z</time>
      </trkpt>
      <trkpt lat="46.11714" lon="6.45933">
        <ele>1329.16</ele>
        <time>2018-09-23T14:13:02Z</time>
      </trkpt>
      <trkpt lat="46.11728" lon="6.45911">
        <ele>1329.16</ele>
        <time>2018-09-23T14:13:10Z</time>
      </trkpt>
      <trkpt lat="46.11739" lon="6.45884">
        <ele>1330.6</ele>
        <time>2018-09-23T14:13:18Z</time>
      </trkpt>
      <trkpt lat="46.11746" lon="6.45855">
        <ele>1331.56</ele>
        <time>2018-09-23T14:13:27Z</time>
      </trkpt>
      <trkpt lat="46.11752" lon="6.45826">
        <ele>1331.56</ele>
        <time>2018-09-23T14:13:35Z</time>
      </trkpt>
      <trkpt lat="46.11756" lon="6.45797">
        <ele>1331.56</ele>
        <time>2018-09-23T14:13:43Z</time>
      </trkpt>
      <trkpt lat="46.11759" lon="6.45768">
        <ele>1330.6</ele>
        <time>2018-09-23T14:13:51Z</time>
      </trkpt>
      <trkpt lat="46.1177" lon="6.4574">
        <ele>1329.64</ele>
        <time>2018-09-23T14:13:59Z</time>
      </trkpt>
      <trkpt lat="46.11783" lon="6.45717">
        <ele>1327.72</ele>
        <time>2018-09-23T14:14:06Z</time>
      </trkpt>
      <trkpt lat="46.11799" lon="6.45696">
        <ele>1325.8</ele>
        <time>2018-09-23T14:14:13Z</time>
      </trkpt>
      <trkpt lat="46.11815" lon="6.45678">
        <ele>1323.39</ele>
        <time>2018-09-23T14:14:20Z</time>
      </trkpt>
      <trkpt lat="46.11828" lon="6.45655">
        <ele>1321.95</ele>
        <time>2018-09-23T14:14:27Z</time>
      </trkpt>
      <trkpt lat="46.1183" lon="6.45628">
        <ele>1319.55</ele>
        <time>2018-09-23T14:14:34Z</time>
      </trkpt>
      <trkpt lat="46.11824" lon="6.45601">
        <ele>1317.14</ele>
        <time>2018-09-23T14:14:41Z</time>
      </trkpt>
      <trkpt lat="46.11817" lon="6.45573">
        <ele>1315.22</ele>
        <time>2018-09-23T14:14:47Z</time>
      </trkpt>
      <trkpt lat="46.11814" lon="6.45557">
        <ele>1312.82</ele>
        <time>2018-09-23T14:14:51Z</time>
      </trkpt>
      <trkpt lat="46.11805" lon="6.45535">
        <ele>1311.38</ele>
        <time>2018-09-23T14:14:57Z</time>
      </trkpt>
      <trkpt lat="46.11798" lon="6.45518">
        <ele>1310.41</ele>
        <time>2018-09-23T14:15:02Z</time>
      </trkpt>
      <trkpt lat="46.11794" lon="6.45492">
        <ele>1309.45</ele>
        <time>2018-09-23T14:15:08Z</time>
      </trkpt>
      <trkpt lat="46.11792" lon="6.45462">
        <ele>1307.05</ele>
        <time>2018-09-23T14:15:15Z</time>
      </trkpt>
      <trkpt lat="46.11792" lon="6.45458">
        <ele>1306.57</ele>
        <time>2018-09-23T14:15:16Z</time>
      </trkpt>
      <trkpt lat="46.11792" lon="6.45429">
        <ele>1305.13</ele>
        <time>2018-09-23T14:15:24Z</time>
      </trkpt>
      <trkpt lat="46.11787" lon="6.4541">
        <ele>1304.17</ele>
        <time>2018-09-23T14:15:33Z</time>
      </trkpt>
      <trkpt lat="46.11783" lon="6.45396">
        <ele>1302.72</ele>
        <time>2018-09-23T14:15:40Z</time>
      </trkpt>
      <trkpt lat="46.1178" lon="6.45388">
        <ele>1302.24</ele>
        <time>2018-09-23T14:15:44Z</time>
      </trkpt>
      <trkpt lat="46.11777" lon="6.45384">
        <ele>1301.76</ele>
        <time>2018-09-23T14:15:47Z</time>
      </trkpt>
      <trkpt lat="46.11772" lon="6.45377">
        <ele>1301.28</ele>
        <time>2018-09-23T14:15:52Z</time>
      </trkpt>
      <trkpt lat="46.11757" lon="6.45361">
        <ele>1299.84</ele>
        <time>2018-09-23T14:15:59Z</time>
      </trkpt>
      <trkpt lat="46.11746" lon="6.45351">
        <ele>1298.4</ele>
        <time>2018-09-23T14:16:04Z</time>
      </trkpt>
      <trkpt lat="46.11728" lon="6.45337">
        <ele>1296.96</ele>
        <time>2018-09-23T14:16:11Z</time>
      </trkpt>
      <trkpt lat="46.11712" lon="6.45321">
        <ele>1295.51</ele>
        <time>2018-09-23T14:16:18Z</time>
      </trkpt>
      <trkpt lat="46.11692" lon="6.45306">
        <ele>1293.59</ele>
        <time>2018-09-23T14:16:25Z</time>
      </trkpt>
      <trkpt lat="46.11675" lon="6.45289">
        <ele>1291.19</ele>
        <time>2018-09-23T14:16:32Z</time>
      </trkpt>
      <trkpt lat="46.11661" lon="6.45269">
        <ele>1289.75</ele>
        <time>2018-09-23T14:16:39Z</time>
      </trkpt>
      <trkpt lat="46.11641" lon="6.45255">
        <ele>1288.3</ele>
        <time>2018-09-23T14:16:47Z</time>
      </trkpt>
      <trkpt lat="46.11621" lon="6.45244">
        <ele>1286.86</ele>
        <time>2018-09-23T14:16:54Z</time>
      </trkpt>
      <trkpt lat="46.11603" lon="6.45227">
        <ele>1284.94</ele>
        <time>2018-09-23T14:17:02Z</time>
      </trkpt>
      <trkpt lat="46.11602" lon="6.45222">
        <ele>1284.46</ele>
        <time>2018-09-23T14:17:03Z</time>
      </trkpt>
      <trkpt lat="46.11602" lon="6.45218">
        <ele>1284.46</ele>
        <time>2018-09-23T14:17:04Z</time>
      </trkpt>
      <trkpt lat="46.11604" lon="6.45214">
        <ele>1283.98</ele>
        <time>2018-09-23T14:17:05Z</time>
      </trkpt>
      <trkpt lat="46.11608" lon="6.45214">
        <ele>1283.5</ele>
        <time>2018-09-23T14:17:06Z</time>
      </trkpt>
      <trkpt lat="46.1161" lon="6.45215">
        <ele>1283.02</ele>
        <time>2018-09-23T14:17:07Z</time>
      </trkpt>
      <trkpt lat="46.11613" lon="6.45216">
        <ele>1282.54</ele>
        <time>2018-09-23T14:17:08Z</time>
      </trkpt>
      <trkpt lat="46.11616" lon="6.45218">
        <ele>1282.06</ele>
        <time>2018-09-23T14:17:09Z</time>
      </trkpt>
      <trkpt lat="46.11619" lon="6.4522">
        <ele>1281.57</ele>
        <time>2018-09-23T14:17:10Z</time>
      </trkpt>
      <trkpt lat="46.11622" lon="6.45222">
        <ele>1281.09</ele>
        <time>2018-09-23T14:17:11Z</time>
      </trkpt>
      <trkpt lat="46.11625" lon="6.45223">
        <ele>1280.61</ele>
        <time>2018-09-23T14:17:12Z</time>
      </trkpt>
      <trkpt lat="46.11645" lon="6.45234">
        <ele>1278.69</ele>
        <time>2018-09-23T14:17:19Z</time>
      </trkpt>
      <trkpt lat="46.11667" lon="6.4524">
        <ele>1277.25</ele>
        <time>2018-09-23T14:17:26Z</time>
      </trkpt>
      <trkpt lat="46.11681" lon="6.45249">
        <ele>1274.85</ele>
        <time>2018-09-23T14:17:31Z</time>
      </trkpt>
      <trkpt lat="46.11701" lon="6.45263">
        <ele>1273.4</ele>
        <time>2018-09-23T14:17:38Z</time>
      </trkpt>
      <trkpt lat="46.1172" lon="6.45266">
        <ele>1271.96</ele>
        <time>2018-09-23T14:17:45Z</time>
      </trkpt>
      <trkpt lat="46.1174" lon="6.45271">
        <ele>1269.08</ele>
        <time>2018-09-23T14:17:53Z</time>
      </trkpt>
      <trkpt lat="46.1176" lon="6.45284">
        <ele>1267.16</ele>
        <time>2018-09-23T14:18:00Z</time>
      </trkpt>
      <trkpt lat="46.11778" lon="6.45291">
        <ele>1265.71</ele>
        <time>2018-09-23T14:18:06Z</time>
      </trkpt>
      <trkpt lat="46.11799" lon="6.45298">
        <ele>1263.79</ele>
        <time>2018-09-23T14:18:13Z</time>
      </trkpt>
      <trkpt lat="46.1182" lon="6.45305">
        <ele>1261.39</ele>
        <time>2018-09-23T14:18:20Z</time>
      </trkpt>
      <trkpt lat="46.1184" lon="6.45307">
        <ele>1258.5</ele>
        <time>2018-09-23T14:18:27Z</time>
      </trkpt>
      <trkpt lat="46.11861" lon="6.45315">
        <ele>1256.1</ele>
        <time>2018-09-23T14:18:34Z</time>
      </trkpt>
      <trkpt lat="46.11879" lon="6.45324">
        <ele>1253.7</ele>
        <time>2018-09-23T14:18:41Z</time>
      </trkpt>
      <trkpt lat="46.11894" lon="6.4534">
        <ele>1251.77</ele>
        <time>2018-09-23T14:18:48Z</time>
      </trkpt>
      <trkpt lat="46.11906" lon="6.45369">
        <ele>1249.37</ele>
        <time>2018-09-23T14:18:56Z</time>
      </trkpt>
      <trkpt lat="46.11907" lon="6.454">
        <ele>1247.93</ele>
        <time>2018-09-23T14:19:04Z</time>
      </trkpt>
      <trkpt lat="46.11908" lon="6.45401">
        <ele>1247.45</ele>
        <time>2018-09-23T14:19:05Z</time>
      </trkpt>
      <trkpt lat="46.11911" lon="6.45403">
        <ele>1247.45</ele>
        <time>2018-09-23T14:19:06Z</time>
      </trkpt>
      <trkpt lat="46.11914" lon="6.45403">
        <ele>1247.45</ele>
        <time>2018-09-23T14:19:07Z</time>
      </trkpt>
      <trkpt lat="46.11918" lon="6.45401">
        <ele>1246.97</ele>
        <time>2018-09-23T14:19:08Z</time>
      </trkpt>
      <trkpt lat="46.11921" lon="6.45397">
        <ele>1246.49</ele>
        <time>2018-09-23T14:19:09Z</time>
      </trkpt>
      <trkpt lat="46.11922" lon="6.45393">
        <ele>1246.01</ele>
        <time>2018-09-23T14:19:10Z</time>
      </trkpt>
      <trkpt lat="46.11924" lon="6.4539">
        <ele>1246.01</ele>
        <time>2018-09-23T14:19:11Z</time>
      </trkpt>
      <trkpt lat="46.11924" lon="6.45387">
        <ele>1245.53</ele>
        <time>2018-09-23T14:19:12Z</time>
      </trkpt>
      <trkpt lat="46.11924" lon="6.45383">
        <ele>1245.04</ele>
        <time>2018-09-23T14:19:13Z</time>
      </trkpt>
      <trkpt lat="46.11924" lon="6.45379">
        <ele>1245.04</ele>
        <time>2018-09-23T14:19:14Z</time>
      </trkpt>
      <trkpt lat="46.11919" lon="6.45353">
        <ele>1244.08</ele>
        <time>2018-09-23T14:19:21Z</time>
      </trkpt>
      <trkpt lat="46.11911" lon="6.45326">
        <ele>1242.64</ele>
        <time>2018-09-23T14:19:28Z</time>
      </trkpt>
      <trkpt lat="46.11901" lon="6.45302">
        <ele>1240.72</ele>
        <time>2018-09-23T14:19:35Z</time>
      </trkpt>
      <trkpt lat="46.11884" lon="6.45285">
        <ele>1237.83</ele>
        <time>2018-09-23T14:19:43Z</time>
      </trkpt>
      <trkpt lat="46.11868" lon="6.45267">
        <ele>1235.43</ele>
        <time>2018-09-23T14:19:50Z</time>
      </trkpt>
      <trkpt lat="46.11851" lon="6.45253">
        <ele>1232.55</ele>
        <time>2018-09-23T14:19:57Z</time>
      </trkpt>
      <trkpt lat="46.11832" lon="6.45239">
        <ele>1229.18</ele>
        <time>2018-09-23T14:20:04Z</time>
      </trkpt>
      <trkpt lat="46.11815" lon="6.45224">
        <ele>1226.78</ele>
        <time>2018-09-23T14:20:11Z</time>
      </trkpt>
      <trkpt lat="46.11797" lon="6.45204">
        <ele>1223.42</ele>
        <time>2018-09-23T14:20:19Z</time>
      </trkpt>
      <trkpt lat="46.11779" lon="6.45185">
        <ele>1220.05</ele>
        <time>2018-09-23T14:20:26Z</time>
      </trkpt>
      <trkpt lat="46.11766" lon="6.45175">
        <ele>1218.61</ele>
        <time>2018-09-23T14:20:31Z</time>
      </trkpt>
      <trkpt lat="46.11749" lon="6.45158">
        <ele>1215.72</ele>
        <time>2018-09-23T14:20:39Z</time>
      </trkpt>
      <trkpt lat="46.11734" lon="6.45135">
        <ele>1213.8</ele>
        <time>2018-09-23T14:20:46Z</time>
      </trkpt>
      <trkpt lat="46.1173" lon="6.45129">
        <ele>1212.84</ele>
        <time>2018-09-23T14:20:48Z</time>
      </trkpt>
      <trkpt lat="46.11727" lon="6.45126">
        <ele>1212.36</ele>
        <time>2018-09-23T14:20:49Z</time>
      </trkpt>
      <trkpt lat="46.11711" lon="6.45103">
        <ele>1209.48</ele>
        <time>2018-09-23T14:20:57Z</time>
      </trkpt>
      <trkpt lat="46.11697" lon="6.45076">
        <ele>1206.59</ele>
        <time>2018-09-23T14:21:05Z</time>
      </trkpt>
      <trkpt lat="46.1168" lon="6.45058">
        <ele>1204.67</ele>
        <time>2018-09-23T14:21:13Z</time>
      </trkpt>
      <trkpt lat="46.11671" lon="6.45051">
        <ele>1203.71</ele>
        <time>2018-09-23T14:21:18Z</time>
      </trkpt>
      <trkpt lat="46.1167" lon="6.45051">
        <ele>1203.71</ele>
        <time>2018-09-23T14:21:19Z</time>
      </trkpt>
      <trkpt lat="46.11668" lon="6.45051">
        <ele>1204.19</ele>
        <time>2018-09-23T14:21:20Z</time>
      </trkpt>
      <trkpt lat="46.11667" lon="6.45051">
        <ele>1204.19</ele>
        <time>2018-09-23T14:21:21Z</time>
      </trkpt>
      <trkpt lat="46.11665" lon="6.45051">
        <ele>1204.67</ele>
        <time>2018-09-23T14:21:22Z</time>
      </trkpt>
      <trkpt lat="46.11656" lon="6.45049">
        <ele>1206.11</ele>
        <time>2018-09-23T14:21:28Z</time>
      </trkpt>
      <trkpt lat="46.11649" lon="6.45047">
        <ele>1207.07</ele>
        <time>2018-09-23T14:21:33Z</time>
      </trkpt>
      <trkpt lat="46.11642" lon="6.45044">
        <ele>1208.51</ele>
        <time>2018-09-23T14:21:37Z</time>
      </trkpt>
      <trkpt lat="46.11638" lon="6.45043">
        <ele>1209.48</ele>
        <time>2018-09-23T14:21:41Z</time>
      </trkpt>
      <trkpt lat="46.11631" lon="6.45042">
        <ele>1211.4</ele>
        <time>2018-09-23T14:21:47Z</time>
      </trkpt>
      <trkpt lat="46.11626" lon="6.45044">
        <ele>1212.84</ele>
        <time>2018-09-23T14:21:51Z</time>
      </trkpt>
      <trkpt lat="46.11619" lon="6.45043">
        <ele>1215.72</ele>
        <time>2018-09-23T14:22:01Z</time>
      </trkpt>
      <trkpt lat="46.11608" lon="6.45044">
        <ele>1218.13</ele>
        <time>2018-09-23T14:22:11Z</time>
      </trkpt>
      <trkpt lat="46.116" lon="6.4505">
        <ele>1220.05</ele>
        <time>2018-09-23T14:22:19Z</time>
      </trkpt>
      <trkpt lat="46.11591" lon="6.45055">
        <ele>1221.97</ele>
        <time>2018-09-23T14:22:28Z</time>
      </trkpt>
      <trkpt lat="46.1159" lon="6.45055">
        <ele>1221.97</ele>
        <time>2018-09-23T14:22:29Z</time>
      </trkpt>
      <trkpt lat="46.11582" lon="6.45057">
        <ele>1224.38</ele>
        <time>2018-09-23T14:22:38Z</time>
      </trkpt>
      <trkpt lat="46.11577" lon="6.45058">
        <ele>1225.82</ele>
        <time>2018-09-23T14:22:45Z</time>
      </trkpt>
      <trkpt lat="46.11567" lon="6.45058">
        <ele>1229.18</ele>
        <time>2018-09-23T14:22:55Z</time>
      </trkpt>
      <trkpt lat="46.11565" lon="6.45058">
        <ele>1229.66</ele>
        <time>2018-09-23T14:22:57Z</time>
      </trkpt>
      <trkpt lat="46.11565" lon="6.45058">
        <ele>1229.66</ele>
        <time>2018-09-23T14:22:58Z</time>
      </trkpt>
      <trkpt lat="46.11564" lon="6.45057">
        <ele>1230.14</ele>
        <time>2018-09-23T14:22:59Z</time>
      </trkpt>
      <trkpt lat="46.11549" lon="6.45047">
        <ele>1233.51</ele>
        <time>2018-09-23T14:23:12Z</time>
      </trkpt>
      <trkpt lat="46.1154" lon="6.45033">
        <ele>1236.39</ele>
        <time>2018-09-23T14:23:25Z</time>
      </trkpt>
      <trkpt lat="46.1153" lon="6.45016">
        <ele>1239.76</ele>
        <time>2018-09-23T14:23:38Z</time>
      </trkpt>
      <trkpt lat="46.11524" lon="6.45003">
        <ele>1242.64</ele>
        <time>2018-09-23T14:23:50Z</time>
      </trkpt>
      <trkpt lat="46.11518" lon="6.44993">
        <ele>1246.01</ele>
        <time>2018-09-23T14:24:02Z</time>
      </trkpt>
      <trkpt lat="46.11516" lon="6.44989">
        <ele>1246.49</ele>
        <time>2018-09-23T14:24:07Z</time>
      </trkpt>
      <trkpt lat="46.11515" lon="6.44988">
        <ele>1246.97</ele>
        <time>2018-09-23T14:24:08Z</time>
      </trkpt>
      <trkpt lat="46.11513" lon="6.44982">
        <ele>1248.41</ele>
        <time>2018-09-23T14:24:14Z</time>
      </trkpt>
      <trkpt lat="46.1151" lon="6.44965">
        <ele>1251.29</ele>
        <time>2018-09-23T14:24:27Z</time>
      </trkpt>
      <trkpt lat="46.11507" lon="6.4496">
        <ele>1252.25</ele>
        <time>2018-09-23T14:24:32Z</time>
      </trkpt>
      <trkpt lat="46.11507" lon="6.44959">
        <ele>1252.74</ele>
        <time>2018-09-23T14:24:33Z</time>
      </trkpt>
      <trkpt lat="46.11503" lon="6.4494">
        <ele>1255.62</ele>
        <time>2018-09-23T14:24:46Z</time>
      </trkpt>
      <trkpt lat="46.11509" lon="6.44922">
        <ele>1258.98</ele>
        <time>2018-09-23T14:24:59Z</time>
      </trkpt>
      <trkpt lat="46.11514" lon="6.44903">
        <ele>1262.35</ele>
        <time>2018-09-23T14:25:13Z</time>
      </trkpt>
      <trkpt lat="46.11521" lon="6.44885">
        <ele>1265.23</ele>
        <time>2018-09-23T14:25:27Z</time>
      </trkpt>
      <trkpt lat="46.11525" lon="6.44868">
        <ele>1268.6</ele>
        <time>2018-09-23T14:25:41Z</time>
      </trkpt>
      <trkpt lat="46.11526" lon="6.44849">
        <ele>1271.48</ele>
        <time>2018-09-23T14:25:55Z</time>
      </trkpt>
      <trkpt lat="46.11526" lon="6.44834">
        <ele>1274.36</ele>
        <time>2018-09-23T14:26:07Z</time>
      </trkpt>
      <trkpt lat="46.11531" lon="6.44817">
        <ele>1277.73</ele>
        <time>2018-09-23T14:26:20Z</time>
      </trkpt>
      <trkpt lat="46.11532" lon="6.44809">
        <ele>1278.69</ele>
        <time>2018-09-23T14:26:25Z</time>
      </trkpt>
      <trkpt lat="46.11536" lon="6.44791">
        <ele>1282.06</ele>
        <time>2018-09-23T14:26:38Z</time>
      </trkpt>
      <trkpt lat="46.11536" lon="6.44771">
        <ele>1285.42</ele>
        <time>2018-09-23T14:26:52Z</time>
      </trkpt>
      <trkpt lat="46.1154" lon="6.44755">
        <ele>1288.3</ele>
        <time>2018-09-23T14:27:05Z</time>
      </trkpt>
      <trkpt lat="46.11543" lon="6.44734">
        <ele>1291.19</ele>
        <time>2018-09-23T14:27:19Z</time>
      </trkpt>
      <trkpt lat="46.11546" lon="6.44721">
        <ele>1291.67</ele>
        <time>2018-09-23T14:27:25Z</time>
      </trkpt>
      <trkpt lat="46.11548" lon="6.44719">
        <ele>1291.67</ele>
        <time>2018-09-23T14:27:26Z</time>
      </trkpt>
      <trkpt lat="46.11549" lon="6.44717">
        <ele>1291.67</ele>
        <time>2018-09-23T14:27:27Z</time>
      </trkpt>
      <trkpt lat="46.11552" lon="6.44714">
        <ele>1292.15</ele>
        <time>2018-09-23T14:27:29Z</time>
      </trkpt>
      <trkpt lat="46.11553" lon="6.44712">
        <ele>1292.15</ele>
        <time>2018-09-23T14:27:30Z</time>
      </trkpt>
      <trkpt lat="46.11564" lon="6.44698">
        <ele>1295.51</ele>
        <time>2018-09-23T14:27:40Z</time>
      </trkpt>
      <trkpt lat="46.11577" lon="6.44677">
        <ele>1297.44</ele>
        <time>2018-09-23T14:27:50Z</time>
      </trkpt>
      <trkpt lat="46.11578" lon="6.44675">
        <ele>1297.92</ele>
        <time>2018-09-23T14:27:51Z</time>
      </trkpt>
      <trkpt lat="46.11579" lon="6.44673">
        <ele>1298.4</ele>
        <time>2018-09-23T14:27:52Z</time>
      </trkpt>
      <trkpt lat="46.1158" lon="6.44671">
        <ele>1298.4</ele>
        <time>2018-09-23T14:27:53Z</time>
      </trkpt>
      <trkpt lat="46.11581" lon="6.44669">
        <ele>1298.88</ele>
        <time>2018-09-23T14:27:54Z</time>
      </trkpt>
      <trkpt lat="46.11582" lon="6.44667">
        <ele>1298.88</ele>
        <time>2018-09-23T14:27:55Z</time>
      </trkpt>
      <trkpt lat="46.1159" lon="6.44643">
        <ele>1302.24</ele>
        <time>2018-09-23T14:28:08Z</time>
      </trkpt>
      <trkpt lat="46.11594" lon="6.44628">
        <ele>1304.65</ele>
        <time>2018-09-23T14:28:17Z</time>
      </trkpt>
      <trkpt lat="46.11595" lon="6.44626">
        <ele>1305.13</ele>
        <time>2018-09-23T14:28:18Z</time>
      </trkpt>
      <trkpt lat="46.11603" lon="6.44607">
        <ele>1308.01</ele>
        <time>2018-09-23T14:28:32Z</time>
      </trkpt>
      <trkpt lat="46.11611" lon="6.44592">
        <ele>1311.38</ele>
        <time>2018-09-23T14:28:46Z</time>
      </trkpt>
      <trkpt lat="46.11626" lon="6.4457">
        <ele>1313.78</ele>
        <time>2018-09-23T14:28:59Z</time>
      </trkpt>
      <trkpt lat="46.11635" lon="6.44554">
        <ele>1316.66</ele>
        <time>2018-09-23T14:29:09Z</time>
      </trkpt>
      <trkpt lat="46.11635" lon="6.44553">
        <ele>1317.14</ele>
        <time>2018-09-23T14:29:10Z</time>
      </trkpt>
      <trkpt lat="46.11635" lon="6.44551">
        <ele>1317.62</ele>
        <time>2018-09-23T14:29:11Z</time>
      </trkpt>
      <trkpt lat="46.11635" lon="6.44549">
        <ele>1317.62</ele>
        <time>2018-09-23T14:29:12Z</time>
      </trkpt>
      <trkpt lat="46.1164" lon="6.44532">
        <ele>1320.99</ele>
        <time>2018-09-23T14:29:25Z</time>
      </trkpt>
      <trkpt lat="46.11645" lon="6.44515">
        <ele>1323.87</ele>
        <time>2018-09-23T14:29:39Z</time>
      </trkpt>
      <trkpt lat="46.11649" lon="6.44503">
        <ele>1327.24</ele>
        <time>2018-09-23T14:29:52Z</time>
      </trkpt>
      <trkpt lat="46.11654" lon="6.44487">
        <ele>1330.6</ele>
        <time>2018-09-23T14:30:05Z</time>
      </trkpt>
      <trkpt lat="46.11661" lon="6.44471">
        <ele>1333.49</ele>
        <time>2018-09-23T14:30:18Z</time>
      </trkpt>
      <trkpt lat="46.11667" lon="6.44465">
        <ele>1335.41</ele>
        <time>2018-09-23T14:30:27Z</time>
      </trkpt>
      <trkpt lat="46.11675" lon="6.44454">
        <ele>1338.77</ele>
        <time>2018-09-23T14:30:41Z</time>
      </trkpt>
      <trkpt lat="46.11676" lon="6.44451">
        <ele>1339.25</ele>
        <time>2018-09-23T14:30:44Z</time>
      </trkpt>
      <trkpt lat="46.11683" lon="6.44439">
        <ele>1342.62</ele>
        <time>2018-09-23T14:30:57Z</time>
      </trkpt>
      <trkpt lat="46.1169" lon="6.4443">
        <ele>1345.5</ele>
        <time>2018-09-23T14:31:09Z</time>
      </trkpt>
      <trkpt lat="46.11695" lon="6.44418">
        <ele>1348.39</ele>
        <time>2018-09-23T14:31:22Z</time>
      </trkpt>
      <trkpt lat="46.11696" lon="6.44405">
        <ele>1351.75</ele>
        <time>2018-09-23T14:31:35Z</time>
      </trkpt>
      <trkpt lat="46.11696" lon="6.44394">
        <ele>1354.63</ele>
        <time>2018-09-23T14:31:48Z</time>
      </trkpt>
      <trkpt lat="46.11698" lon="6.44388">
        <ele>1355.6</ele>
        <time>2018-09-23T14:31:53Z</time>
      </trkpt>
      <trkpt lat="46.11699" lon="6.44386">
        <ele>1356.08</ele>
        <time>2018-09-23T14:31:54Z</time>
      </trkpt>
      <trkpt lat="46.117" lon="6.44373">
        <ele>1358.96</ele>
        <time>2018-09-23T14:32:06Z</time>
      </trkpt>
      <trkpt lat="46.117" lon="6.44365">
        <ele>1360.88</ele>
        <time>2018-09-23T14:32:14Z</time>
      </trkpt>
      <trkpt lat="46.11706" lon="6.44345">
        <ele>1363.77</ele>
        <time>2018-09-23T14:32:28Z</time>
      </trkpt>
      <trkpt lat="46.11718" lon="6.44314">
        <ele>1366.65</ele>
        <time>2018-09-23T14:32:43Z</time>
      </trkpt>
      <trkpt lat="46.11718" lon="6.44297">
        <ele>1370.02</ele>
        <time>2018-09-23T14:32:54Z</time>
      </trkpt>
      <trkpt lat="46.11719" lon="6.44286">
        <ele>1372.42</ele>
        <time>2018-09-23T14:33:03Z</time>
      </trkpt>
      <trkpt lat="46.11722" lon="6.44272">
        <ele>1375.3</ele>
        <time>2018-09-23T14:33:15Z</time>
      </trkpt>
      <trkpt lat="46.11722" lon="6.44244">
        <ele>1377.71</ele>
        <time>2018-09-23T14:33:29Z</time>
      </trkpt>
      <trkpt lat="46.11724" lon="6.4422">
        <ele>1380.59</ele>
        <time>2018-09-23T14:33:40Z</time>
      </trkpt>
      <trkpt lat="46.1172" lon="6.44193">
        <ele>1383.96</ele>
        <time>2018-09-23T14:33:53Z</time>
      </trkpt>
      <trkpt lat="46.1172" lon="6.44191">
        <ele>1383.96</ele>
        <time>2018-09-23T14:33:54Z</time>
      </trkpt>
      <trkpt lat="46.1172" lon="6.44189">
        <ele>1383.96</ele>
        <time>2018-09-23T14:33:55Z</time>
      </trkpt>
      <trkpt lat="46.11719" lon="6.44187">
        <ele>1384.44</ele>
        <time>2018-09-23T14:33:56Z</time>
      </trkpt>
      <trkpt lat="46.11719" lon="6.44185">
        <ele>1384.44</ele>
        <time>2018-09-23T14:33:57Z</time>
      </trkpt>
      <trkpt lat="46.11718" lon="6.44184">
        <ele>1384.92</ele>
        <time>2018-09-23T14:33:58Z</time>
      </trkpt>
      <trkpt lat="46.1171" lon="6.44163">
        <ele>1387.8</ele>
        <time>2018-09-23T14:34:12Z</time>
      </trkpt>
      <trkpt lat="46.11708" lon="6.4416">
        <ele>1389.24</ele>
        <time>2018-09-23T14:34:15Z</time>
      </trkpt>
      <trkpt lat="46.11707" lon="6.44159">
        <ele>1389.24</ele>
        <time>2018-09-23T14:34:16Z</time>
      </trkpt>
      <trkpt lat="46.11706" lon="6.44158">
        <ele>1389.24</ele>
        <time>2018-09-23T14:34:17Z</time>
      </trkpt>
      <trkpt lat="46.11705" lon="6.44157">
        <ele>1389.72</ele>
        <time>2018-09-23T14:34:18Z</time>
      </trkpt>
      <trkpt lat="46.11704" lon="6.44157">
        <ele>1390.2</ele>
        <time>2018-09-23T14:34:19Z</time>
      </trkpt>
      <trkpt lat="46.11699" lon="6.44156">
        <ele>1391.17</ele>
        <time>2018-09-23T14:34:23Z</time>
      </trkpt>
      <trkpt lat="46.11695" lon="6.44158">
        <ele>1392.61</ele>
        <time>2018-09-23T14:34:27Z</time>
      </trkpt>
      <trkpt lat="46.11694" lon="6.4416">
        <ele>1392.61</ele>
        <time>2018-09-23T14:34:28Z</time>
      </trkpt>
      <trkpt lat="46.11693" lon="6.44161">
        <ele>1393.09</ele>
        <time>2018-09-23T14:34:29Z</time>
      </trkpt>
      <trkpt lat="46.1168" lon="6.44179">
        <ele>1395.97</ele>
        <time>2018-09-23T14:34:41Z</time>
      </trkpt>
      <trkpt lat="46.11674" lon="6.4418">
        <ele>1397.89</ele>
        <time>2018-09-23T14:34:47Z</time>
      </trkpt>
      <trkpt lat="46.11673" lon="6.44179">
        <ele>1398.37</ele>
        <time>2018-09-23T14:34:48Z</time>
      </trkpt>
      <trkpt lat="46.11672" lon="6.44177">
        <ele>1398.37</ele>
        <time>2018-09-23T14:34:49Z</time>
      </trkpt>
      <trkpt lat="46.11671" lon="6.44175">
        <ele>1398.37</ele>
        <time>2018-09-23T14:34:50Z</time>
      </trkpt>
      <trkpt lat="46.1167" lon="6.44173">
        <ele>1398.86</ele>
        <time>2018-09-23T14:34:51Z</time>
      </trkpt>
      <trkpt lat="46.11669" lon="6.44171">
        <ele>1399.34</ele>
        <time>2018-09-23T14:34:52Z</time>
      </trkpt>
      <trkpt lat="46.11663" lon="6.44145">
        <ele>1402.22</ele>
        <time>2018-09-23T14:35:05Z</time>
      </trkpt>
      <trkpt lat="46.11657" lon="6.44129">
        <ele>1405.58</ele>
        <time>2018-09-23T14:35:15Z</time>
      </trkpt>
      <trkpt lat="46.11652" lon="6.44113">
        <ele>1408.95</ele>
        <time>2018-09-23T14:35:27Z</time>
      </trkpt>
      <trkpt lat="46.11648" lon="6.44102">
        <ele>1410.87</ele>
        <time>2018-09-23T14:35:37Z</time>
      </trkpt>
      <trkpt lat="46.11647" lon="6.441">
        <ele>1411.35</ele>
        <time>2018-09-23T14:35:39Z</time>
      </trkpt>
      <trkpt lat="46.11647" lon="6.44098">
        <ele>1411.83</ele>
        <time>2018-09-23T14:35:40Z</time>
      </trkpt>
      <trkpt lat="46.11646" lon="6.44097">
        <ele>1411.83</ele>
        <time>2018-09-23T14:35:41Z</time>
      </trkpt>
      <trkpt lat="46.11645" lon="6.44096">
        <ele>1412.31</ele>
        <time>2018-09-23T14:35:42Z</time>
      </trkpt>
      <trkpt lat="46.11644" lon="6.44094">
        <ele>1412.31</ele>
        <time>2018-09-23T14:35:43Z</time>
      </trkpt>
      <trkpt lat="46.11643" lon="6.44093">
        <ele>1412.79</ele>
        <time>2018-09-23T14:35:44Z</time>
      </trkpt>
      <trkpt lat="46.11642" lon="6.4409">
        <ele>1412.79</ele>
        <time>2018-09-23T14:35:45Z</time>
      </trkpt>
      <trkpt lat="46.11641" lon="6.44088">
        <ele>1412.79</ele>
        <time>2018-09-23T14:35:46Z</time>
      </trkpt>
      <trkpt lat="46.11631" lon="6.44065">
        <ele>1415.2</ele>
        <time>2018-09-23T14:35:57Z</time>
      </trkpt>
      <trkpt lat="46.11624" lon="6.44047">
        <ele>1418.56</ele>
        <time>2018-09-23T14:36:07Z</time>
      </trkpt>
      <trkpt lat="46.11618" lon="6.44037">
        <ele>1420.49</ele>
        <time>2018-09-23T14:36:14Z</time>
      </trkpt>
      <trkpt lat="46.11618" lon="6.44036">
        <ele>1420.97</ele>
        <time>2018-09-23T14:36:15Z</time>
      </trkpt>
      <trkpt lat="46.11617" lon="6.44034">
        <ele>1421.45</ele>
        <time>2018-09-23T14:36:16Z</time>
      </trkpt>
      <trkpt lat="46.11612" lon="6.44023">
        <ele>1423.37</ele>
        <time>2018-09-23T14:36:25Z</time>
      </trkpt>
      <trkpt lat="46.11607" lon="6.44013">
        <ele>1425.77</ele>
        <time>2018-09-23T14:36:35Z</time>
      </trkpt>
      <trkpt lat="46.11607" lon="6.44012">
        <ele>1426.25</ele>
        <time>2018-09-23T14:36:36Z</time>
      </trkpt>
      <trkpt lat="46.11606" lon="6.44011">
        <ele>1426.73</ele>
        <time>2018-09-23T14:36:37Z</time>
      </trkpt>
      <trkpt lat="46.11606" lon="6.44009">
        <ele>1426.73</ele>
        <time>2018-09-23T14:36:38Z</time>
      </trkpt>
      <trkpt lat="46.11603" lon="6.44001">
        <ele>1428.18</ele>
        <time>2018-09-23T14:36:45Z</time>
      </trkpt>
      <trkpt lat="46.11602" lon="6.44">
        <ele>1428.66</ele>
        <time>2018-09-23T14:36:47Z</time>
      </trkpt>
      <trkpt lat="46.11601" lon="6.43999">
        <ele>1429.14</ele>
        <time>2018-09-23T14:36:48Z</time>
      </trkpt>
      <trkpt lat="46.11601" lon="6.43998">
        <ele>1429.62</ele>
        <time>2018-09-23T14:36:49Z</time>
      </trkpt>
      <trkpt lat="46.116" lon="6.43998">
        <ele>1429.62</ele>
        <time>2018-09-23T14:36:50Z</time>
      </trkpt>
      <trkpt lat="46.11599" lon="6.43997">
        <ele>1430.1</ele>
        <time>2018-09-23T14:36:51Z</time>
      </trkpt>
      <trkpt lat="46.11599" lon="6.43995">
        <ele>1430.1</ele>
        <time>2018-09-23T14:36:52Z</time>
      </trkpt>
      <trkpt lat="46.11598" lon="6.43994">
        <ele>1430.58</ele>
        <time>2018-09-23T14:36:53Z</time>
      </trkpt>
      <trkpt lat="46.11597" lon="6.43994">
        <ele>1430.58</ele>
        <time>2018-09-23T14:36:54Z</time>
      </trkpt>
      <trkpt lat="46.11595" lon="6.43994">
        <ele>1431.54</ele>
        <time>2018-09-23T14:36:58Z</time>
      </trkpt>
      <trkpt lat="46.11588" lon="6.44008">
        <ele>1434.91</ele>
        <time>2018-09-23T14:37:11Z</time>
      </trkpt>
      <trkpt lat="46.11585" lon="6.44024">
        <ele>1436.83</ele>
        <time>2018-09-23T14:37:21Z</time>
      </trkpt>
      <trkpt lat="46.11584" lon="6.44025">
        <ele>1437.31</ele>
        <time>2018-09-23T14:37:22Z</time>
      </trkpt>
      <trkpt lat="46.11584" lon="6.44027">
        <ele>1437.31</ele>
        <time>2018-09-23T14:37:23Z</time>
      </trkpt>
      <trkpt lat="46.11584" lon="6.44029">
        <ele>1437.79</ele>
        <time>2018-09-23T14:37:24Z</time>
      </trkpt>
      <trkpt lat="46.11583" lon="6.4403">
        <ele>1437.79</ele>
        <time>2018-09-23T14:37:25Z</time>
      </trkpt>
      <trkpt lat="46.11582" lon="6.44031">
        <ele>1438.27</ele>
        <time>2018-09-23T14:37:26Z</time>
      </trkpt>
      <trkpt lat="46.11578" lon="6.44042">
        <ele>1440.19</ele>
        <time>2018-09-23T14:37:34Z</time>
      </trkpt>
      <trkpt lat="46.11577" lon="6.44044">
        <ele>1440.67</ele>
        <time>2018-09-23T14:37:35Z</time>
      </trkpt>
      <trkpt lat="46.11565" lon="6.44055">
        <ele>1443.56</ele>
        <time>2018-09-23T14:37:48Z</time>
      </trkpt>
      <trkpt lat="46.11554" lon="6.44054">
        <ele>1446.92</ele>
        <time>2018-09-23T14:38:01Z</time>
      </trkpt>
      <trkpt lat="46.11547" lon="6.44047">
        <ele>1449.81</ele>
        <time>2018-09-23T14:38:10Z</time>
      </trkpt>
      <trkpt lat="46.11544" lon="6.44043">
        <ele>1451.73</ele>
        <time>2018-09-23T14:38:16Z</time>
      </trkpt>
      <trkpt lat="46.11543" lon="6.44042">
        <ele>1452.21</ele>
        <time>2018-09-23T14:38:17Z</time>
      </trkpt>
      <trkpt lat="46.11533" lon="6.44034">
        <ele>1455.57</ele>
        <time>2018-09-23T14:38:30Z</time>
      </trkpt>
      <trkpt lat="46.11531" lon="6.44032">
        <ele>1456.05</ele>
        <time>2018-09-23T14:38:33Z</time>
      </trkpt>
      <trkpt lat="46.1153" lon="6.44031">
        <ele>1456.05</ele>
        <time>2018-09-23T14:38:34Z</time>
      </trkpt>
      <trkpt lat="46.1153" lon="6.44031">
        <ele>1456.53</ele>
        <time>2018-09-23T14:38:35Z</time>
      </trkpt>
      <trkpt lat="46.11522" lon="6.44022">
        <ele>1459.42</ele>
        <time>2018-09-23T14:38:47Z</time>
      </trkpt>
      <trkpt lat="46.11519" lon="6.44017">
        <ele>1460.86</ele>
        <time>2018-09-23T14:38:52Z</time>
      </trkpt>
      <trkpt lat="46.11517" lon="6.44016">
        <ele>1461.34</ele>
        <time>2018-09-23T14:38:54Z</time>
      </trkpt>
      <trkpt lat="46.11517" lon="6.44015">
        <ele>1461.34</ele>
        <time>2018-09-23T14:38:55Z</time>
      </trkpt>
      <trkpt lat="46.11507" lon="6.44003">
        <ele>1464.23</ele>
        <time>2018-09-23T14:39:11Z</time>
      </trkpt>
      <trkpt lat="46.11496" lon="6.43992">
        <ele>1467.11</ele>
        <time>2018-09-23T14:39:25Z</time>
      </trkpt>
      <trkpt lat="46.11495" lon="6.43992">
        <ele>1467.59</ele>
        <time>2018-09-23T14:39:26Z</time>
      </trkpt>
      <trkpt lat="46.11491" lon="6.43992">
        <ele>1468.07</ele>
        <time>2018-09-23T14:39:30Z</time>
      </trkpt>
      <trkpt lat="46.11486" lon="6.43987">
        <ele>1469.99</ele>
        <time>2018-09-23T14:39:40Z</time>
      </trkpt>
      <trkpt lat="46.11485" lon="6.43987">
        <ele>1469.99</ele>
        <time>2018-09-23T14:39:41Z</time>
      </trkpt>
      <trkpt lat="46.11483" lon="6.43986">
        <ele>1470.95</ele>
        <time>2018-09-23T14:39:44Z</time>
      </trkpt>
      <trkpt lat="46.11482" lon="6.43985">
        <ele>1470.95</ele>
        <time>2018-09-23T14:39:45Z</time>
      </trkpt>
      <trkpt lat="46.11481" lon="6.43985">
        <ele>1471.44</ele>
        <time>2018-09-23T14:39:46Z</time>
      </trkpt>
      <trkpt lat="46.11473" lon="6.43979">
        <ele>1474.32</ele>
        <time>2018-09-23T14:39:57Z</time>
      </trkpt>
      <trkpt lat="46.11472" lon="6.43978">
        <ele>1474.32</ele>
        <time>2018-09-23T14:39:58Z</time>
      </trkpt>
      <trkpt lat="46.11465" lon="6.43973">
        <ele>1477.2</ele>
        <time>2018-09-23T14:40:08Z</time>
      </trkpt>
      <trkpt lat="46.11464" lon="6.43972">
        <ele>1477.2</ele>
        <time>2018-09-23T14:40:09Z</time>
      </trkpt>
      <trkpt lat="46.11463" lon="6.43971">
        <ele>1477.68</ele>
        <time>2018-09-23T14:40:10Z</time>
      </trkpt>
      <trkpt lat="46.11455" lon="6.43965">
        <ele>1480.09</ele>
        <time>2018-09-23T14:40:20Z</time>
      </trkpt>
      <trkpt lat="46.11449" lon="6.43961">
        <ele>1482.97</ele>
        <time>2018-09-23T14:40:29Z</time>
      </trkpt>
      <trkpt lat="46.11443" lon="6.43958">
        <ele>1484.89</ele>
        <time>2018-09-23T14:40:37Z</time>
      </trkpt>
      <trkpt lat="46.11442" lon="6.43957">
        <ele>1485.37</ele>
        <time>2018-09-23T14:40:38Z</time>
      </trkpt>
      <trkpt lat="46.11441" lon="6.43956">
        <ele>1485.37</ele>
        <time>2018-09-23T14:40:39Z</time>
      </trkpt>
      <trkpt lat="46.11434" lon="6.43953">
        <ele>1488.74</ele>
        <time>2018-09-23T14:40:51Z</time>
      </trkpt>
      <trkpt lat="46.1143" lon="6.43951">
        <ele>1491.62</ele>
        <time>2018-09-23T14:40:59Z</time>
      </trkpt>
      <trkpt lat="46.11424" lon="6.43947">
        <ele>1494.99</ele>
        <time>2018-09-23T14:41:12Z</time>
      </trkpt>
      <trkpt lat="46.11416" lon="6.43946">
        <ele>1497.87</ele>
        <time>2018-09-23T14:41:23Z</time>
      </trkpt>
      <trkpt lat="46.1141" lon="6.43942">
        <ele>1501.24</ele>
        <time>2018-09-23T14:41:32Z</time>
      </trkpt>
      <trkpt lat="46.11405" lon="6.43937">
        <ele>1503.64</ele>
        <time>2018-09-23T14:41:42Z</time>
      </trkpt>
      <trkpt lat="46.11401" lon="6.43931">
        <ele>1506.04</ele>
        <time>2018-09-23T14:41:53Z</time>
      </trkpt>
      <trkpt lat="46.11398" lon="6.43928">
        <ele>1507.48</ele>
        <time>2018-09-23T14:41:58Z</time>
      </trkpt>
      <trkpt lat="46.11395" lon="6.43927">
        <ele>1508.45</ele>
        <time>2018-09-23T14:42:02Z</time>
      </trkpt>
      <trkpt lat="46.11394" lon="6.43927">
        <ele>1508.93</ele>
        <time>2018-09-23T14:42:03Z</time>
      </trkpt>
      <trkpt lat="46.11393" lon="6.43926">
        <ele>1509.41</ele>
        <time>2018-09-23T14:42:05Z</time>
      </trkpt>
      <trkpt lat="46.11386" lon="6.43918">
        <ele>1512.29</ele>
        <time>2018-09-23T14:42:16Z</time>
      </trkpt>
      <trkpt lat="46.11381" lon="6.43915">
        <ele>1513.25</ele>
        <time>2018-09-23T14:42:23Z</time>
      </trkpt>
      <trkpt lat="46.11381" lon="6.43914">
        <ele>1513.25</ele>
        <time>2018-09-23T14:42:24Z</time>
      </trkpt>
      <trkpt lat="46.1138" lon="6.43913">
        <ele>1513.73</ele>
        <time>2018-09-23T14:42:25Z</time>
      </trkpt>
      <trkpt lat="46.11378" lon="6.43912">
        <ele>1514.21</ele>
        <time>2018-09-23T14:42:27Z</time>
      </trkpt>
      <trkpt lat="46.11371" lon="6.43911">
        <ele>1515.66</ele>
        <time>2018-09-23T14:42:34Z</time>
      </trkpt>
      <trkpt lat="46.11369" lon="6.43913">
        <ele>1516.14</ele>
        <time>2018-09-23T14:42:37Z</time>
      </trkpt>
      <trkpt lat="46.11368" lon="6.43914">
        <ele>1516.62</ele>
        <time>2018-09-23T14:42:38Z</time>
      </trkpt>
      <trkpt lat="46.11368" lon="6.43916">
        <ele>1517.58</ele>
        <time>2018-09-23T14:42:39Z</time>
      </trkpt>
      <trkpt lat="46.11367" lon="6.43917">
        <ele>1517.58</ele>
        <time>2018-09-23T14:42:40Z</time>
      </trkpt>
      <trkpt lat="46.11364" lon="6.43924">
        <ele>1519.5</ele>
        <time>2018-09-23T14:42:47Z</time>
      </trkpt>
      <trkpt lat="46.11362" lon="6.43938">
        <ele>1522.39</ele>
        <time>2018-09-23T14:43:03Z</time>
      </trkpt>
      <trkpt lat="46.11361" lon="6.43945">
        <ele>1524.31</ele>
        <time>2018-09-23T14:43:09Z</time>
      </trkpt>
      <trkpt lat="46.1136" lon="6.43947">
        <ele>1524.31</ele>
        <time>2018-09-23T14:43:10Z</time>
      </trkpt>
      <trkpt lat="46.11359" lon="6.43952">
        <ele>1523.83</ele>
        <time>2018-09-23T14:43:12Z</time>
      </trkpt>
      <trkpt lat="46.11359" lon="6.43954">
        <ele>1523.83</ele>
        <time>2018-09-23T14:43:13Z</time>
      </trkpt>
      <trkpt lat="46.11358" lon="6.43957">
        <ele>1523.83</ele>
        <time>2018-09-23T14:43:14Z</time>
      </trkpt>
      <trkpt lat="46.11357" lon="6.4396">
        <ele>1523.83</ele>
        <time>2018-09-23T14:43:15Z</time>
      </trkpt>
      <trkpt lat="46.11357" lon="6.43963">
        <ele>1523.83</ele>
        <time>2018-09-23T14:43:16Z</time>
      </trkpt>
      <trkpt lat="46.11356" lon="6.43966">
        <ele>1524.31</ele>
        <time>2018-09-23T14:43:17Z</time>
      </trkpt>
      <trkpt lat="46.11355" lon="6.43968">
        <ele>1524.31</ele>
        <time>2018-09-23T14:43:18Z</time>
      </trkpt>
      <trkpt lat="46.11351" lon="6.4399">
        <ele>1527.67</ele>
        <time>2018-09-23T14:43:28Z</time>
      </trkpt>
      <trkpt lat="46.11348" lon="6.43999">
        <ele>1531.04</ele>
        <time>2018-09-23T14:43:37Z</time>
      </trkpt>
      <trkpt lat="46.11346" lon="6.4401">
        <ele>1533.92</ele>
        <time>2018-09-23T14:43:47Z</time>
      </trkpt>
      <trkpt lat="46.11343" lon="6.44023">
        <ele>1536.8</ele>
        <time>2018-09-23T14:44:01Z</time>
      </trkpt>
      <trkpt lat="46.1134" lon="6.44033">
        <ele>1540.17</ele>
        <time>2018-09-23T14:44:11Z</time>
      </trkpt>
      <trkpt lat="46.11336" lon="6.44043">
        <ele>1543.53</ele>
        <time>2018-09-23T14:44:21Z</time>
      </trkpt>
      <trkpt lat="46.11335" lon="6.44051">
        <ele>1546.42</ele>
        <time>2018-09-23T14:44:30Z</time>
      </trkpt>
      <trkpt lat="46.1133" lon="6.44063">
        <ele>1547.38</ele>
        <time>2018-09-23T14:44:40Z</time>
      </trkpt>
      <trkpt lat="46.1133" lon="6.44066">
        <ele>1547.86</ele>
        <time>2018-09-23T14:44:43Z</time>
      </trkpt>
      <trkpt lat="46.11329" lon="6.44067">
        <ele>1548.34</ele>
        <time>2018-09-23T14:44:44Z</time>
      </trkpt>
      <trkpt lat="46.11327" lon="6.44073">
        <ele>1549.3</ele>
        <time>2018-09-23T14:44:49Z</time>
      </trkpt>
      <trkpt lat="46.11327" lon="6.44074">
        <ele>1549.78</ele>
        <time>2018-09-23T14:44:50Z</time>
      </trkpt>
      <trkpt lat="46.11323" lon="6.44085">
        <ele>1552.67</ele>
        <time>2018-09-23T14:45:01Z</time>
      </trkpt>
      <trkpt lat="46.11319" lon="6.44098">
        <ele>1555.55</ele>
        <time>2018-09-23T14:45:13Z</time>
      </trkpt>
      <trkpt lat="46.11312" lon="6.44113">
        <ele>1558.92</ele>
        <time>2018-09-23T14:45:28Z</time>
      </trkpt>
      <trkpt lat="46.11307" lon="6.44124">
        <ele>1561.8</ele>
        <time>2018-09-23T14:45:40Z</time>
      </trkpt>
      <trkpt lat="46.11302" lon="6.44135">
        <ele>1565.16</ele>
        <time>2018-09-23T14:45:52Z</time>
      </trkpt>
      <trkpt lat="46.11298" lon="6.44144">
        <ele>1568.53</ele>
        <time>2018-09-23T14:46:02Z</time>
      </trkpt>
      <trkpt lat="46.11292" lon="6.44156">
        <ele>1571.41</ele>
        <time>2018-09-23T14:46:14Z</time>
      </trkpt>
      <trkpt lat="46.11289" lon="6.44162">
        <ele>1573.33</ele>
        <time>2018-09-23T14:46:20Z</time>
      </trkpt>
      <trkpt lat="46.11283" lon="6.44171">
        <ele>1576.22</ele>
        <time>2018-09-23T14:46:31Z</time>
      </trkpt>
      <trkpt lat="46.11277" lon="6.4418">
        <ele>1579.58</ele>
        <time>2018-09-23T14:46:42Z</time>
      </trkpt>
      <trkpt lat="46.11272" lon="6.44187">
        <ele>1582.47</ele>
        <time>2018-09-23T14:46:53Z</time>
      </trkpt>
      <trkpt lat="46.11269" lon="6.44194">
        <ele>1585.83</ele>
        <time>2018-09-23T14:47:02Z</time>
      </trkpt>
      <trkpt lat="46.11264" lon="6.44206">
        <ele>1588.72</ele>
        <time>2018-09-23T14:47:16Z</time>
      </trkpt>
      <trkpt lat="46.11255" lon="6.44219">
        <ele>1592.08</ele>
        <time>2018-09-23T14:47:31Z</time>
      </trkpt>
      <trkpt lat="46.11255" lon="6.4422">
        <ele>1592.56</ele>
        <time>2018-09-23T14:47:32Z</time>
      </trkpt>
      <trkpt lat="46.1125" lon="6.44231">
        <ele>1595.93</ele>
        <time>2018-09-23T14:47:43Z</time>
      </trkpt>
      <trkpt lat="46.11249" lon="6.44232">
        <ele>1596.41</ele>
        <time>2018-09-23T14:47:45Z</time>
      </trkpt>
      <trkpt lat="46.11243" lon="6.44242">
        <ele>1599.77</ele>
        <time>2018-09-23T14:47:56Z</time>
      </trkpt>
      <trkpt lat="46.1124" lon="6.44247">
        <ele>1601.21</ele>
        <time>2018-09-23T14:48:01Z</time>
      </trkpt>
      <trkpt lat="46.11239" lon="6.44248">
        <ele>1601.21</ele>
        <time>2018-09-23T14:48:02Z</time>
      </trkpt>
      <trkpt lat="46.11238" lon="6.4425">
        <ele>1601.21</ele>
        <time>2018-09-23T14:48:04Z</time>
      </trkpt>
      <trkpt lat="46.11238" lon="6.44251">
        <ele>1601.21</ele>
        <time>2018-09-23T14:48:05Z</time>
      </trkpt>
      <trkpt lat="46.11236" lon="6.44254">
        <ele>1602.17</ele>
        <time>2018-09-23T14:48:08Z</time>
      </trkpt>
      <trkpt lat="46.11234" lon="6.44256">
        <ele>1602.66</ele>
        <time>2018-09-23T14:48:11Z</time>
      </trkpt>
      <trkpt lat="46.11233" lon="6.44257">
        <ele>1603.14</ele>
        <time>2018-09-23T14:48:12Z</time>
      </trkpt>
      <trkpt lat="46.11232" lon="6.44258">
        <ele>1603.14</ele>
        <time>2018-09-23T14:48:13Z</time>
      </trkpt>
      <trkpt lat="46.1123" lon="6.4426">
        <ele>1604.1</ele>
        <time>2018-09-23T14:48:17Z</time>
      </trkpt>
      <trkpt lat="46.1123" lon="6.44261">
        <ele>1604.58</ele>
        <time>2018-09-23T14:48:18Z</time>
      </trkpt>
      <trkpt lat="46.11218" lon="6.44272">
        <ele>1607.46</ele>
        <time>2018-09-23T14:48:31Z</time>
      </trkpt>
      <trkpt lat="46.11217" lon="6.44273">
        <ele>1607.46</ele>
        <time>2018-09-23T14:48:32Z</time>
      </trkpt>
      <trkpt lat="46.11217" lon="6.44274">
        <ele>1607.46</ele>
        <time>2018-09-23T14:48:33Z</time>
      </trkpt>
      <trkpt lat="46.11216" lon="6.44275">
        <ele>1607.46</ele>
        <time>2018-09-23T14:48:34Z</time>
      </trkpt>
      <trkpt lat="46.11215" lon="6.44276">
        <ele>1607.46</ele>
        <time>2018-09-23T14:48:35Z</time>
      </trkpt>
      <trkpt lat="46.11203" lon="6.44287">
        <ele>1609.38</ele>
        <time>2018-09-23T14:48:47Z</time>
      </trkpt>
      <trkpt lat="46.11191" lon="6.44301">
        <ele>1609.38</ele>
        <time>2018-09-23T14:48:58Z</time>
      </trkpt>
      <trkpt lat="46.11186" lon="6.4431">
        <ele>1609.38</ele>
        <time>2018-09-23T14:49:03Z</time>
      </trkpt>
      <trkpt lat="46.1118" lon="6.44321">
        <ele>1608.42</ele>
        <time>2018-09-23T14:49:08Z</time>
      </trkpt>
      <trkpt lat="46.11171" lon="6.44334">
        <ele>1606.5</ele>
        <time>2018-09-23T14:49:14Z</time>
      </trkpt>
      <trkpt lat="46.11159" lon="6.44346">
        <ele>1603.62</ele>
        <time>2018-09-23T14:49:21Z</time>
      </trkpt>
      <trkpt lat="46.11151" lon="6.44356">
        <ele>1600.73</ele>
        <time>2018-09-23T14:49:26Z</time>
      </trkpt>
      <trkpt lat="46.11143" lon="6.44364">
        <ele>1597.37</ele>
        <time>2018-09-23T14:49:30Z</time>
      </trkpt>
      <trkpt lat="46.11134" lon="6.44374">
        <ele>1594</ele>
        <time>2018-09-23T14:49:35Z</time>
      </trkpt>
      <trkpt lat="46.11127" lon="6.4438">
        <ele>1590.64</ele>
        <time>2018-09-23T14:49:39Z</time>
      </trkpt>
      <trkpt lat="46.11118" lon="6.44389">
        <ele>1586.79</ele>
        <time>2018-09-23T14:49:44Z</time>
      </trkpt>
      <trkpt lat="46.11114" lon="6.44392">
        <ele>1586.79</ele>
        <time>2018-09-23T14:49:46Z</time>
      </trkpt>
      <trkpt lat="46.11108" lon="6.44397">
        <ele>1582.95</ele>
        <time>2018-09-23T14:49:49Z</time>
      </trkpt>
      <trkpt lat="46.11098" lon="6.44404">
        <ele>1579.1</ele>
        <time>2018-09-23T14:49:54Z</time>
      </trkpt>
      <trkpt lat="46.11086" lon="6.44412">
        <ele>1575.74</ele>
        <time>2018-09-23T14:49:59Z</time>
      </trkpt>
      <trkpt lat="46.11076" lon="6.4442">
        <ele>1572.85</ele>
        <time>2018-09-23T14:50:03Z</time>
      </trkpt>
      <trkpt lat="46.11067" lon="6.44427">
        <ele>1569.01</ele>
        <time>2018-09-23T14:50:07Z</time>
      </trkpt>
      <trkpt lat="46.11055" lon="6.44438">
        <ele>1565.64</ele>
        <time>2018-09-23T14:50:13Z</time>
      </trkpt>
      <trkpt lat="46.11047" lon="6.44445">
        <ele>1562.28</ele>
        <time>2018-09-23T14:50:17Z</time>
      </trkpt>
      <trkpt lat="46.11037" lon="6.44453">
        <ele>1558.92</ele>
        <time>2018-09-23T14:50:22Z</time>
      </trkpt>
      <trkpt lat="46.11032" lon="6.44462">
        <ele>1555.55</ele>
        <time>2018-09-23T14:50:25Z</time>
      </trkpt>
      <trkpt lat="46.1103" lon="6.44473">
        <ele>1552.67</ele>
        <time>2018-09-23T14:50:28Z</time>
      </trkpt>
      <trkpt lat="46.11027" lon="6.44498">
        <ele>1549.3</ele>
        <time>2018-09-23T14:50:33Z</time>
      </trkpt>
      <trkpt lat="46.11018" lon="6.44519">
        <ele>1547.38</ele>
        <time>2018-09-23T14:50:39Z</time>
      </trkpt>
      <trkpt lat="46.11001" lon="6.44536">
        <ele>1548.34</ele>
        <time>2018-09-23T14:50:49Z</time>
      </trkpt>
      <trkpt lat="46.10993" lon="6.44539">
        <ele>1549.78</ele>
        <time>2018-09-23T14:50:54Z</time>
      </trkpt>
      <trkpt lat="46.10982" lon="6.44546">
        <ele>1551.22</ele>
        <time>2018-09-23T14:51:00Z</time>
      </trkpt>
      <trkpt lat="46.10976" lon="6.44551">
        <ele>1552.19</ele>
        <time>2018-09-23T14:51:06Z</time>
      </trkpt>
      <trkpt lat="46.10972" lon="6.44556">
        <ele>1555.55</ele>
        <time>2018-09-23T14:51:14Z</time>
      </trkpt>
      <trkpt lat="46.10971" lon="6.44558">
        <ele>1556.51</ele>
        <time>2018-09-23T14:51:16Z</time>
      </trkpt>
      <trkpt lat="46.1097" lon="6.44561">
        <ele>1556.99</ele>
        <time>2018-09-23T14:51:18Z</time>
      </trkpt>
      <trkpt lat="46.10966" lon="6.44569">
        <ele>1558.43</ele>
        <time>2018-09-23T14:51:26Z</time>
      </trkpt>
      <trkpt lat="46.10965" lon="6.4457">
        <ele>1558.43</ele>
        <time>2018-09-23T14:51:27Z</time>
      </trkpt>
      <trkpt lat="46.1096" lon="6.4458">
        <ele>1559.88</ele>
        <time>2018-09-23T14:51:36Z</time>
      </trkpt>
      <trkpt lat="46.10951" lon="6.44595">
        <ele>1562.76</ele>
        <time>2018-09-23T14:51:49Z</time>
      </trkpt>
      <trkpt lat="46.10944" lon="6.44607">
        <ele>1565.64</ele>
        <time>2018-09-23T14:51:58Z</time>
      </trkpt>
      <trkpt lat="46.10943" lon="6.44609">
        <ele>1566.12</ele>
        <time>2018-09-23T14:51:59Z</time>
      </trkpt>
      <trkpt lat="46.10939" lon="6.44614">
        <ele>1569.01</ele>
        <time>2018-09-23T14:52:05Z</time>
      </trkpt>
      <trkpt lat="46.10938" lon="6.44615">
        <ele>1569.49</ele>
        <time>2018-09-23T14:52:06Z</time>
      </trkpt>
      <trkpt lat="46.10928" lon="6.44631">
        <ele>1572.85</ele>
        <time>2018-09-23T14:52:24Z</time>
      </trkpt>
      <trkpt lat="46.10926" lon="6.44633">
        <ele>1574.3</ele>
        <time>2018-09-23T14:52:28Z</time>
      </trkpt>
      <trkpt lat="46.10919" lon="6.44635">
        <ele>1577.18</ele>
        <time>2018-09-23T14:52:40Z</time>
      </trkpt>
      <trkpt lat="46.10916" lon="6.4464">
        <ele>1579.1</ele>
        <time>2018-09-23T14:52:47Z</time>
      </trkpt>
      <trkpt lat="46.10915" lon="6.44641">
        <ele>1579.58</ele>
        <time>2018-09-23T14:52:48Z</time>
      </trkpt>
      <trkpt lat="46.10914" lon="6.44642">
        <ele>1579.58</ele>
        <time>2018-09-23T14:52:49Z</time>
      </trkpt>
      <trkpt lat="46.10899" lon="6.44664">
        <ele>1580.06</ele>
        <time>2018-09-23T14:52:59Z</time>
      </trkpt>
      <trkpt lat="46.10884" lon="6.44685">
        <ele>1581.03</ele>
        <time>2018-09-23T14:53:09Z</time>
      </trkpt>
      <trkpt lat="46.10872" lon="6.44703">
        <ele>1583.43</ele>
        <time>2018-09-23T14:53:19Z</time>
      </trkpt>
      <trkpt lat="46.10861" lon="6.44714">
        <ele>1586.31</ele>
        <time>2018-09-23T14:53:28Z</time>
      </trkpt>
      <trkpt lat="46.10856" lon="6.44719">
        <ele>1587.75</ele>
        <time>2018-09-23T14:53:35Z</time>
      </trkpt>
      <trkpt lat="46.10855" lon="6.44719">
        <ele>1587.75</ele>
        <time>2018-09-23T14:53:36Z</time>
      </trkpt>
      <trkpt lat="46.10854" lon="6.44719">
        <ele>1588.24</ele>
        <time>2018-09-23T14:53:37Z</time>
      </trkpt>
      <trkpt lat="46.10853" lon="6.4472">
        <ele>1588.24</ele>
        <time>2018-09-23T14:53:38Z</time>
      </trkpt>
      <trkpt lat="46.10852" lon="6.44721">
        <ele>1588.72</ele>
        <time>2018-09-23T14:53:39Z</time>
      </trkpt>
      <trkpt lat="46.10843" lon="6.44731">
        <ele>1591.6</ele>
        <time>2018-09-23T14:53:48Z</time>
      </trkpt>
      <trkpt lat="46.10841" lon="6.44735">
        <ele>1593.04</ele>
        <time>2018-09-23T14:53:51Z</time>
      </trkpt>
      <trkpt lat="46.10827" lon="6.44749">
        <ele>1594</ele>
        <time>2018-09-23T14:54:03Z</time>
      </trkpt>
      <trkpt lat="46.10816" lon="6.44772">
        <ele>1596.89</ele>
        <time>2018-09-23T14:54:15Z</time>
      </trkpt>
      <trkpt lat="46.1081" lon="6.44785">
        <ele>1598.81</ele>
        <time>2018-09-23T14:54:22Z</time>
      </trkpt>
      <trkpt lat="46.10808" lon="6.4479">
        <ele>1600.25</ele>
        <time>2018-09-23T14:54:25Z</time>
      </trkpt>
      <trkpt lat="46.108" lon="6.44811">
        <ele>1603.62</ele>
        <time>2018-09-23T14:54:37Z</time>
      </trkpt>
      <trkpt lat="46.10796" lon="6.44824">
        <ele>1606.98</ele>
        <time>2018-09-23T14:54:49Z</time>
      </trkpt>
      <trkpt lat="46.1079" lon="6.44836">
        <ele>1610.35</ele>
        <time>2018-09-23T14:55:06Z</time>
      </trkpt>
      <trkpt lat="46.10786" lon="6.44844">
        <ele>1612.27</ele>
        <time>2018-09-23T14:55:18Z</time>
      </trkpt>
      <trkpt lat="46.10781" lon="6.44858">
        <ele>1614.67</ele>
        <time>2018-09-23T14:55:35Z</time>
      </trkpt>
      <trkpt lat="46.10781" lon="6.44862">
        <ele>1617.56</ele>
        <time>2018-09-23T14:55:41Z</time>
      </trkpt>
      <trkpt lat="46.1078" lon="6.44874">
        <ele>1620.92</ele>
        <time>2018-09-23T14:55:54Z</time>
      </trkpt>
      <trkpt lat="46.10776" lon="6.44882">
        <ele>1623.8</ele>
        <time>2018-09-23T14:56:05Z</time>
      </trkpt>
      <trkpt lat="46.10774" lon="6.44887">
        <ele>1627.17</ele>
        <time>2018-09-23T14:56:16Z</time>
      </trkpt>
      <trkpt lat="46.10768" lon="6.44892">
        <ele>1629.57</ele>
        <time>2018-09-23T14:56:27Z</time>
      </trkpt>
      <trkpt lat="46.1076" lon="6.44898">
        <ele>1632.94</ele>
        <time>2018-09-23T14:56:43Z</time>
      </trkpt>
      <trkpt lat="46.10764" lon="6.44906">
        <ele>1635.82</ele>
        <time>2018-09-23T14:56:53Z</time>
      </trkpt>
      <trkpt lat="46.10763" lon="6.44916">
        <ele>1639.19</ele>
        <time>2018-09-23T14:57:06Z</time>
      </trkpt>
      <trkpt lat="46.1076" lon="6.44924">
        <ele>1642.07</ele>
        <time>2018-09-23T14:57:18Z</time>
      </trkpt>
      <trkpt lat="46.10758" lon="6.44929">
        <ele>1645.43</ele>
        <time>2018-09-23T14:57:30Z</time>
      </trkpt>
      <trkpt lat="46.10755" lon="6.44936">
        <ele>1648.32</ele>
        <time>2018-09-23T14:57:40Z</time>
      </trkpt>
      <trkpt lat="46.10754" lon="6.44944">
        <ele>1651.68</ele>
        <time>2018-09-23T14:57:54Z</time>
      </trkpt>
      <trkpt lat="46.10754" lon="6.44952">
        <ele>1654.57</ele>
        <time>2018-09-23T14:58:07Z</time>
      </trkpt>
      <trkpt lat="46.10752" lon="6.44959">
        <ele>1658.41</ele>
        <time>2018-09-23T14:58:20Z</time>
      </trkpt>
      <trkpt lat="46.10751" lon="6.44963">
        <ele>1661.78</ele>
        <time>2018-09-23T14:58:28Z</time>
      </trkpt>
      <trkpt lat="46.10749" lon="6.44973">
        <ele>1664.66</ele>
        <time>2018-09-23T14:58:43Z</time>
      </trkpt>
      <trkpt lat="46.10746" lon="6.44978">
        <ele>1668.02</ele>
        <time>2018-09-23T14:58:53Z</time>
      </trkpt>
      <trkpt lat="46.10745" lon="6.44984">
        <ele>1671.39</ele>
        <time>2018-09-23T14:59:05Z</time>
      </trkpt>
      <trkpt lat="46.10745" lon="6.44992">
        <ele>1674.27</ele>
        <time>2018-09-23T14:59:15Z</time>
      </trkpt>
      <trkpt lat="46.10742" lon="6.44995">
        <ele>1677.16</ele>
        <time>2018-09-23T14:59:24Z</time>
      </trkpt>
      <trkpt lat="46.1074" lon="6.45001">
        <ele>1680.52</ele>
        <time>2018-09-23T14:59:39Z</time>
      </trkpt>
      <trkpt lat="46.10738" lon="6.45006">
        <ele>1683.89</ele>
        <time>2018-09-23T14:59:50Z</time>
      </trkpt>
      <trkpt lat="46.10738" lon="6.45008">
        <ele>1685.33</ele>
        <time>2018-09-23T14:59:53Z</time>
      </trkpt>
      <trkpt lat="46.1073" lon="6.45016">
        <ele>1688.69</ele>
        <time>2018-09-23T15:00:13Z</time>
      </trkpt>
      <trkpt lat="46.10725" lon="6.45025">
        <ele>1691.58</ele>
        <time>2018-09-23T15:00:28Z</time>
      </trkpt>
      <trkpt lat="46.10724" lon="6.45027">
        <ele>1693.5</ele>
        <time>2018-09-23T15:00:34Z</time>
      </trkpt>
      <trkpt lat="46.10724" lon="6.45035">
        <ele>1696.38</ele>
        <time>2018-09-23T15:00:46Z</time>
      </trkpt>
      <trkpt lat="46.10723" lon="6.45043">
        <ele>1699.75</ele>
        <time>2018-09-23T15:00:57Z</time>
      </trkpt>
      <trkpt lat="46.10719" lon="6.45048">
        <ele>1703.11</ele>
        <time>2018-09-23T15:01:07Z</time>
      </trkpt>
      <trkpt lat="46.10714" lon="6.45055">
        <ele>1706</ele>
        <time>2018-09-23T15:01:20Z</time>
      </trkpt>
      <trkpt lat="46.10712" lon="6.4506">
        <ele>1709.36</ele>
        <time>2018-09-23T15:01:32Z</time>
      </trkpt>
      <trkpt lat="46.10713" lon="6.45066">
        <ele>1712.25</ele>
        <time>2018-09-23T15:01:41Z</time>
      </trkpt>
      <trkpt lat="46.10713" lon="6.45074">
        <ele>1715.61</ele>
        <time>2018-09-23T15:01:55Z</time>
      </trkpt>
      <trkpt lat="46.10712" lon="6.45075">
        <ele>1715.61</ele>
        <time>2018-09-23T15:01:56Z</time>
      </trkpt>
      <trkpt lat="46.10712" lon="6.45075">
        <ele>1715.61</ele>
        <time>2018-09-23T15:01:57Z</time>
      </trkpt>
      <trkpt lat="46.10713" lon="6.45082">
        <ele>1718.97</ele>
        <time>2018-09-23T15:02:07Z</time>
      </trkpt>
      <trkpt lat="46.10709" lon="6.45087">
        <ele>1721.86</ele>
        <time>2018-09-23T15:02:17Z</time>
      </trkpt>
      <trkpt lat="46.10705" lon="6.45095">
        <ele>1725.22</ele>
        <time>2018-09-23T15:02:33Z</time>
      </trkpt>
      <trkpt lat="46.10704" lon="6.45102">
        <ele>1728.11</ele>
        <time>2018-09-23T15:02:44Z</time>
      </trkpt>
      <trkpt lat="46.107" lon="6.45105">
        <ele>1731.47</ele>
        <time>2018-09-23T15:02:53Z</time>
      </trkpt>
      <trkpt lat="46.10696" lon="6.45111">
        <ele>1734.36</ele>
        <time>2018-09-23T15:03:08Z</time>
      </trkpt>
      <trkpt lat="46.10697" lon="6.45113">
        <ele>1734.84</ele>
        <time>2018-09-23T15:03:10Z</time>
      </trkpt>
      <trkpt lat="46.10695" lon="6.45121">
        <ele>1737.72</ele>
        <time>2018-09-23T15:03:25Z</time>
      </trkpt>
      <trkpt lat="46.10691" lon="6.45129">
        <ele>1741.08</ele>
        <time>2018-09-23T15:03:39Z</time>
      </trkpt>
      <trkpt lat="46.10685" lon="6.45133">
        <ele>1743.97</ele>
        <time>2018-09-23T15:03:51Z</time>
      </trkpt>
      <trkpt lat="46.10682" lon="6.45133">
        <ele>1743.97</ele>
        <time>2018-09-23T15:03:53Z</time>
      </trkpt>
      <trkpt lat="46.10661" lon="6.45141">
        <ele>1747.33</ele>
        <time>2018-09-23T15:04:07Z</time>
      </trkpt>
      <trkpt lat="46.10646" lon="6.45147">
        <ele>1748.29</ele>
        <time>2018-09-23T15:04:17Z</time>
      </trkpt>
      <trkpt lat="46.10638" lon="6.45155">
        <ele>1750.22</ele>
        <time>2018-09-23T15:04:24Z</time>
      </trkpt>
      <trkpt lat="46.10626" lon="6.4517">
        <ele>1753.58</ele>
        <time>2018-09-23T15:04:34Z</time>
      </trkpt>
      <trkpt lat="46.10621" lon="6.45186">
        <ele>1756.47</ele>
        <time>2018-09-23T15:04:49Z</time>
      </trkpt>
      <trkpt lat="46.10624" lon="6.45189">
        <ele>1758.87</ele>
        <time>2018-09-23T15:04:55Z</time>
      </trkpt>
      <trkpt lat="46.10625" lon="6.45191">
        <ele>1759.35</ele>
        <time>2018-09-23T15:04:57Z</time>
      </trkpt>
      <trkpt lat="46.10628" lon="6.45198">
        <ele>1762.23</ele>
        <time>2018-09-23T15:05:06Z</time>
      </trkpt>
      <trkpt lat="46.10629" lon="6.45207">
        <ele>1765.6</ele>
        <time>2018-09-23T15:05:18Z</time>
      </trkpt>
      <trkpt lat="46.10631" lon="6.45212">
        <ele>1768</ele>
        <time>2018-09-23T15:05:25Z</time>
      </trkpt>
      <trkpt lat="46.10636" lon="6.45224">
        <ele>1771.37</ele>
        <time>2018-09-23T15:05:37Z</time>
      </trkpt>
      <trkpt lat="46.10638" lon="6.45235">
        <ele>1774.73</ele>
        <time>2018-09-23T15:05:48Z</time>
      </trkpt>
      <trkpt lat="46.1064" lon="6.45238">
        <ele>1776.17</ele>
        <time>2018-09-23T15:05:52Z</time>
      </trkpt>
      <trkpt lat="46.10645" lon="6.45247">
        <ele>1779.54</ele>
        <time>2018-09-23T15:06:04Z</time>
      </trkpt>
      <trkpt lat="46.10646" lon="6.45251">
        <ele>1780.5</ele>
        <time>2018-09-23T15:06:08Z</time>
      </trkpt>
      <trkpt lat="46.10647" lon="6.45254">
        <ele>1780.98</ele>
        <time>2018-09-23T15:06:11Z</time>
      </trkpt>
      <trkpt lat="46.10648" lon="6.45257">
        <ele>1782.42</ele>
        <time>2018-09-23T15:06:14Z</time>
      </trkpt>
      <trkpt lat="46.10648" lon="6.45259">
        <ele>1782.42</ele>
        <time>2018-09-23T15:06:15Z</time>
      </trkpt>
      <trkpt lat="46.10648" lon="6.45261">
        <ele>1782.9</ele>
        <time>2018-09-23T15:06:16Z</time>
      </trkpt>
      <trkpt lat="46.10648" lon="6.45262">
        <ele>1782.9</ele>
        <time>2018-09-23T15:06:17Z</time>
      </trkpt>
      <trkpt lat="46.10649" lon="6.45263">
        <ele>1783.38</ele>
        <time>2018-09-23T15:06:18Z</time>
      </trkpt>
      <trkpt lat="46.10649" lon="6.45265">
        <ele>1783.38</ele>
        <time>2018-09-23T15:06:19Z</time>
      </trkpt>
      <trkpt lat="46.10649" lon="6.45268">
        <ele>1783.86</ele>
        <time>2018-09-23T15:06:20Z</time>
      </trkpt>
      <trkpt lat="46.1065" lon="6.4527">
        <ele>1784.34</ele>
        <time>2018-09-23T15:06:21Z</time>
      </trkpt>
      <trkpt lat="46.10651" lon="6.45277">
        <ele>1784.82</ele>
        <time>2018-09-23T15:06:25Z</time>
      </trkpt>
      <trkpt lat="46.10652" lon="6.45279">
        <ele>1784.82</ele>
        <time>2018-09-23T15:06:26Z</time>
      </trkpt>
      <trkpt lat="46.10652" lon="6.45281">
        <ele>1785.31</ele>
        <time>2018-09-23T15:06:27Z</time>
      </trkpt>
      <trkpt lat="46.10652" lon="6.45283">
        <ele>1785.79</ele>
        <time>2018-09-23T15:06:28Z</time>
      </trkpt>
      <trkpt lat="46.10653" lon="6.45285">
        <ele>1785.79</ele>
        <time>2018-09-23T15:06:29Z</time>
      </trkpt>
      <trkpt lat="46.10653" lon="6.45287">
        <ele>1786.27</ele>
        <time>2018-09-23T15:06:30Z</time>
      </trkpt>
      <trkpt lat="46.10654" lon="6.4529">
        <ele>1786.27</ele>
        <time>2018-09-23T15:06:31Z</time>
      </trkpt>
      <trkpt lat="46.10654" lon="6.45291">
        <ele>1786.75</ele>
        <time>2018-09-23T15:06:32Z</time>
      </trkpt>
      <trkpt lat="46.10655" lon="6.45293">
        <ele>1787.23</ele>
        <time>2018-09-23T15:06:33Z</time>
      </trkpt>
      <trkpt lat="46.10655" lon="6.45295">
        <ele>1788.19</ele>
        <time>2018-09-23T15:06:34Z</time>
      </trkpt>
      <trkpt lat="46.10657" lon="6.45303">
        <ele>1790.11</ele>
        <time>2018-09-23T15:06:38Z</time>
      </trkpt>
      <trkpt lat="46.10665" lon="6.45327">
        <ele>1793</ele>
        <time>2018-09-23T15:06:49Z</time>
      </trkpt>
      <trkpt lat="46.10668" lon="6.45342">
        <ele>1795.4</ele>
        <time>2018-09-23T15:06:56Z</time>
      </trkpt>
      <trkpt lat="46.10668" lon="6.45354">
        <ele>1797.8</ele>
        <time>2018-09-23T15:07:02Z</time>
      </trkpt>
      <trkpt lat="46.1067" lon="6.45359">
        <ele>1798.28</ele>
        <time>2018-09-23T15:07:05Z</time>
      </trkpt>
      <trkpt lat="46.1067" lon="6.45361">
        <ele>1798.28</ele>
        <time>2018-09-23T15:07:06Z</time>
      </trkpt>
      <trkpt lat="46.10671" lon="6.45362">
        <ele>1798.76</ele>
        <time>2018-09-23T15:07:07Z</time>
      </trkpt>
      <trkpt lat="46.10671" lon="6.45363">
        <ele>1798.76</ele>
        <time>2018-09-23T15:07:08Z</time>
      </trkpt>
      <trkpt lat="46.10672" lon="6.45365">
        <ele>1798.76</ele>
        <time>2018-09-23T15:07:09Z</time>
      </trkpt>
      <trkpt lat="46.10672" lon="6.45367">
        <ele>1798.76</ele>
        <time>2018-09-23T15:07:10Z</time>
      </trkpt>
      <trkpt lat="46.10672" lon="6.45369">
        <ele>1799.24</ele>
        <time>2018-09-23T15:07:11Z</time>
      </trkpt>
      <trkpt lat="46.1067" lon="6.45375">
        <ele>1800.69</ele>
        <time>2018-09-23T15:07:16Z</time>
      </trkpt>
      <trkpt lat="46.10669" lon="6.45383">
        <ele>1803.09</ele>
        <time>2018-09-23T15:07:25Z</time>
      </trkpt>
      <trkpt lat="46.10673" lon="6.45396">
        <ele>1805.97</ele>
        <time>2018-09-23T15:07:41Z</time>
      </trkpt>
      <trkpt lat="46.10675" lon="6.45396">
        <ele>1807.42</ele>
        <time>2018-09-23T15:07:44Z</time>
      </trkpt>
      <trkpt lat="46.10678" lon="6.454">
        <ele>1809.34</ele>
        <time>2018-09-23T15:07:47Z</time>
      </trkpt>
      <trkpt lat="46.10677" lon="6.45404">
        <ele>1810.3</ele>
        <time>2018-09-23T15:07:51Z</time>
      </trkpt>
      <trkpt lat="46.10676" lon="6.45413">
        <ele>1813.66</ele>
        <time>2018-09-23T15:08:00Z</time>
      </trkpt>
      <trkpt lat="46.10676" lon="6.45422">
        <ele>1817.03</ele>
        <time>2018-09-23T15:08:10Z</time>
      </trkpt>
      <trkpt lat="46.10673" lon="6.45434">
        <ele>1820.87</ele>
        <time>2018-09-23T15:08:29Z</time>
      </trkpt>
      <trkpt lat="46.10673" lon="6.45437">
        <ele>1824.24</ele>
        <time>2018-09-23T15:08:34Z</time>
      </trkpt>
      <trkpt lat="46.10672" lon="6.45446">
        <ele>1826.16</ele>
        <time>2018-09-23T15:08:49Z</time>
      </trkpt>
      <trkpt lat="46.1067" lon="6.45458">
        <ele>1829.05</ele>
        <time>2018-09-23T15:09:03Z</time>
      </trkpt>
      <trkpt lat="46.10671" lon="6.45465">
        <ele>1832.41</ele>
        <time>2018-09-23T15:09:12Z</time>
      </trkpt>
      <trkpt lat="46.1067" lon="6.4547">
        <ele>1834.33</ele>
        <time>2018-09-23T15:09:18Z</time>
      </trkpt>
      <trkpt lat="46.10666" lon="6.45475">
        <ele>1837.7</ele>
        <time>2018-09-23T15:09:32Z</time>
      </trkpt>
      <trkpt lat="46.10665" lon="6.45476">
        <ele>1837.7</ele>
        <time>2018-09-23T15:09:33Z</time>
      </trkpt>
      <trkpt lat="46.10665" lon="6.45477">
        <ele>1836.74</ele>
        <time>2018-09-23T15:09:34Z</time>
      </trkpt>
      <trkpt lat="46.10664" lon="6.45478">
        <ele>1836.26</ele>
        <time>2018-09-23T15:09:35Z</time>
      </trkpt>
      <trkpt lat="46.10663" lon="6.45479">
        <ele>1836.26</ele>
        <time>2018-09-23T15:09:36Z</time>
      </trkpt>
      <trkpt lat="46.10662" lon="6.4548">
        <ele>1836.74</ele>
        <time>2018-09-23T15:09:37Z</time>
      </trkpt>
      <trkpt lat="46.10661" lon="6.45481">
        <ele>1837.7</ele>
        <time>2018-09-23T15:09:38Z</time>
      </trkpt>
      <trkpt lat="46.1066" lon="6.45482">
        <ele>1837.7</ele>
        <time>2018-09-23T15:09:39Z</time>
      </trkpt>
      <trkpt lat="46.10659" lon="6.45484">
        <ele>1837.7</ele>
        <time>2018-09-23T15:09:40Z</time>
      </trkpt>
      <trkpt lat="46.10658" lon="6.45485">
        <ele>1837.22</ele>
        <time>2018-09-23T15:09:41Z</time>
      </trkpt>
      <trkpt lat="46.10656" lon="6.45488">
        <ele>1836.26</ele>
        <time>2018-09-23T15:09:43Z</time>
      </trkpt>
      <trkpt lat="46.10645" lon="6.45504">
        <ele>1835.77</ele>
        <time>2018-09-23T15:09:52Z</time>
      </trkpt>
      <trkpt lat="46.10635" lon="6.45529">
        <ele>1832.89</ele>
        <time>2018-09-23T15:10:01Z</time>
      </trkpt>
      <trkpt lat="46.10632" lon="6.45546">
        <ele>1830.01</ele>
        <time>2018-09-23T15:10:06Z</time>
      </trkpt>
      <trkpt lat="46.10622" lon="6.45569">
        <ele>1827.6</ele>
        <time>2018-09-23T15:10:14Z</time>
      </trkpt>
      <trkpt lat="46.10616" lon="6.45581">
        <ele>1824.24</ele>
        <time>2018-09-23T15:10:19Z</time>
      </trkpt>
      <trkpt lat="46.10611" lon="6.45592">
        <ele>1821.35</ele>
        <time>2018-09-23T15:10:24Z</time>
      </trkpt>
      <trkpt lat="46.1061" lon="6.45594">
        <ele>1820.87</ele>
        <time>2018-09-23T15:10:25Z</time>
      </trkpt>
      <trkpt lat="46.10609" lon="6.45597">
        <ele>1820.39</ele>
        <time>2018-09-23T15:10:26Z</time>
      </trkpt>
      <trkpt lat="46.106" lon="6.45615">
        <ele>1817.51</ele>
        <time>2018-09-23T15:10:32Z</time>
      </trkpt>
      <trkpt lat="46.10597" lon="6.45616">
        <ele>1816.07</ele>
        <time>2018-09-23T15:10:34Z</time>
      </trkpt>
      <trkpt lat="46.10596" lon="6.45613">
        <ele>1814.15</ele>
        <time>2018-09-23T15:10:35Z</time>
      </trkpt>
      <trkpt lat="46.10596" lon="6.45609">
        <ele>1812.22</ele>
        <time>2018-09-23T15:10:36Z</time>
      </trkpt>
      <trkpt lat="46.10596" lon="6.45605">
        <ele>1810.78</ele>
        <time>2018-09-23T15:10:37Z</time>
      </trkpt>
      <trkpt lat="46.10596" lon="6.45601">
        <ele>1809.34</ele>
        <time>2018-09-23T15:10:38Z</time>
      </trkpt>
      <trkpt lat="46.10597" lon="6.45597">
        <ele>1808.38</ele>
        <time>2018-09-23T15:10:39Z</time>
      </trkpt>
      <trkpt lat="46.10597" lon="6.45593">
        <ele>1808.38</ele>
        <time>2018-09-23T15:10:40Z</time>
      </trkpt>
      <trkpt lat="46.10597" lon="6.45588">
        <ele>1808.38</ele>
        <time>2018-09-23T15:10:41Z</time>
      </trkpt>
      <trkpt lat="46.10597" lon="6.45584">
        <ele>1807.42</ele>
        <time>2018-09-23T15:10:42Z</time>
      </trkpt>
      <trkpt lat="46.10596" lon="6.45566">
        <ele>1804.05</ele>
        <time>2018-09-23T15:10:47Z</time>
      </trkpt>
      <trkpt lat="46.10596" lon="6.4555">
        <ele>1801.17</ele>
        <time>2018-09-23T15:10:51Z</time>
      </trkpt>
      <trkpt lat="46.10594" lon="6.45523">
        <ele>1797.8</ele>
        <time>2018-09-23T15:10:57Z</time>
      </trkpt>
      <trkpt lat="46.10592" lon="6.45494">
        <ele>1795.4</ele>
        <time>2018-09-23T15:11:04Z</time>
      </trkpt>
      <trkpt lat="46.1059" lon="6.4547">
        <ele>1792.03</ele>
        <time>2018-09-23T15:11:10Z</time>
      </trkpt>
      <trkpt lat="46.10588" lon="6.45441">
        <ele>1788.67</ele>
        <time>2018-09-23T15:11:18Z</time>
      </trkpt>
      <trkpt lat="46.10589" lon="6.45427">
        <ele>1787.23</ele>
        <time>2018-09-23T15:11:22Z</time>
      </trkpt>
      <trkpt lat="46.10592" lon="6.45405">
        <ele>1783.38</ele>
        <time>2018-09-23T15:11:28Z</time>
      </trkpt>
      <trkpt lat="46.10595" lon="6.45389">
        <ele>1780.5</ele>
        <time>2018-09-23T15:11:33Z</time>
      </trkpt>
      <trkpt lat="46.10595" lon="6.45385">
        <ele>1780.02</ele>
        <time>2018-09-23T15:11:34Z</time>
      </trkpt>
      <trkpt lat="46.10599" lon="6.45376">
        <ele>1780.02</ele>
        <time>2018-09-23T15:11:37Z</time>
      </trkpt>
      <trkpt lat="46.106" lon="6.45373">
        <ele>1779.54</ele>
        <time>2018-09-23T15:11:38Z</time>
      </trkpt>
      <trkpt lat="46.10601" lon="6.45369">
        <ele>1779.06</ele>
        <time>2018-09-23T15:11:39Z</time>
      </trkpt>
      <trkpt lat="46.10602" lon="6.45366">
        <ele>1778.58</ele>
        <time>2018-09-23T15:11:40Z</time>
      </trkpt>
      <trkpt lat="46.10602" lon="6.45363">
        <ele>1778.1</ele>
        <time>2018-09-23T15:11:41Z</time>
      </trkpt>
      <trkpt lat="46.10603" lon="6.45359">
        <ele>1778.1</ele>
        <time>2018-09-23T15:11:42Z</time>
      </trkpt>
      <trkpt lat="46.10604" lon="6.45356">
        <ele>1777.61</ele>
        <time>2018-09-23T15:11:43Z</time>
      </trkpt>
      <trkpt lat="46.10611" lon="6.45327">
        <ele>1774.73</ele>
        <time>2018-09-23T15:11:51Z</time>
      </trkpt>
      <trkpt lat="46.10614" lon="6.45303">
        <ele>1771.37</ele>
        <time>2018-09-23T15:11:58Z</time>
      </trkpt>
      <trkpt lat="46.10615" lon="6.45277">
        <ele>1767.52</ele>
        <time>2018-09-23T15:12:05Z</time>
      </trkpt>
      <trkpt lat="46.10615" lon="6.45254">
        <ele>1764.64</ele>
        <time>2018-09-23T15:12:11Z</time>
      </trkpt>
      <trkpt lat="46.10615" lon="6.45227">
        <ele>1760.79</ele>
        <time>2018-09-23T15:12:18Z</time>
      </trkpt>
      <trkpt lat="46.10615" lon="6.45207">
        <ele>1757.43</ele>
        <time>2018-09-23T15:12:23Z</time>
      </trkpt>
      <trkpt lat="46.10615" lon="6.45204">
        <ele>1757.43</ele>
        <time>2018-09-23T15:12:24Z</time>
      </trkpt>
      <trkpt lat="46.10618" lon="6.45176">
        <ele>1755.02</ele>
        <time>2018-09-23T15:12:32Z</time>
      </trkpt>
      <trkpt lat="46.1063" lon="6.45156">
        <ele>1751.66</ele>
        <time>2018-09-23T15:12:40Z</time>
      </trkpt>
      <trkpt lat="46.10637" lon="6.45149">
        <ele>1750.22</ele>
        <time>2018-09-23T15:12:43Z</time>
      </trkpt>
      <trkpt lat="46.10647" lon="6.45141">
        <ele>1748.29</ele>
        <time>2018-09-23T15:12:47Z</time>
      </trkpt>
      <trkpt lat="46.10666" lon="6.45132">
        <ele>1747.33</ele>
        <time>2018-09-23T15:12:54Z</time>
      </trkpt>
      <trkpt lat="46.10686" lon="6.45129">
        <ele>1745.41</ele>
        <time>2018-09-23T15:13:02Z</time>
      </trkpt>
      <trkpt lat="46.10686" lon="6.45127">
        <ele>1743.97</ele>
        <time>2018-09-23T15:13:04Z</time>
      </trkpt>
      <trkpt lat="46.10685" lon="6.45125">
        <ele>1742.53</ele>
        <time>2018-09-23T15:13:05Z</time>
      </trkpt>
      <trkpt lat="46.10683" lon="6.45124">
        <ele>1741.08</ele>
        <time>2018-09-23T15:13:06Z</time>
      </trkpt>
      <trkpt lat="46.10676" lon="6.45121">
        <ele>1739.16</ele>
        <time>2018-09-23T15:13:09Z</time>
      </trkpt>
      <trkpt lat="46.10667" lon="6.45117">
        <ele>1736.76</ele>
        <time>2018-09-23T15:13:13Z</time>
      </trkpt>
      <trkpt lat="46.10663" lon="6.45116">
        <ele>1736.28</ele>
        <time>2018-09-23T15:13:15Z</time>
      </trkpt>
      <trkpt lat="46.1066" lon="6.45116">
        <ele>1736.28</ele>
        <time>2018-09-23T15:13:16Z</time>
      </trkpt>
      <trkpt lat="46.10658" lon="6.45115">
        <ele>1735.8</ele>
        <time>2018-09-23T15:13:17Z</time>
      </trkpt>
      <trkpt lat="46.10656" lon="6.45115">
        <ele>1734.84</ele>
        <time>2018-09-23T15:13:18Z</time>
      </trkpt>
      <trkpt lat="46.10654" lon="6.45115">
        <ele>1733.88</ele>
        <time>2018-09-23T15:13:19Z</time>
      </trkpt>
      <trkpt lat="46.10652" lon="6.45115">
        <ele>1733.39</ele>
        <time>2018-09-23T15:13:20Z</time>
      </trkpt>
      <trkpt lat="46.1065" lon="6.45114">
        <ele>1732.43</ele>
        <time>2018-09-23T15:13:21Z</time>
      </trkpt>
      <trkpt lat="46.10648" lon="6.45112">
        <ele>1731.95</ele>
        <time>2018-09-23T15:13:22Z</time>
      </trkpt>
      <trkpt lat="46.10646" lon="6.45112">
        <ele>1731.95</ele>
        <time>2018-09-23T15:13:23Z</time>
      </trkpt>
      <trkpt lat="46.10631" lon="6.45108">
        <ele>1729.55</ele>
        <time>2018-09-23T15:13:30Z</time>
      </trkpt>
      <trkpt lat="46.10629" lon="6.45106">
        <ele>1729.07</ele>
        <time>2018-09-23T15:13:31Z</time>
      </trkpt>
      <trkpt lat="46.10619" lon="6.45101">
        <ele>1726.18</ele>
        <time>2018-09-23T15:13:36Z</time>
      </trkpt>
      <trkpt lat="46.10617" lon="6.45101">
        <ele>1725.7</ele>
        <time>2018-09-23T15:13:37Z</time>
      </trkpt>
      <trkpt lat="46.10602" lon="6.45092">
        <ele>1722.82</ele>
        <time>2018-09-23T15:13:43Z</time>
      </trkpt>
      <trkpt lat="46.10593" lon="6.45086">
        <ele>1720.9</ele>
        <time>2018-09-23T15:13:47Z</time>
      </trkpt>
      <trkpt lat="46.10591" lon="6.45084">
        <ele>1720.42</ele>
        <time>2018-09-23T15:13:48Z</time>
      </trkpt>
      <trkpt lat="46.10589" lon="6.45082">
        <ele>1719.94</ele>
        <time>2018-09-23T15:13:49Z</time>
      </trkpt>
      <trkpt lat="46.10587" lon="6.45081">
        <ele>1719.46</ele>
        <time>2018-09-23T15:13:50Z</time>
      </trkpt>
      <trkpt lat="46.10584" lon="6.4508">
        <ele>1718.97</ele>
        <time>2018-09-23T15:13:51Z</time>
      </trkpt>
      <trkpt lat="46.10582" lon="6.45079">
        <ele>1718.49</ele>
        <time>2018-09-23T15:13:52Z</time>
      </trkpt>
      <trkpt lat="46.10579" lon="6.45079">
        <ele>1718.01</ele>
        <time>2018-09-23T15:13:53Z</time>
      </trkpt>
      <trkpt lat="46.10574" lon="6.45079">
        <ele>1717.05</ele>
        <time>2018-09-23T15:13:55Z</time>
      </trkpt>
      <trkpt lat="46.10572" lon="6.45081">
        <ele>1717.05</ele>
        <time>2018-09-23T15:13:56Z</time>
      </trkpt>
      <trkpt lat="46.10569" lon="6.45085">
        <ele>1716.57</ele>
        <time>2018-09-23T15:13:57Z</time>
      </trkpt>
      <trkpt lat="46.10567" lon="6.45088">
        <ele>1716.57</ele>
        <time>2018-09-23T15:13:58Z</time>
      </trkpt>
      <trkpt lat="46.10566" lon="6.45091">
        <ele>1716.09</ele>
        <time>2018-09-23T15:13:59Z</time>
      </trkpt>
      <trkpt lat="46.10564" lon="6.45093">
        <ele>1715.61</ele>
        <time>2018-09-23T15:14:00Z</time>
      </trkpt>
      <trkpt lat="46.10562" lon="6.45096">
        <ele>1715.13</ele>
        <time>2018-09-23T15:14:01Z</time>
      </trkpt>
      <trkpt lat="46.10561" lon="6.45099">
        <ele>1714.65</ele>
        <time>2018-09-23T15:14:02Z</time>
      </trkpt>
      <trkpt lat="46.1056" lon="6.45103">
        <ele>1714.17</ele>
        <time>2018-09-23T15:14:03Z</time>
      </trkpt>
      <trkpt lat="46.10548" lon="6.4513">
        <ele>1710.8</ele>
        <time>2018-09-23T15:14:11Z</time>
      </trkpt>
      <trkpt lat="46.10541" lon="6.45151">
        <ele>1707.44</ele>
        <time>2018-09-23T15:14:17Z</time>
      </trkpt>
      <trkpt lat="46.10533" lon="6.45173">
        <ele>1704.55</ele>
        <time>2018-09-23T15:14:23Z</time>
      </trkpt>
      <trkpt lat="46.10526" lon="6.45188">
        <ele>1701.19</ele>
        <time>2018-09-23T15:14:27Z</time>
      </trkpt>
      <trkpt lat="46.10517" lon="6.45209">
        <ele>1697.83</ele>
        <time>2018-09-23T15:14:33Z</time>
      </trkpt>
      <trkpt lat="46.10511" lon="6.45223">
        <ele>1695.42</ele>
        <time>2018-09-23T15:14:37Z</time>
      </trkpt>
      <trkpt lat="46.105" lon="6.45242">
        <ele>1692.06</ele>
        <time>2018-09-23T15:14:43Z</time>
      </trkpt>
      <trkpt lat="46.10489" lon="6.45257">
        <ele>1688.69</ele>
        <time>2018-09-23T15:14:48Z</time>
      </trkpt>
      <trkpt lat="46.10485" lon="6.45263">
        <ele>1687.73</ele>
        <time>2018-09-23T15:14:50Z</time>
      </trkpt>
      <trkpt lat="46.10473" lon="6.45277">
        <ele>1684.37</ele>
        <time>2018-09-23T15:14:56Z</time>
      </trkpt>
      <trkpt lat="46.10462" lon="6.45302">
        <ele>1683.41</ele>
        <time>2018-09-23T15:15:05Z</time>
      </trkpt>
      <trkpt lat="46.10449" lon="6.45324">
        <ele>1680.52</ele>
        <time>2018-09-23T15:15:14Z</time>
      </trkpt>
      <trkpt lat="46.10444" lon="6.45329">
        <ele>1678.12</ele>
        <time>2018-09-23T15:15:18Z</time>
      </trkpt>
      <trkpt lat="46.10442" lon="6.45329">
        <ele>1677.64</ele>
        <time>2018-09-23T15:15:19Z</time>
      </trkpt>
      <trkpt lat="46.10441" lon="6.4533">
        <ele>1676.68</ele>
        <time>2018-09-23T15:15:20Z</time>
      </trkpt>
      <trkpt lat="46.1044" lon="6.4533">
        <ele>1676.2</ele>
        <time>2018-09-23T15:15:21Z</time>
      </trkpt>
      <trkpt lat="46.10439" lon="6.45328">
        <ele>1675.72</ele>
        <time>2018-09-23T15:15:22Z</time>
      </trkpt>
      <trkpt lat="46.10438" lon="6.45327">
        <ele>1674.75</ele>
        <time>2018-09-23T15:15:23Z</time>
      </trkpt>
      <trkpt lat="46.10436" lon="6.45327">
        <ele>1673.31</ele>
        <time>2018-09-23T15:15:25Z</time>
      </trkpt>
      <trkpt lat="46.10435" lon="6.45328">
        <ele>1672.83</ele>
        <time>2018-09-23T15:15:26Z</time>
      </trkpt>
      <trkpt lat="46.10429" lon="6.45337">
        <ele>1669.47</ele>
        <time>2018-09-23T15:15:30Z</time>
      </trkpt>
      <trkpt lat="46.10425" lon="6.45346">
        <ele>1666.58</ele>
        <time>2018-09-23T15:15:35Z</time>
      </trkpt>
      <trkpt lat="46.10421" lon="6.45352">
        <ele>1663.22</ele>
        <time>2018-09-23T15:15:40Z</time>
      </trkpt>
      <trkpt lat="46.10416" lon="6.45356">
        <ele>1659.85</ele>
        <time>2018-09-23T15:15:46Z</time>
      </trkpt>
      <trkpt lat="46.10415" lon="6.45356">
        <ele>1658.89</ele>
        <time>2018-09-23T15:15:47Z</time>
      </trkpt>
      <trkpt lat="46.10414" lon="6.45357">
        <ele>1658.41</ele>
        <time>2018-09-23T15:15:48Z</time>
      </trkpt>
      <trkpt lat="46.10412" lon="6.45359">
        <ele>1657.45</ele>
        <time>2018-09-23T15:15:50Z</time>
      </trkpt>
      <trkpt lat="46.10411" lon="6.45358">
        <ele>1656.97</ele>
        <time>2018-09-23T15:15:51Z</time>
      </trkpt>
      <trkpt lat="46.10411" lon="6.45359">
        <ele>1656.49</ele>
        <time>2018-09-23T15:15:52Z</time>
      </trkpt>
      <trkpt lat="46.1041" lon="6.45359">
        <ele>1656.49</ele>
        <time>2018-09-23T15:15:53Z</time>
      </trkpt>
      <trkpt lat="46.10409" lon="6.45359">
        <ele>1656.01</ele>
        <time>2018-09-23T15:15:54Z</time>
      </trkpt>
      <trkpt lat="46.10408" lon="6.4536">
        <ele>1655.53</ele>
        <time>2018-09-23T15:15:55Z</time>
      </trkpt>
      <trkpt lat="46.10407" lon="6.4536">
        <ele>1655.05</ele>
        <time>2018-09-23T15:15:56Z</time>
      </trkpt>
      <trkpt lat="46.10405" lon="6.4536">
        <ele>1653.6</ele>
        <time>2018-09-23T15:15:58Z</time>
      </trkpt>
      <trkpt lat="46.10404" lon="6.45358">
        <ele>1653.12</ele>
        <time>2018-09-23T15:15:59Z</time>
      </trkpt>
      <trkpt lat="46.10403" lon="6.45357">
        <ele>1651.68</ele>
        <time>2018-09-23T15:16:01Z</time>
      </trkpt>
      <trkpt lat="46.10402" lon="6.45356">
        <ele>1650.24</ele>
        <time>2018-09-23T15:16:03Z</time>
      </trkpt>
      <trkpt lat="46.104" lon="6.45356">
        <ele>1650.24</ele>
        <time>2018-09-23T15:16:04Z</time>
      </trkpt>
      <trkpt lat="46.10398" lon="6.45355">
        <ele>1648.32</ele>
        <time>2018-09-23T15:16:07Z</time>
      </trkpt>
      <trkpt lat="46.10396" lon="6.45354">
        <ele>1646.88</ele>
        <time>2018-09-23T15:16:09Z</time>
      </trkpt>
      <trkpt lat="46.10396" lon="6.45353">
        <ele>1646.4</ele>
        <time>2018-09-23T15:16:10Z</time>
      </trkpt>
      <trkpt lat="46.10394" lon="6.45349">
        <ele>1644.95</ele>
        <time>2018-09-23T15:16:13Z</time>
      </trkpt>
      <trkpt lat="46.1039" lon="6.4535">
        <ele>1642.55</ele>
        <time>2018-09-23T15:16:18Z</time>
      </trkpt>
      <trkpt lat="46.10389" lon="6.45351">
        <ele>1641.59</ele>
        <time>2018-09-23T15:16:19Z</time>
      </trkpt>
      <trkpt lat="46.10385" lon="6.45354">
        <ele>1639.19</ele>
        <time>2018-09-23T15:16:25Z</time>
      </trkpt>
      <trkpt lat="46.10383" lon="6.45354">
        <ele>1638.22</ele>
        <time>2018-09-23T15:16:27Z</time>
      </trkpt>
      <trkpt lat="46.10382" lon="6.45353">
        <ele>1637.26</ele>
        <time>2018-09-23T15:16:28Z</time>
      </trkpt>
      <trkpt lat="46.10381" lon="6.45353">
        <ele>1636.3</ele>
        <time>2018-09-23T15:16:29Z</time>
      </trkpt>
      <trkpt lat="46.10379" lon="6.45354">
        <ele>1635.34</ele>
        <time>2018-09-23T15:16:31Z</time>
      </trkpt>
      <trkpt lat="46.10378" lon="6.45356">
        <ele>1634.38</ele>
        <time>2018-09-23T15:16:32Z</time>
      </trkpt>
      <trkpt lat="46.10377" lon="6.45359">
        <ele>1633.9</ele>
        <time>2018-09-23T15:16:33Z</time>
      </trkpt>
      <trkpt lat="46.10376" lon="6.45362">
        <ele>1633.42</ele>
        <time>2018-09-23T15:16:34Z</time>
      </trkpt>
      <trkpt lat="46.10375" lon="6.45365">
        <ele>1632.94</ele>
        <time>2018-09-23T15:16:35Z</time>
      </trkpt>
      <trkpt lat="46.10367" lon="6.45381">
        <ele>1629.57</ele>
        <time>2018-09-23T15:16:43Z</time>
      </trkpt>
      <trkpt lat="46.10362" lon="6.45388">
        <ele>1626.21</ele>
        <time>2018-09-23T15:16:48Z</time>
      </trkpt>
      <trkpt lat="46.10359" lon="6.45391">
        <ele>1624.77</ele>
        <time>2018-09-23T15:16:51Z</time>
      </trkpt>
      <trkpt lat="46.10358" lon="6.45391">
        <ele>1624.28</ele>
        <time>2018-09-23T15:16:52Z</time>
      </trkpt>
      <trkpt lat="46.10357" lon="6.45391">
        <ele>1623.8</ele>
        <time>2018-09-23T15:16:53Z</time>
      </trkpt>
      <trkpt lat="46.10356" lon="6.45391">
        <ele>1623.8</ele>
        <time>2018-09-23T15:16:54Z</time>
      </trkpt>
      <trkpt lat="46.10356" lon="6.45393">
        <ele>1622.36</ele>
        <time>2018-09-23T15:16:55Z</time>
      </trkpt>
      <trkpt lat="46.10355" lon="6.45393">
        <ele>1621.88</ele>
        <time>2018-09-23T15:16:56Z</time>
      </trkpt>
      <trkpt lat="46.10351" lon="6.45396">
        <ele>1619</ele>
        <time>2018-09-23T15:17:01Z</time>
      </trkpt>
      <trkpt lat="46.10345" lon="6.45399">
        <ele>1616.11</ele>
        <time>2018-09-23T15:17:07Z</time>
      </trkpt>
      <trkpt lat="46.10344" lon="6.45398">
        <ele>1615.63</ele>
        <time>2018-09-23T15:17:08Z</time>
      </trkpt>
      <trkpt lat="46.10343" lon="6.45397">
        <ele>1614.67</ele>
        <time>2018-09-23T15:17:09Z</time>
      </trkpt>
      <trkpt lat="46.10341" lon="6.45396">
        <ele>1613.23</ele>
        <time>2018-09-23T15:17:12Z</time>
      </trkpt>
      <trkpt lat="46.10339" lon="6.45394">
        <ele>1611.79</ele>
        <time>2018-09-23T15:17:16Z</time>
      </trkpt>
      <trkpt lat="46.10337" lon="6.45394">
        <ele>1609.86</ele>
        <time>2018-09-23T15:17:19Z</time>
      </trkpt>
      <trkpt lat="46.10331" lon="6.45391">
        <ele>1606.02</ele>
        <time>2018-09-23T15:17:25Z</time>
      </trkpt>
      <trkpt lat="46.1033" lon="6.45389">
        <ele>1605.54</ele>
        <time>2018-09-23T15:17:27Z</time>
      </trkpt>
      <trkpt lat="46.10328" lon="6.45388">
        <ele>1604.58</ele>
        <time>2018-09-23T15:17:29Z</time>
      </trkpt>
      <trkpt lat="46.10327" lon="6.45389">
        <ele>1603.62</ele>
        <time>2018-09-23T15:17:30Z</time>
      </trkpt>
      <trkpt lat="46.10327" lon="6.4539">
        <ele>1602.66</ele>
        <time>2018-09-23T15:17:31Z</time>
      </trkpt>
      <trkpt lat="46.10326" lon="6.45391">
        <ele>1602.17</ele>
        <time>2018-09-23T15:17:32Z</time>
      </trkpt>
      <trkpt lat="46.10325" lon="6.45389">
        <ele>1601.69</ele>
        <time>2018-09-23T15:17:33Z</time>
      </trkpt>
      <trkpt lat="46.10324" lon="6.45388">
        <ele>1601.69</ele>
        <time>2018-09-23T15:17:34Z</time>
      </trkpt>
      <trkpt lat="46.10323" lon="6.45387">
        <ele>1601.21</ele>
        <time>2018-09-23T15:17:35Z</time>
      </trkpt>
      <trkpt lat="46.10322" lon="6.45386">
        <ele>1601.21</ele>
        <time>2018-09-23T15:17:36Z</time>
      </trkpt>
      <trkpt lat="46.10321" lon="6.45384">
        <ele>1600.25</ele>
        <time>2018-09-23T15:17:37Z</time>
      </trkpt>
      <trkpt lat="46.1032" lon="6.45382">
        <ele>1599.77</ele>
        <time>2018-09-23T15:17:38Z</time>
      </trkpt>
      <trkpt lat="46.10319" lon="6.45382">
        <ele>1597.85</ele>
        <time>2018-09-23T15:17:40Z</time>
      </trkpt>
      <trkpt lat="46.10319" lon="6.45385">
        <ele>1597.37</ele>
        <time>2018-09-23T15:17:41Z</time>
      </trkpt>
      <trkpt lat="46.10318" lon="6.45387">
        <ele>1596.89</ele>
        <time>2018-09-23T15:17:42Z</time>
      </trkpt>
      <trkpt lat="46.10317" lon="6.45389">
        <ele>1596.41</ele>
        <time>2018-09-23T15:17:43Z</time>
      </trkpt>
      <trkpt lat="46.10315" lon="6.45391">
        <ele>1596.41</ele>
        <time>2018-09-23T15:17:44Z</time>
      </trkpt>
      <trkpt lat="46.10314" lon="6.45394">
        <ele>1595.45</ele>
        <time>2018-09-23T15:17:45Z</time>
      </trkpt>
      <trkpt lat="46.10313" lon="6.45397">
        <ele>1594.96</ele>
        <time>2018-09-23T15:17:46Z</time>
      </trkpt>
      <trkpt lat="46.10307" lon="6.45417">
        <ele>1592.08</ele>
        <time>2018-09-23T15:17:51Z</time>
      </trkpt>
      <trkpt lat="46.10291" lon="6.45431">
        <ele>1590.64</ele>
        <time>2018-09-23T15:17:58Z</time>
      </trkpt>
      <trkpt lat="46.10271" lon="6.45442">
        <ele>1589.68</ele>
        <time>2018-09-23T15:18:06Z</time>
      </trkpt>
      <trkpt lat="46.10263" lon="6.45445">
        <ele>1588.24</ele>
        <time>2018-09-23T15:18:09Z</time>
      </trkpt>
      <trkpt lat="46.1025" lon="6.45445">
        <ele>1585.35</ele>
        <time>2018-09-23T15:18:15Z</time>
      </trkpt>
      <trkpt lat="46.10238" lon="6.45449">
        <ele>1582.47</ele>
        <time>2018-09-23T15:18:21Z</time>
      </trkpt>
      <trkpt lat="46.1022" lon="6.45465">
        <ele>1580.54</ele>
        <time>2018-09-23T15:18:29Z</time>
      </trkpt>
      <trkpt lat="46.10204" lon="6.45478">
        <ele>1578.14</ele>
        <time>2018-09-23T15:18:35Z</time>
      </trkpt>
      <trkpt lat="46.10186" lon="6.45494">
        <ele>1575.26</ele>
        <time>2018-09-23T15:18:43Z</time>
      </trkpt>
      <trkpt lat="46.10168" lon="6.45507">
        <ele>1571.89</ele>
        <time>2018-09-23T15:18:51Z</time>
      </trkpt>
      <trkpt lat="46.10154" lon="6.45513">
        <ele>1568.05</ele>
        <time>2018-09-23T15:18:57Z</time>
      </trkpt>
      <trkpt lat="46.10144" lon="6.45519">
        <ele>1565.16</ele>
        <time>2018-09-23T15:19:03Z</time>
      </trkpt>
      <trkpt lat="46.10143" lon="6.45519">
        <ele>1565.16</ele>
        <time>2018-09-23T15:19:04Z</time>
      </trkpt>
      <trkpt lat="46.10141" lon="6.45519">
        <ele>1564.68</ele>
        <time>2018-09-23T15:19:05Z</time>
      </trkpt>
      <trkpt lat="46.1014" lon="6.45519">
        <ele>1564.2</ele>
        <time>2018-09-23T15:19:06Z</time>
      </trkpt>
      <trkpt lat="46.10139" lon="6.45519">
        <ele>1563.24</ele>
        <time>2018-09-23T15:19:07Z</time>
      </trkpt>
      <trkpt lat="46.10137" lon="6.45518">
        <ele>1562.76</ele>
        <time>2018-09-23T15:19:08Z</time>
      </trkpt>
      <trkpt lat="46.10136" lon="6.45518">
        <ele>1562.28</ele>
        <time>2018-09-23T15:19:09Z</time>
      </trkpt>
      <trkpt lat="46.10128" lon="6.45513">
        <ele>1558.92</ele>
        <time>2018-09-23T15:19:14Z</time>
      </trkpt>
      <trkpt lat="46.10122" lon="6.45511">
        <ele>1556.03</ele>
        <time>2018-09-23T15:19:18Z</time>
      </trkpt>
      <trkpt lat="46.10121" lon="6.45509">
        <ele>1555.07</ele>
        <time>2018-09-23T15:19:19Z</time>
      </trkpt>
      <trkpt lat="46.1012" lon="6.45504">
        <ele>1553.15</ele>
        <time>2018-09-23T15:19:21Z</time>
      </trkpt>
      <trkpt lat="46.10121" lon="6.45502">
        <ele>1552.19</ele>
        <time>2018-09-23T15:19:22Z</time>
      </trkpt>
      <trkpt lat="46.10122" lon="6.455">
        <ele>1551.22</ele>
        <time>2018-09-23T15:19:23Z</time>
      </trkpt>
      <trkpt lat="46.10123" lon="6.45498">
        <ele>1550.26</ele>
        <time>2018-09-23T15:19:24Z</time>
      </trkpt>
      <trkpt lat="46.10124" lon="6.45496">
        <ele>1549.78</ele>
        <time>2018-09-23T15:19:25Z</time>
      </trkpt>
      <trkpt lat="46.10125" lon="6.45494">
        <ele>1549.78</ele>
        <time>2018-09-23T15:19:26Z</time>
      </trkpt>
      <trkpt lat="46.10124" lon="6.45492">
        <ele>1549.3</ele>
        <time>2018-09-23T15:19:27Z</time>
      </trkpt>
      <trkpt lat="46.10123" lon="6.4549">
        <ele>1549.3</ele>
        <time>2018-09-23T15:19:28Z</time>
      </trkpt>
      <trkpt lat="46.10121" lon="6.45488">
        <ele>1548.82</ele>
        <time>2018-09-23T15:19:29Z</time>
      </trkpt>
      <trkpt lat="46.1012" lon="6.45487">
        <ele>1548.34</ele>
        <time>2018-09-23T15:19:30Z</time>
      </trkpt>
      <trkpt lat="46.10118" lon="6.45486">
        <ele>1547.86</ele>
        <time>2018-09-23T15:19:31Z</time>
      </trkpt>
      <trkpt lat="46.10117" lon="6.45484">
        <ele>1547.38</ele>
        <time>2018-09-23T15:19:32Z</time>
      </trkpt>
      <trkpt lat="46.10116" lon="6.45482">
        <ele>1546.9</ele>
        <time>2018-09-23T15:19:33Z</time>
      </trkpt>
      <trkpt lat="46.10115" lon="6.4548">
        <ele>1545.94</ele>
        <time>2018-09-23T15:19:34Z</time>
      </trkpt>
      <trkpt lat="46.10115" lon="6.45477">
        <ele>1544.98</ele>
        <time>2018-09-23T15:19:35Z</time>
      </trkpt>
      <trkpt lat="46.10114" lon="6.45474">
        <ele>1544.01</ele>
        <time>2018-09-23T15:19:36Z</time>
      </trkpt>
      <trkpt lat="46.10115" lon="6.45472">
        <ele>1542.57</ele>
        <time>2018-09-23T15:19:37Z</time>
      </trkpt>
      <trkpt lat="46.10115" lon="6.45469">
        <ele>1541.61</ele>
        <time>2018-09-23T15:19:38Z</time>
      </trkpt>
      <trkpt lat="46.10114" lon="6.45468">
        <ele>1541.61</ele>
        <time>2018-09-23T15:19:39Z</time>
      </trkpt>
      <trkpt lat="46.10113" lon="6.45466">
        <ele>1541.13</ele>
        <time>2018-09-23T15:19:40Z</time>
      </trkpt>
      <trkpt lat="46.10111" lon="6.45462">
        <ele>1540.65</ele>
        <time>2018-09-23T15:19:42Z</time>
      </trkpt>
      <trkpt lat="46.1011" lon="6.45461">
        <ele>1540.17</ele>
        <time>2018-09-23T15:19:43Z</time>
      </trkpt>
      <trkpt lat="46.10098" lon="6.45453">
        <ele>1536.32</ele>
        <time>2018-09-23T15:19:49Z</time>
      </trkpt>
      <trkpt lat="46.10096" lon="6.4545">
        <ele>1535.36</ele>
        <time>2018-09-23T15:19:51Z</time>
      </trkpt>
      <trkpt lat="46.10095" lon="6.45448">
        <ele>1534.4</ele>
        <time>2018-09-23T15:19:52Z</time>
      </trkpt>
      <trkpt lat="46.10095" lon="6.45446">
        <ele>1533.92</ele>
        <time>2018-09-23T15:19:53Z</time>
      </trkpt>
      <trkpt lat="46.10096" lon="6.45444">
        <ele>1533.44</ele>
        <time>2018-09-23T15:19:54Z</time>
      </trkpt>
      <trkpt lat="46.10097" lon="6.45441">
        <ele>1532.96</ele>
        <time>2018-09-23T15:19:55Z</time>
      </trkpt>
      <trkpt lat="46.10097" lon="6.45439">
        <ele>1532</ele>
        <time>2018-09-23T15:19:56Z</time>
      </trkpt>
      <trkpt lat="46.10098" lon="6.45436">
        <ele>1531.52</ele>
        <time>2018-09-23T15:19:57Z</time>
      </trkpt>
      <trkpt lat="46.10098" lon="6.45434">
        <ele>1531.04</ele>
        <time>2018-09-23T15:19:58Z</time>
      </trkpt>
      <trkpt lat="46.10101" lon="6.4543">
        <ele>1531.04</ele>
        <time>2018-09-23T15:20:00Z</time>
      </trkpt>
      <trkpt lat="46.10101" lon="6.45428">
        <ele>1530.56</ele>
        <time>2018-09-23T15:20:01Z</time>
      </trkpt>
      <trkpt lat="46.10102" lon="6.45426">
        <ele>1529.59</ele>
        <time>2018-09-23T15:20:02Z</time>
      </trkpt>
      <trkpt lat="46.10102" lon="6.45424">
        <ele>1528.63</ele>
        <time>2018-09-23T15:20:03Z</time>
      </trkpt>
      <trkpt lat="46.10101" lon="6.45422">
        <ele>1528.15</ele>
        <time>2018-09-23T15:20:04Z</time>
      </trkpt>
      <trkpt lat="46.101" lon="6.45419">
        <ele>1527.19</ele>
        <time>2018-09-23T15:20:05Z</time>
      </trkpt>
      <trkpt lat="46.1009" lon="6.4541">
        <ele>1523.83</ele>
        <time>2018-09-23T15:20:11Z</time>
      </trkpt>
      <trkpt lat="46.10072" lon="6.45404">
        <ele>1521.42</ele>
        <time>2018-09-23T15:20:18Z</time>
      </trkpt>
      <trkpt lat="46.10069" lon="6.45406">
        <ele>1521.42</ele>
        <time>2018-09-23T15:20:19Z</time>
      </trkpt>
      <trkpt lat="46.10067" lon="6.4541">
        <ele>1521.42</ele>
        <time>2018-09-23T15:20:20Z</time>
      </trkpt>
      <trkpt lat="46.10067" lon="6.45413">
        <ele>1521.42</ele>
        <time>2018-09-23T15:20:21Z</time>
      </trkpt>
      <trkpt lat="46.10067" lon="6.45417">
        <ele>1521.42</ele>
        <time>2018-09-23T15:20:22Z</time>
      </trkpt>
      <trkpt lat="46.10072" lon="6.45439">
        <ele>1524.79</ele>
        <time>2018-09-23T15:20:30Z</time>
      </trkpt>
      <trkpt lat="46.10074" lon="6.45444">
        <ele>1525.75</ele>
        <time>2018-09-23T15:20:32Z</time>
      </trkpt>
      <trkpt lat="46.10074" lon="6.45448">
        <ele>1526.23</ele>
        <time>2018-09-23T15:20:33Z</time>
      </trkpt>
      <trkpt lat="46.10074" lon="6.45451">
        <ele>1526.71</ele>
        <time>2018-09-23T15:20:34Z</time>
      </trkpt>
      <trkpt lat="46.10073" lon="6.45455">
        <ele>1526.71</ele>
        <time>2018-09-23T15:20:35Z</time>
      </trkpt>
      <trkpt lat="46.10073" lon="6.45458">
        <ele>1526.71</ele>
        <time>2018-09-23T15:20:36Z</time>
      </trkpt>
      <trkpt lat="46.10073" lon="6.45461">
        <ele>1526.71</ele>
        <time>2018-09-23T15:20:37Z</time>
      </trkpt>
      <trkpt lat="46.10073" lon="6.45468">
        <ele>1526.71</ele>
        <time>2018-09-23T15:20:40Z</time>
      </trkpt>
      <trkpt lat="46.10072" lon="6.45471">
        <ele>1526.71</ele>
        <time>2018-09-23T15:20:41Z</time>
      </trkpt>
      <trkpt lat="46.10067" lon="6.45498">
        <ele>1523.83</ele>
        <time>2018-09-23T15:20:50Z</time>
      </trkpt>
      <trkpt lat="46.10064" lon="6.45529">
        <ele>1520.46</ele>
        <time>2018-09-23T15:20:59Z</time>
      </trkpt>
      <trkpt lat="46.10068" lon="6.45557">
        <ele>1519.5</ele>
        <time>2018-09-23T15:21:07Z</time>
      </trkpt>
      <trkpt lat="46.10068" lon="6.45559">
        <ele>1519.98</ele>
        <time>2018-09-23T15:21:08Z</time>
      </trkpt>
      <trkpt lat="46.10069" lon="6.45567">
        <ele>1519.98</ele>
        <time>2018-09-23T15:21:11Z</time>
      </trkpt>
      <trkpt lat="46.1007" lon="6.4557">
        <ele>1519.98</ele>
        <time>2018-09-23T15:21:12Z</time>
      </trkpt>
      <trkpt lat="46.1007" lon="6.45572">
        <ele>1520.46</ele>
        <time>2018-09-23T15:21:13Z</time>
      </trkpt>
      <trkpt lat="46.10072" lon="6.456">
        <ele>1521.42</ele>
        <time>2018-09-23T15:21:22Z</time>
      </trkpt>
      <trkpt lat="46.10069" lon="6.45621">
        <ele>1523.35</ele>
        <time>2018-09-23T15:21:29Z</time>
      </trkpt>
      <trkpt lat="46.10064" lon="6.45649">
        <ele>1525.75</ele>
        <time>2018-09-23T15:21:39Z</time>
      </trkpt>
      <trkpt lat="46.10064" lon="6.45659">
        <ele>1526.71</ele>
        <time>2018-09-23T15:21:43Z</time>
      </trkpt>
      <trkpt lat="46.10064" lon="6.45662">
        <ele>1526.71</ele>
        <time>2018-09-23T15:21:44Z</time>
      </trkpt>
      <trkpt lat="46.10058" lon="6.45692">
        <ele>1527.19</ele>
        <time>2018-09-23T15:21:53Z</time>
      </trkpt>
      <trkpt lat="46.10059" lon="6.45723">
        <ele>1526.23</ele>
        <time>2018-09-23T15:22:02Z</time>
      </trkpt>
      <trkpt lat="46.1006" lon="6.45751">
        <ele>1527.19</ele>
        <time>2018-09-23T15:22:11Z</time>
      </trkpt>
      <trkpt lat="46.10066" lon="6.45776">
        <ele>1528.15</ele>
        <time>2018-09-23T15:22:20Z</time>
      </trkpt>
      <trkpt lat="46.10066" lon="6.45779">
        <ele>1528.15</ele>
        <time>2018-09-23T15:22:21Z</time>
      </trkpt>
      <trkpt lat="46.10066" lon="6.45781">
        <ele>1528.63</ele>
        <time>2018-09-23T15:22:22Z</time>
      </trkpt>
      <trkpt lat="46.10065" lon="6.45784">
        <ele>1528.63</ele>
        <time>2018-09-23T15:22:23Z</time>
      </trkpt>
      <trkpt lat="46.10065" lon="6.45786">
        <ele>1528.63</ele>
        <time>2018-09-23T15:22:24Z</time>
      </trkpt>
      <trkpt lat="46.10064" lon="6.45789">
        <ele>1528.63</ele>
        <time>2018-09-23T15:22:25Z</time>
      </trkpt>
      <trkpt lat="46.10064" lon="6.45793">
        <ele>1529.11</ele>
        <time>2018-09-23T15:22:27Z</time>
      </trkpt>
      <trkpt lat="46.10064" lon="6.45794">
        <ele>1529.11</ele>
        <time>2018-09-23T15:22:28Z</time>
      </trkpt>
      <trkpt lat="46.10065" lon="6.45798">
        <ele>1529.59</ele>
        <time>2018-09-23T15:22:30Z</time>
      </trkpt>
      <trkpt lat="46.10065" lon="6.458">
        <ele>1530.08</ele>
        <time>2018-09-23T15:22:31Z</time>
      </trkpt>
      <trkpt lat="46.10065" lon="6.45802">
        <ele>1530.56</ele>
        <time>2018-09-23T15:22:32Z</time>
      </trkpt>
      <trkpt lat="46.10065" lon="6.45803">
        <ele>1531.04</ele>
        <time>2018-09-23T15:22:33Z</time>
      </trkpt>
      <trkpt lat="46.10064" lon="6.45805">
        <ele>1532</ele>
        <time>2018-09-23T15:22:34Z</time>
      </trkpt>
      <trkpt lat="46.10064" lon="6.45806">
        <ele>1532</ele>
        <time>2018-09-23T15:22:35Z</time>
      </trkpt>
      <trkpt lat="46.10063" lon="6.45807">
        <ele>1532.48</ele>
        <time>2018-09-23T15:22:36Z</time>
      </trkpt>
      <trkpt lat="46.1005" lon="6.45831">
        <ele>1535.36</ele>
        <time>2018-09-23T15:22:48Z</time>
      </trkpt>
      <trkpt lat="46.10047" lon="6.45849">
        <ele>1537.77</ele>
        <time>2018-09-23T15:22:58Z</time>
      </trkpt>
      <trkpt lat="46.10047" lon="6.45851">
        <ele>1537.77</ele>
        <time>2018-09-23T15:22:59Z</time>
      </trkpt>
      <trkpt lat="46.10048" lon="6.45885">
        <ele>1538.25</ele>
        <time>2018-09-23T15:23:12Z</time>
      </trkpt>
      <trkpt lat="46.10047" lon="6.45898">
        <ele>1538.25</ele>
        <time>2018-09-23T15:23:16Z</time>
      </trkpt>
      <trkpt lat="46.10047" lon="6.45901">
        <ele>1538.25</ele>
        <time>2018-09-23T15:23:17Z</time>
      </trkpt>
      <trkpt lat="46.10047" lon="6.45904">
        <ele>1538.25</ele>
        <time>2018-09-23T15:23:18Z</time>
      </trkpt>
      <trkpt lat="46.10047" lon="6.45907">
        <ele>1538.25</ele>
        <time>2018-09-23T15:23:19Z</time>
      </trkpt>
      <trkpt lat="46.10046" lon="6.4591">
        <ele>1538.73</ele>
        <time>2018-09-23T15:23:20Z</time>
      </trkpt>
      <trkpt lat="46.10046" lon="6.45913">
        <ele>1538.73</ele>
        <time>2018-09-23T15:23:21Z</time>
      </trkpt>
      <trkpt lat="46.10045" lon="6.45917">
        <ele>1538.73</ele>
        <time>2018-09-23T15:23:22Z</time>
      </trkpt>
      <trkpt lat="46.10045" lon="6.4592">
        <ele>1538.73</ele>
        <time>2018-09-23T15:23:23Z</time>
      </trkpt>
      <trkpt lat="46.10046" lon="6.45924">
        <ele>1538.73</ele>
        <time>2018-09-23T15:23:24Z</time>
      </trkpt>
      <trkpt lat="46.10046" lon="6.45927">
        <ele>1538.73</ele>
        <time>2018-09-23T15:23:25Z</time>
      </trkpt>
      <trkpt lat="46.10047" lon="6.4593">
        <ele>1538.73</ele>
        <time>2018-09-23T15:23:26Z</time>
      </trkpt>
      <trkpt lat="46.10047" lon="6.45932">
        <ele>1538.73</ele>
        <time>2018-09-23T15:23:27Z</time>
      </trkpt>
      <trkpt lat="46.10048" lon="6.45936">
        <ele>1538.73</ele>
        <time>2018-09-23T15:23:28Z</time>
      </trkpt>
      <trkpt lat="46.1005" lon="6.45952">
        <ele>1538.25</ele>
        <time>2018-09-23T15:23:33Z</time>
      </trkpt>
      <trkpt lat="46.1005" lon="6.45955">
        <ele>1537.77</ele>
        <time>2018-09-23T15:23:34Z</time>
      </trkpt>
      <trkpt lat="46.1005" lon="6.45977">
        <ele>1538.73</ele>
        <time>2018-09-23T15:23:42Z</time>
      </trkpt>
      <trkpt lat="46.10048" lon="6.45986">
        <ele>1539.69</ele>
        <time>2018-09-23T15:23:46Z</time>
      </trkpt>
      <trkpt lat="46.10048" lon="6.45987">
        <ele>1540.17</ele>
        <time>2018-09-23T15:23:47Z</time>
      </trkpt>
      <trkpt lat="46.10048" lon="6.4599">
        <ele>1540.17</ele>
        <time>2018-09-23T15:23:48Z</time>
      </trkpt>
      <trkpt lat="46.10047" lon="6.45992">
        <ele>1540.17</ele>
        <time>2018-09-23T15:23:49Z</time>
      </trkpt>
      <trkpt lat="46.10046" lon="6.45995">
        <ele>1540.65</ele>
        <time>2018-09-23T15:23:50Z</time>
      </trkpt>
      <trkpt lat="46.10045" lon="6.45997">
        <ele>1540.65</ele>
        <time>2018-09-23T15:23:51Z</time>
      </trkpt>
      <trkpt lat="46.10044" lon="6.45999">
        <ele>1540.65</ele>
        <time>2018-09-23T15:23:52Z</time>
      </trkpt>
      <trkpt lat="46.10044" lon="6.46001">
        <ele>1541.13</ele>
        <time>2018-09-23T15:23:53Z</time>
      </trkpt>
      <trkpt lat="46.10043" lon="6.46003">
        <ele>1541.13</ele>
        <time>2018-09-23T15:23:54Z</time>
      </trkpt>
      <trkpt lat="46.10038" lon="6.46017">
        <ele>1542.09</ele>
        <time>2018-09-23T15:23:59Z</time>
      </trkpt>
      <trkpt lat="46.10038" lon="6.46032">
        <ele>1544.01</ele>
        <time>2018-09-23T15:24:06Z</time>
      </trkpt>
      <trkpt lat="46.10037" lon="6.46033">
        <ele>1544.01</ele>
        <time>2018-09-23T15:24:07Z</time>
      </trkpt>
      <trkpt lat="46.10031" lon="6.46046">
        <ele>1544.98</ele>
        <time>2018-09-23T15:24:13Z</time>
      </trkpt>
      <trkpt lat="46.1003" lon="6.46048">
        <ele>1545.46</ele>
        <time>2018-09-23T15:24:14Z</time>
      </trkpt>
      <trkpt lat="46.10026" lon="6.46055">
        <ele>1546.42</ele>
        <time>2018-09-23T15:24:17Z</time>
      </trkpt>
      <trkpt lat="46.10026" lon="6.46057">
        <ele>1546.42</ele>
        <time>2018-09-23T15:24:18Z</time>
      </trkpt>
      <trkpt lat="46.10025" lon="6.46059">
        <ele>1546.9</ele>
        <time>2018-09-23T15:24:19Z</time>
      </trkpt>
      <trkpt lat="46.10024" lon="6.46061">
        <ele>1547.38</ele>
        <time>2018-09-23T15:24:20Z</time>
      </trkpt>
      <trkpt lat="46.10023" lon="6.46064">
        <ele>1547.38</ele>
        <time>2018-09-23T15:24:21Z</time>
      </trkpt>
      <trkpt lat="46.10024" lon="6.46066">
        <ele>1547.86</ele>
        <time>2018-09-23T15:24:22Z</time>
      </trkpt>
      <trkpt lat="46.10023" lon="6.46069">
        <ele>1547.86</ele>
        <time>2018-09-23T15:24:23Z</time>
      </trkpt>
      <trkpt lat="46.10022" lon="6.46071">
        <ele>1547.86</ele>
        <time>2018-09-23T15:24:24Z</time>
      </trkpt>
      <trkpt lat="46.10019" lon="6.46083">
        <ele>1548.82</ele>
        <time>2018-09-23T15:24:29Z</time>
      </trkpt>
      <trkpt lat="46.10019" lon="6.46085">
        <ele>1548.82</ele>
        <time>2018-09-23T15:24:30Z</time>
      </trkpt>
      <trkpt lat="46.10019" lon="6.46088">
        <ele>1548.82</ele>
        <time>2018-09-23T15:24:31Z</time>
      </trkpt>
      <trkpt lat="46.10014" lon="6.46103">
        <ele>1549.78</ele>
        <time>2018-09-23T15:24:42Z</time>
      </trkpt>
      <trkpt lat="46.10015" lon="6.46145">
        <ele>1552.19</ele>
        <time>2018-09-23T15:24:59Z</time>
      </trkpt>
      <trkpt lat="46.10016" lon="6.46148">
        <ele>1552.19</ele>
        <time>2018-09-23T15:25:00Z</time>
      </trkpt>
      <trkpt lat="46.10016" lon="6.46152">
        <ele>1552.67</ele>
        <time>2018-09-23T15:25:01Z</time>
      </trkpt>
      <trkpt lat="46.10016" lon="6.46156">
        <ele>1552.67</ele>
        <time>2018-09-23T15:25:02Z</time>
      </trkpt>
      <trkpt lat="46.10017" lon="6.4616">
        <ele>1552.67</ele>
        <time>2018-09-23T15:25:03Z</time>
      </trkpt>
      <trkpt lat="46.10017" lon="6.46168">
        <ele>1552.19</ele>
        <time>2018-09-23T15:25:06Z</time>
      </trkpt>
      <trkpt lat="46.10028" lon="6.46205">
        <ele>1554.59</ele>
        <time>2018-09-23T15:25:19Z</time>
      </trkpt>
      <trkpt lat="46.1003" lon="6.46211">
        <ele>1554.59</ele>
        <time>2018-09-23T15:25:21Z</time>
      </trkpt>
      <trkpt lat="46.10031" lon="6.46213">
        <ele>1554.59</ele>
        <time>2018-09-23T15:25:22Z</time>
      </trkpt>
      <trkpt lat="46.10032" lon="6.46215">
        <ele>1555.07</ele>
        <time>2018-09-23T15:25:23Z</time>
      </trkpt>
      <trkpt lat="46.10033" lon="6.46217">
        <ele>1555.07</ele>
        <time>2018-09-23T15:25:24Z</time>
      </trkpt>
      <trkpt lat="46.10032" lon="6.4622">
        <ele>1555.55</ele>
        <time>2018-09-23T15:25:25Z</time>
      </trkpt>
      <trkpt lat="46.10033" lon="6.46223">
        <ele>1556.03</ele>
        <time>2018-09-23T15:25:26Z</time>
      </trkpt>
      <trkpt lat="46.10033" lon="6.46226">
        <ele>1556.03</ele>
        <time>2018-09-23T15:25:27Z</time>
      </trkpt>
      <trkpt lat="46.1004" lon="6.46255">
        <ele>1556.51</ele>
        <time>2018-09-23T15:25:37Z</time>
      </trkpt>
      <trkpt lat="46.1004" lon="6.46261">
        <ele>1557.47</ele>
        <time>2018-09-23T15:25:40Z</time>
      </trkpt>
      <trkpt lat="46.1004" lon="6.46264">
        <ele>1557.47</ele>
        <time>2018-09-23T15:25:41Z</time>
      </trkpt>
      <trkpt lat="46.1004" lon="6.46266">
        <ele>1557.95</ele>
        <time>2018-09-23T15:25:42Z</time>
      </trkpt>
      <trkpt lat="46.1004" lon="6.46268">
        <ele>1558.43</ele>
        <time>2018-09-23T15:25:43Z</time>
      </trkpt>
      <trkpt lat="46.1004" lon="6.46271">
        <ele>1558.43</ele>
        <time>2018-09-23T15:25:44Z</time>
      </trkpt>
      <trkpt lat="46.1004" lon="6.46273">
        <ele>1558.43</ele>
        <time>2018-09-23T15:25:45Z</time>
      </trkpt>
      <trkpt lat="46.10042" lon="6.46305">
        <ele>1560.84</ele>
        <time>2018-09-23T15:25:57Z</time>
      </trkpt>
      <trkpt lat="46.10042" lon="6.46336">
        <ele>1563.24</ele>
        <time>2018-09-23T15:26:10Z</time>
      </trkpt>
      <trkpt lat="46.10039" lon="6.46362">
        <ele>1565.16</ele>
        <time>2018-09-23T15:26:21Z</time>
      </trkpt>
      <trkpt lat="46.10039" lon="6.46364">
        <ele>1565.16</ele>
        <time>2018-09-23T15:26:22Z</time>
      </trkpt>
      <trkpt lat="46.10039" lon="6.46366">
        <ele>1565.64</ele>
        <time>2018-09-23T15:26:23Z</time>
      </trkpt>
      <trkpt lat="46.10039" lon="6.46381">
        <ele>1566.61</ele>
        <time>2018-09-23T15:26:31Z</time>
      </trkpt>
      <trkpt lat="46.10041" lon="6.46385">
        <ele>1566.61</ele>
        <time>2018-09-23T15:26:33Z</time>
      </trkpt>
      <trkpt lat="46.10042" lon="6.46387">
        <ele>1566.61</ele>
        <time>2018-09-23T15:26:34Z</time>
      </trkpt>
      <trkpt lat="46.10042" lon="6.46389">
        <ele>1566.61</ele>
        <time>2018-09-23T15:26:35Z</time>
      </trkpt>
      <trkpt lat="46.10042" lon="6.46391">
        <ele>1567.09</ele>
        <time>2018-09-23T15:26:36Z</time>
      </trkpt>
      <trkpt lat="46.10043" lon="6.46394">
        <ele>1567.09</ele>
        <time>2018-09-23T15:26:37Z</time>
      </trkpt>
      <trkpt lat="46.10044" lon="6.46397">
        <ele>1567.09</ele>
        <time>2018-09-23T15:26:38Z</time>
      </trkpt>
      <trkpt lat="46.10045" lon="6.464">
        <ele>1567.09</ele>
        <time>2018-09-23T15:26:39Z</time>
      </trkpt>
      <trkpt lat="46.10046" lon="6.46403">
        <ele>1567.09</ele>
        <time>2018-09-23T15:26:40Z</time>
      </trkpt>
      <trkpt lat="46.10056" lon="6.46417">
        <ele>1568.05</ele>
        <time>2018-09-23T15:26:47Z</time>
      </trkpt>
      <trkpt lat="46.10057" lon="6.46418">
        <ele>1568.53</ele>
        <time>2018-09-23T15:26:48Z</time>
      </trkpt>
      <trkpt lat="46.10058" lon="6.46419">
        <ele>1569.01</ele>
        <time>2018-09-23T15:26:49Z</time>
      </trkpt>
      <trkpt lat="46.10065" lon="6.46435">
        <ele>1570.45</ele>
        <time>2018-09-23T15:27:01Z</time>
      </trkpt>
      <trkpt lat="46.10066" lon="6.46437">
        <ele>1569.97</ele>
        <time>2018-09-23T15:27:03Z</time>
      </trkpt>
      <trkpt lat="46.10067" lon="6.46438">
        <ele>1569.97</ele>
        <time>2018-09-23T15:27:04Z</time>
      </trkpt>
      <trkpt lat="46.10068" lon="6.46438">
        <ele>1569.97</ele>
        <time>2018-09-23T15:27:05Z</time>
      </trkpt>
      <trkpt lat="46.10069" lon="6.46439">
        <ele>1569.97</ele>
        <time>2018-09-23T15:27:06Z</time>
      </trkpt>
      <trkpt lat="46.1007" lon="6.4644">
        <ele>1569.49</ele>
        <time>2018-09-23T15:27:07Z</time>
      </trkpt>
      <trkpt lat="46.10071" lon="6.46442">
        <ele>1569.01</ele>
        <time>2018-09-23T15:27:08Z</time>
      </trkpt>
      <trkpt lat="46.10071" lon="6.46445">
        <ele>1569.01</ele>
        <time>2018-09-23T15:27:09Z</time>
      </trkpt>
      <trkpt lat="46.10072" lon="6.46447">
        <ele>1568.53</ele>
        <time>2018-09-23T15:27:10Z</time>
      </trkpt>
      <trkpt lat="46.10072" lon="6.46449">
        <ele>1568.05</ele>
        <time>2018-09-23T15:27:11Z</time>
      </trkpt>
      <trkpt lat="46.10072" lon="6.46452">
        <ele>1567.57</ele>
        <time>2018-09-23T15:27:12Z</time>
      </trkpt>
      <trkpt lat="46.10073" lon="6.46455">
        <ele>1567.09</ele>
        <time>2018-09-23T15:27:14Z</time>
      </trkpt>
      <trkpt lat="46.10074" lon="6.46455">
        <ele>1566.61</ele>
        <time>2018-09-23T15:27:15Z</time>
      </trkpt>
      <trkpt lat="46.10075" lon="6.46455">
        <ele>1565.64</ele>
        <time>2018-09-23T15:27:16Z</time>
      </trkpt>
      <trkpt lat="46.10076" lon="6.46454">
        <ele>1565.16</ele>
        <time>2018-09-23T15:27:17Z</time>
      </trkpt>
      <trkpt lat="46.10077" lon="6.46452">
        <ele>1564.68</ele>
        <time>2018-09-23T15:27:18Z</time>
      </trkpt>
      <trkpt lat="46.10083" lon="6.46441">
        <ele>1561.8</ele>
        <time>2018-09-23T15:27:23Z</time>
      </trkpt>
      <trkpt lat="46.1009" lon="6.46434">
        <ele>1559.88</ele>
        <time>2018-09-23T15:27:27Z</time>
      </trkpt>
      <trkpt lat="46.10103" lon="6.46422">
        <ele>1556.03</ele>
        <time>2018-09-23T15:27:33Z</time>
      </trkpt>
      <trkpt lat="46.10112" lon="6.46411">
        <ele>1553.15</ele>
        <time>2018-09-23T15:27:38Z</time>
      </trkpt>
      <trkpt lat="46.10124" lon="6.46403">
        <ele>1550.26</ele>
        <time>2018-09-23T15:27:44Z</time>
      </trkpt>
      <trkpt lat="46.10137" lon="6.46395">
        <ele>1547.38</ele>
        <time>2018-09-23T15:27:51Z</time>
      </trkpt>
      <trkpt lat="46.10139" lon="6.46394">
        <ele>1546.9</ele>
        <time>2018-09-23T15:27:52Z</time>
      </trkpt>
      <trkpt lat="46.10141" lon="6.46394">
        <ele>1545.94</ele>
        <time>2018-09-23T15:27:53Z</time>
      </trkpt>
      <trkpt lat="46.10142" lon="6.46395">
        <ele>1544.98</ele>
        <time>2018-09-23T15:27:54Z</time>
      </trkpt>
      <trkpt lat="46.10142" lon="6.46398">
        <ele>1544.98</ele>
        <time>2018-09-23T15:27:55Z</time>
      </trkpt>
      <trkpt lat="46.10141" lon="6.46402">
        <ele>1544.01</ele>
        <time>2018-09-23T15:27:56Z</time>
      </trkpt>
      <trkpt lat="46.10141" lon="6.46405">
        <ele>1543.53</ele>
        <time>2018-09-23T15:27:57Z</time>
      </trkpt>
      <trkpt lat="46.10141" lon="6.46409">
        <ele>1542.57</ele>
        <time>2018-09-23T15:27:58Z</time>
      </trkpt>
      <trkpt lat="46.1014" lon="6.46413">
        <ele>1541.61</ele>
        <time>2018-09-23T15:27:59Z</time>
      </trkpt>
      <trkpt lat="46.10139" lon="6.46417">
        <ele>1540.17</ele>
        <time>2018-09-23T15:28:00Z</time>
      </trkpt>
      <trkpt lat="46.10139" lon="6.46421">
        <ele>1539.21</ele>
        <time>2018-09-23T15:28:01Z</time>
      </trkpt>
      <trkpt lat="46.10138" lon="6.46425">
        <ele>1538.73</ele>
        <time>2018-09-23T15:28:02Z</time>
      </trkpt>
      <trkpt lat="46.10136" lon="6.46442">
        <ele>1535.36</ele>
        <time>2018-09-23T15:28:07Z</time>
      </trkpt>
      <trkpt lat="46.10135" lon="6.4646">
        <ele>1531.52</ele>
        <time>2018-09-23T15:28:12Z</time>
      </trkpt>
      <trkpt lat="46.10136" lon="6.46478">
        <ele>1528.63</ele>
        <time>2018-09-23T15:28:17Z</time>
      </trkpt>
      <trkpt lat="46.10136" lon="6.46484">
        <ele>1527.19</ele>
        <time>2018-09-23T15:28:19Z</time>
      </trkpt>
      <trkpt lat="46.10137" lon="6.46486">
        <ele>1526.23</ele>
        <time>2018-09-23T15:28:20Z</time>
      </trkpt>
      <trkpt lat="46.10143" lon="6.46498">
        <ele>1522.87</ele>
        <time>2018-09-23T15:28:25Z</time>
      </trkpt>
      <trkpt lat="46.10149" lon="6.46507">
        <ele>1519.98</ele>
        <time>2018-09-23T15:28:29Z</time>
      </trkpt>
      <trkpt lat="46.10157" lon="6.46515">
        <ele>1517.1</ele>
        <time>2018-09-23T15:28:34Z</time>
      </trkpt>
      <trkpt lat="46.10172" lon="6.46517">
        <ele>1514.21</ele>
        <time>2018-09-23T15:28:40Z</time>
      </trkpt>
      <trkpt lat="46.10185" lon="6.4651">
        <ele>1510.85</ele>
        <time>2018-09-23T15:28:46Z</time>
      </trkpt>
      <trkpt lat="46.1019" lon="6.46505">
        <ele>1508.45</ele>
        <time>2018-09-23T15:28:49Z</time>
      </trkpt>
      <trkpt lat="46.10192" lon="6.46503">
        <ele>1507.97</ele>
        <time>2018-09-23T15:28:50Z</time>
      </trkpt>
      <trkpt lat="46.10194" lon="6.46501">
        <ele>1507</ele>
        <time>2018-09-23T15:28:51Z</time>
      </trkpt>
      <trkpt lat="46.10204" lon="6.46487">
        <ele>1503.64</ele>
        <time>2018-09-23T15:28:57Z</time>
      </trkpt>
      <trkpt lat="46.1021" lon="6.46485">
        <ele>1500.76</ele>
        <time>2018-09-23T15:29:01Z</time>
      </trkpt>
      <trkpt lat="46.10221" lon="6.46489">
        <ele>1496.91</ele>
        <time>2018-09-23T15:29:07Z</time>
      </trkpt>
      <trkpt lat="46.1023" lon="6.46495">
        <ele>1494.03</ele>
        <time>2018-09-23T15:29:12Z</time>
      </trkpt>
      <trkpt lat="46.10239" lon="6.46503">
        <ele>1490.66</ele>
        <time>2018-09-23T15:29:17Z</time>
      </trkpt>
      <trkpt lat="46.1025" lon="6.46512">
        <ele>1487.3</ele>
        <time>2018-09-23T15:29:23Z</time>
      </trkpt>
      <trkpt lat="46.10259" lon="6.46528">
        <ele>1483.45</ele>
        <time>2018-09-23T15:29:29Z</time>
      </trkpt>
      <trkpt lat="46.1026" lon="6.46531">
        <ele>1482.49</ele>
        <time>2018-09-23T15:29:30Z</time>
      </trkpt>
      <trkpt lat="46.1026" lon="6.46534">
        <ele>1482.01</ele>
        <time>2018-09-23T15:29:31Z</time>
      </trkpt>
      <trkpt lat="46.10259" lon="6.46537">
        <ele>1481.05</ele>
        <time>2018-09-23T15:29:32Z</time>
      </trkpt>
      <trkpt lat="46.10258" lon="6.46539">
        <ele>1480.09</ele>
        <time>2018-09-23T15:29:33Z</time>
      </trkpt>
      <trkpt lat="46.10258" lon="6.46542">
        <ele>1479.61</ele>
        <time>2018-09-23T15:29:34Z</time>
      </trkpt>
      <trkpt lat="46.10256" lon="6.46549">
        <ele>1477.2</ele>
        <time>2018-09-23T15:29:37Z</time>
      </trkpt>
      <trkpt lat="46.10255" lon="6.46552">
        <ele>1476.72</ele>
        <time>2018-09-23T15:29:38Z</time>
      </trkpt>
      <trkpt lat="46.10255" lon="6.46554">
        <ele>1476.24</ele>
        <time>2018-09-23T15:29:39Z</time>
      </trkpt>
      <trkpt lat="46.10254" lon="6.46556">
        <ele>1475.76</ele>
        <time>2018-09-23T15:29:40Z</time>
      </trkpt>
      <trkpt lat="46.10253" lon="6.46558">
        <ele>1475.28</ele>
        <time>2018-09-23T15:29:41Z</time>
      </trkpt>
      <trkpt lat="46.10252" lon="6.4656">
        <ele>1474.8</ele>
        <time>2018-09-23T15:29:42Z</time>
      </trkpt>
      <trkpt lat="46.10252" lon="6.46561">
        <ele>1474.32</ele>
        <time>2018-09-23T15:29:43Z</time>
      </trkpt>
      <trkpt lat="46.10253" lon="6.46563">
        <ele>1473.84</ele>
        <time>2018-09-23T15:29:44Z</time>
      </trkpt>
      <trkpt lat="46.10254" lon="6.46563">
        <ele>1473.36</ele>
        <time>2018-09-23T15:29:45Z</time>
      </trkpt>
      <trkpt lat="46.10255" lon="6.46564">
        <ele>1472.88</ele>
        <time>2018-09-23T15:29:46Z</time>
      </trkpt>
      <trkpt lat="46.10257" lon="6.46564">
        <ele>1472.4</ele>
        <time>2018-09-23T15:29:47Z</time>
      </trkpt>
      <trkpt lat="46.10258" lon="6.46564">
        <ele>1471.92</ele>
        <time>2018-09-23T15:29:48Z</time>
      </trkpt>
      <trkpt lat="46.10263" lon="6.46565">
        <ele>1469.99</ele>
        <time>2018-09-23T15:29:52Z</time>
      </trkpt>
      <trkpt lat="46.10263" lon="6.46567">
        <ele>1469.99</ele>
        <time>2018-09-23T15:29:53Z</time>
      </trkpt>
      <trkpt lat="46.10262" lon="6.46572">
        <ele>1468.55</ele>
        <time>2018-09-23T15:29:57Z</time>
      </trkpt>
      <trkpt lat="46.1026" lon="6.46574">
        <ele>1468.07</ele>
        <time>2018-09-23T15:29:58Z</time>
      </trkpt>
      <trkpt lat="46.10243" lon="6.46582">
        <ele>1464.71</ele>
        <time>2018-09-23T15:30:08Z</time>
      </trkpt>
      <trkpt lat="46.10242" lon="6.46582">
        <ele>1464.71</ele>
        <time>2018-09-23T15:30:09Z</time>
      </trkpt>
      <trkpt lat="46.10237" lon="6.46586">
        <ele>1461.82</ele>
        <time>2018-09-23T15:30:13Z</time>
      </trkpt>
      <trkpt lat="46.10236" lon="6.46588">
        <ele>1460.86</ele>
        <time>2018-09-23T15:30:15Z</time>
      </trkpt>
      <trkpt lat="46.10235" lon="6.46589">
        <ele>1460.38</ele>
        <time>2018-09-23T15:30:16Z</time>
      </trkpt>
      <trkpt lat="46.10234" lon="6.4659">
        <ele>1459.9</ele>
        <time>2018-09-23T15:30:17Z</time>
      </trkpt>
      <trkpt lat="46.10233" lon="6.46592">
        <ele>1459.42</ele>
        <time>2018-09-23T15:30:18Z</time>
      </trkpt>
      <trkpt lat="46.10233" lon="6.46594">
        <ele>1458.94</ele>
        <time>2018-09-23T15:30:19Z</time>
      </trkpt>
      <trkpt lat="46.10231" lon="6.46595">
        <ele>1458.46</ele>
        <time>2018-09-23T15:30:20Z</time>
      </trkpt>
      <trkpt lat="46.1023" lon="6.46595">
        <ele>1457.98</ele>
        <time>2018-09-23T15:30:21Z</time>
      </trkpt>
      <trkpt lat="46.10229" lon="6.46595">
        <ele>1457.5</ele>
        <time>2018-09-23T15:30:22Z</time>
      </trkpt>
      <trkpt lat="46.10228" lon="6.46596">
        <ele>1457.02</ele>
        <time>2018-09-23T15:30:23Z</time>
      </trkpt>
      <trkpt lat="46.10227" lon="6.46598">
        <ele>1456.53</ele>
        <time>2018-09-23T15:30:24Z</time>
      </trkpt>
      <trkpt lat="46.10226" lon="6.46599">
        <ele>1456.53</ele>
        <time>2018-09-23T15:30:25Z</time>
      </trkpt>
      <trkpt lat="46.10226" lon="6.46601">
        <ele>1456.53</ele>
        <time>2018-09-23T15:30:26Z</time>
      </trkpt>
      <trkpt lat="46.10225" lon="6.46603">
        <ele>1456.05</ele>
        <time>2018-09-23T15:30:27Z</time>
      </trkpt>
      <trkpt lat="46.10224" lon="6.46608">
        <ele>1454.61</ele>
        <time>2018-09-23T15:30:29Z</time>
      </trkpt>
      <trkpt lat="46.10222" lon="6.46609">
        <ele>1454.13</ele>
        <time>2018-09-23T15:30:30Z</time>
      </trkpt>
      <trkpt lat="46.10221" lon="6.46611">
        <ele>1454.13</ele>
        <time>2018-09-23T15:30:31Z</time>
      </trkpt>
      <trkpt lat="46.1022" lon="6.46614">
        <ele>1454.13</ele>
        <time>2018-09-23T15:30:32Z</time>
      </trkpt>
      <trkpt lat="46.10218" lon="6.46617">
        <ele>1454.13</ele>
        <time>2018-09-23T15:30:33Z</time>
      </trkpt>
      <trkpt lat="46.10216" lon="6.46619">
        <ele>1454.13</ele>
        <time>2018-09-23T15:30:34Z</time>
      </trkpt>
      <trkpt lat="46.10214" lon="6.46621">
        <ele>1454.13</ele>
        <time>2018-09-23T15:30:35Z</time>
      </trkpt>
      <trkpt lat="46.10202" lon="6.46644">
        <ele>1452.69</ele>
        <time>2018-09-23T15:30:44Z</time>
      </trkpt>
      <trkpt lat="46.10189" lon="6.46667">
        <ele>1450.29</ele>
        <time>2018-09-23T15:30:53Z</time>
      </trkpt>
      <trkpt lat="46.10177" lon="6.4669">
        <ele>1449.81</ele>
        <time>2018-09-23T15:31:00Z</time>
      </trkpt>
      <trkpt lat="46.10164" lon="6.46712">
        <ele>1449.32</ele>
        <time>2018-09-23T15:31:07Z</time>
      </trkpt>
      <trkpt lat="46.10147" lon="6.46732">
        <ele>1448.84</ele>
        <time>2018-09-23T15:31:14Z</time>
      </trkpt>
      <trkpt lat="46.10132" lon="6.46751">
        <ele>1448.84</ele>
        <time>2018-09-23T15:31:22Z</time>
      </trkpt>
      <trkpt lat="46.10117" lon="6.4677">
        <ele>1448.36</ele>
        <time>2018-09-23T15:31:30Z</time>
      </trkpt>
      <trkpt lat="46.10103" lon="6.46789">
        <ele>1446.92</ele>
        <time>2018-09-23T15:31:37Z</time>
      </trkpt>
      <trkpt lat="46.10088" lon="6.46811">
        <ele>1445.96</ele>
        <time>2018-09-23T15:31:45Z</time>
      </trkpt>
      <trkpt lat="46.10075" lon="6.46834">
        <ele>1445</ele>
        <time>2018-09-23T15:31:52Z</time>
      </trkpt>
      <trkpt lat="46.10059" lon="6.46853">
        <ele>1444.52</ele>
        <time>2018-09-23T15:32:01Z</time>
      </trkpt>
      <trkpt lat="46.10058" lon="6.46867">
        <ele>1444.52</ele>
        <time>2018-09-23T15:32:05Z</time>
      </trkpt>
      <trkpt lat="46.10058" lon="6.4687">
        <ele>1444.52</ele>
        <time>2018-09-23T15:32:06Z</time>
      </trkpt>
      <trkpt lat="46.10051" lon="6.46898">
        <ele>1441.63</ele>
        <time>2018-09-23T15:32:15Z</time>
      </trkpt>
      <trkpt lat="46.10052" lon="6.46905">
        <ele>1440.67</ele>
        <time>2018-09-23T15:32:18Z</time>
      </trkpt>
      <trkpt lat="46.10053" lon="6.46908">
        <ele>1440.19</ele>
        <time>2018-09-23T15:32:19Z</time>
      </trkpt>
      <trkpt lat="46.10052" lon="6.46911">
        <ele>1439.71</ele>
        <time>2018-09-23T15:32:20Z</time>
      </trkpt>
      <trkpt lat="46.10052" lon="6.46914">
        <ele>1439.23</ele>
        <time>2018-09-23T15:32:21Z</time>
      </trkpt>
      <trkpt lat="46.10052" lon="6.46918">
        <ele>1438.75</ele>
        <time>2018-09-23T15:32:22Z</time>
      </trkpt>
      <trkpt lat="46.10051" lon="6.46921">
        <ele>1438.27</ele>
        <time>2018-09-23T15:32:23Z</time>
      </trkpt>
      <trkpt lat="46.10051" lon="6.46924">
        <ele>1437.79</ele>
        <time>2018-09-23T15:32:24Z</time>
      </trkpt>
      <trkpt lat="46.1005" lon="6.46928">
        <ele>1437.31</ele>
        <time>2018-09-23T15:32:25Z</time>
      </trkpt>
      <trkpt lat="46.1005" lon="6.46932">
        <ele>1436.83</ele>
        <time>2018-09-23T15:32:26Z</time>
      </trkpt>
      <trkpt lat="46.10049" lon="6.46936">
        <ele>1436.83</ele>
        <time>2018-09-23T15:32:27Z</time>
      </trkpt>
      <trkpt lat="46.10049" lon="6.46941">
        <ele>1436.35</ele>
        <time>2018-09-23T15:32:28Z</time>
      </trkpt>
      <trkpt lat="46.10048" lon="6.46945">
        <ele>1435.87</ele>
        <time>2018-09-23T15:32:29Z</time>
      </trkpt>
      <trkpt lat="46.10048" lon="6.46949">
        <ele>1435.87</ele>
        <time>2018-09-23T15:32:30Z</time>
      </trkpt>
      <trkpt lat="46.10049" lon="6.4697">
        <ele>1433.46</ele>
        <time>2018-09-23T15:32:36Z</time>
      </trkpt>
      <trkpt lat="46.10043" lon="6.46989">
        <ele>1430.1</ele>
        <time>2018-09-23T15:32:42Z</time>
      </trkpt>
      <trkpt lat="46.10041" lon="6.46992">
        <ele>1429.62</ele>
        <time>2018-09-23T15:32:43Z</time>
      </trkpt>
      <trkpt lat="46.10039" lon="6.46995">
        <ele>1429.14</ele>
        <time>2018-09-23T15:32:44Z</time>
      </trkpt>
      <trkpt lat="46.10037" lon="6.46998">
        <ele>1428.66</ele>
        <time>2018-09-23T15:32:45Z</time>
      </trkpt>
      <trkpt lat="46.10035" lon="6.47001">
        <ele>1428.18</ele>
        <time>2018-09-23T15:32:46Z</time>
      </trkpt>
      <trkpt lat="46.10031" lon="6.47003">
        <ele>1427.7</ele>
        <time>2018-09-23T15:32:47Z</time>
      </trkpt>
      <trkpt lat="46.10017" lon="6.47022">
        <ele>1424.81</ele>
        <time>2018-09-23T15:32:54Z</time>
      </trkpt>
      <trkpt lat="46.10015" lon="6.47026">
        <ele>1424.33</ele>
        <time>2018-09-23T15:32:55Z</time>
      </trkpt>
      <trkpt lat="46.10015" lon="6.47029">
        <ele>1423.85</ele>
        <time>2018-09-23T15:32:56Z</time>
      </trkpt>
      <trkpt lat="46.10015" lon="6.47032">
        <ele>1423.37</ele>
        <time>2018-09-23T15:32:57Z</time>
      </trkpt>
      <trkpt lat="46.10015" lon="6.47036">
        <ele>1423.37</ele>
        <time>2018-09-23T15:32:58Z</time>
      </trkpt>
      <trkpt lat="46.10015" lon="6.47039">
        <ele>1422.89</ele>
        <time>2018-09-23T15:32:59Z</time>
      </trkpt>
      <trkpt lat="46.10014" lon="6.47042">
        <ele>1422.41</ele>
        <time>2018-09-23T15:33:00Z</time>
      </trkpt>
      <trkpt lat="46.10014" lon="6.47045">
        <ele>1422.41</ele>
        <time>2018-09-23T15:33:01Z</time>
      </trkpt>
      <trkpt lat="46.10013" lon="6.47064">
        <ele>1420</ele>
        <time>2018-09-23T15:33:05Z</time>
      </trkpt>
      <trkpt lat="46.10013" lon="6.47097">
        <ele>1419.04</ele>
        <time>2018-09-23T15:33:12Z</time>
      </trkpt>
      <trkpt lat="46.10011" lon="6.47128">
        <ele>1417.6</ele>
        <time>2018-09-23T15:33:22Z</time>
      </trkpt>
      <trkpt lat="46.10002" lon="6.47157">
        <ele>1416.64</ele>
        <time>2018-09-23T15:33:30Z</time>
      </trkpt>
      <trkpt lat="46.10006" lon="6.47194">
        <ele>1415.2</ele>
        <time>2018-09-23T15:33:41Z</time>
      </trkpt>
      <trkpt lat="46.10009" lon="6.47213">
        <ele>1411.83</ele>
        <time>2018-09-23T15:33:46Z</time>
      </trkpt>
      <trkpt lat="46.1001" lon="6.47246">
        <ele>1409.43</ele>
        <time>2018-09-23T15:33:54Z</time>
      </trkpt>
      <trkpt lat="46.10011" lon="6.47268">
        <ele>1407.51</ele>
        <time>2018-09-23T15:33:59Z</time>
      </trkpt>
      <trkpt lat="46.10001" lon="6.47296">
        <ele>1404.62</ele>
        <time>2018-09-23T15:34:07Z</time>
      </trkpt>
      <trkpt lat="46.09992" lon="6.47324">
        <ele>1401.74</ele>
        <time>2018-09-23T15:34:14Z</time>
      </trkpt>
      <trkpt lat="46.09985" lon="6.47354">
        <ele>1400.3</ele>
        <time>2018-09-23T15:34:21Z</time>
      </trkpt>
      <trkpt lat="46.09985" lon="6.47381">
        <ele>1399.82</ele>
        <time>2018-09-23T15:34:27Z</time>
      </trkpt>
      <trkpt lat="46.09986" lon="6.47385">
        <ele>1399.34</ele>
        <time>2018-09-23T15:34:28Z</time>
      </trkpt>
      <trkpt lat="46.09986" lon="6.47389">
        <ele>1398.86</ele>
        <time>2018-09-23T15:34:29Z</time>
      </trkpt>
      <trkpt lat="46.09987" lon="6.47392">
        <ele>1398.37</ele>
        <time>2018-09-23T15:34:30Z</time>
      </trkpt>
      <trkpt lat="46.09988" lon="6.47395">
        <ele>1398.37</ele>
        <time>2018-09-23T15:34:31Z</time>
      </trkpt>
      <trkpt lat="46.09988" lon="6.47399">
        <ele>1397.89</ele>
        <time>2018-09-23T15:34:32Z</time>
      </trkpt>
      <trkpt lat="46.09989" lon="6.47402">
        <ele>1397.41</ele>
        <time>2018-09-23T15:34:33Z</time>
      </trkpt>
      <trkpt lat="46.0999" lon="6.47404">
        <ele>1397.41</ele>
        <time>2018-09-23T15:34:34Z</time>
      </trkpt>
      <trkpt lat="46.09991" lon="6.47406">
        <ele>1397.41</ele>
        <time>2018-09-23T15:34:35Z</time>
      </trkpt>
      <trkpt lat="46.09993" lon="6.47408">
        <ele>1396.45</ele>
        <time>2018-09-23T15:34:36Z</time>
      </trkpt>
      <trkpt lat="46.10011" lon="6.4741">
        <ele>1393.57</ele>
        <time>2018-09-23T15:34:43Z</time>
      </trkpt>
      <trkpt lat="46.10027" lon="6.47394">
        <ele>1391.17</ele>
        <time>2018-09-23T15:34:50Z</time>
      </trkpt>
      <trkpt lat="46.10036" lon="6.47368">
        <ele>1388.76</ele>
        <time>2018-09-23T15:34:57Z</time>
      </trkpt>
      <trkpt lat="46.10048" lon="6.47343">
        <ele>1386.36</ele>
        <time>2018-09-23T15:35:05Z</time>
      </trkpt>
      <trkpt lat="46.10058" lon="6.47323">
        <ele>1382.99</ele>
        <time>2018-09-23T15:35:12Z</time>
      </trkpt>
      <trkpt lat="46.10068" lon="6.47311">
        <ele>1379.63</ele>
        <time>2018-09-23T15:35:17Z</time>
      </trkpt>
      <trkpt lat="46.10078" lon="6.47301">
        <ele>1377.23</ele>
        <time>2018-09-23T15:35:21Z</time>
      </trkpt>
      <trkpt lat="46.1008" lon="6.47299">
        <ele>1377.23</ele>
        <time>2018-09-23T15:35:22Z</time>
      </trkpt>
      <trkpt lat="46.10083" lon="6.47297">
        <ele>1376.26</ele>
        <time>2018-09-23T15:35:23Z</time>
      </trkpt>
      <trkpt lat="46.10085" lon="6.47295">
        <ele>1375.78</ele>
        <time>2018-09-23T15:35:24Z</time>
      </trkpt>
      <trkpt lat="46.10087" lon="6.47293">
        <ele>1375.78</ele>
        <time>2018-09-23T15:35:25Z</time>
      </trkpt>
      <trkpt lat="46.1009" lon="6.47291">
        <ele>1375.3</ele>
        <time>2018-09-23T15:35:26Z</time>
      </trkpt>
      <trkpt lat="46.10104" lon="6.47279">
        <ele>1371.46</ele>
        <time>2018-09-23T15:35:33Z</time>
      </trkpt>
      <trkpt lat="46.10122" lon="6.47267">
        <ele>1368.09</ele>
        <time>2018-09-23T15:35:40Z</time>
      </trkpt>
      <trkpt lat="46.1013" lon="6.47249">
        <ele>1364.73</ele>
        <time>2018-09-23T15:35:46Z</time>
      </trkpt>
      <trkpt lat="46.10133" lon="6.47233">
        <ele>1362.81</ele>
        <time>2018-09-23T15:35:51Z</time>
      </trkpt>
      <trkpt lat="46.10136" lon="6.47205">
        <ele>1359.92</ele>
        <time>2018-09-23T15:35:57Z</time>
      </trkpt>
      <trkpt lat="46.1014" lon="6.47193">
        <ele>1360.4</ele>
        <time>2018-09-23T15:36:00Z</time>
      </trkpt>
      <trkpt lat="46.10152" lon="6.47167">
        <ele>1359.92</ele>
        <time>2018-09-23T15:36:09Z</time>
      </trkpt>
      <trkpt lat="46.10164" lon="6.47152">
        <ele>1356.56</ele>
        <time>2018-09-23T15:36:16Z</time>
      </trkpt>
      <trkpt lat="46.10177" lon="6.47132">
        <ele>1353.19</ele>
        <time>2018-09-23T15:36:23Z</time>
      </trkpt>
      <trkpt lat="46.10189" lon="6.47116">
        <ele>1350.31</ele>
        <time>2018-09-23T15:36:29Z</time>
      </trkpt>
      <trkpt lat="46.10201" lon="6.47104">
        <ele>1347.91</ele>
        <time>2018-09-23T15:36:34Z</time>
      </trkpt>
      <trkpt lat="46.10218" lon="6.47094">
        <ele>1345.5</ele>
        <time>2018-09-23T15:36:40Z</time>
      </trkpt>
      <trkpt lat="46.1023" lon="6.47087">
        <ele>1343.58</ele>
        <time>2018-09-23T15:36:44Z</time>
      </trkpt>
      <trkpt lat="46.10242" lon="6.47082">
        <ele>1341.66</ele>
        <time>2018-09-23T15:36:49Z</time>
      </trkpt>
      <trkpt lat="46.10257" lon="6.47077">
        <ele>1338.29</ele>
        <time>2018-09-23T15:36:55Z</time>
      </trkpt>
      <trkpt lat="46.10272" lon="6.47062">
        <ele>1335.89</ele>
        <time>2018-09-23T15:37:02Z</time>
      </trkpt>
      <trkpt lat="46.10294" lon="6.47053">
        <ele>1333.49</ele>
        <time>2018-09-23T15:37:09Z</time>
      </trkpt>
      <trkpt lat="46.10315" lon="6.47053">
        <ele>1330.6</ele>
        <time>2018-09-23T15:37:17Z</time>
      </trkpt>
      <trkpt lat="46.10317" lon="6.47056">
        <ele>1329.64</ele>
        <time>2018-09-23T15:37:18Z</time>
      </trkpt>
      <trkpt lat="46.10319" lon="6.47059">
        <ele>1329.16</ele>
        <time>2018-09-23T15:37:19Z</time>
      </trkpt>
      <trkpt lat="46.10324" lon="6.47069">
        <ele>1327.24</ele>
        <time>2018-09-23T15:37:22Z</time>
      </trkpt>
      <trkpt lat="46.10326" lon="6.47079">
        <ele>1325.8</ele>
        <time>2018-09-23T15:37:25Z</time>
      </trkpt>
      <trkpt lat="46.10326" lon="6.47083">
        <ele>1325.8</ele>
        <time>2018-09-23T15:37:26Z</time>
      </trkpt>
      <trkpt lat="46.10327" lon="6.47085">
        <ele>1325.31</ele>
        <time>2018-09-23T15:37:27Z</time>
      </trkpt>
      <trkpt lat="46.10325" lon="6.47088">
        <ele>1324.83</ele>
        <time>2018-09-23T15:37:28Z</time>
      </trkpt>
      <trkpt lat="46.10323" lon="6.4709">
        <ele>1324.83</ele>
        <time>2018-09-23T15:37:29Z</time>
      </trkpt>
      <trkpt lat="46.1032" lon="6.47092">
        <ele>1324.35</ele>
        <time>2018-09-23T15:37:30Z</time>
      </trkpt>
      <trkpt lat="46.10317" lon="6.47094">
        <ele>1323.87</ele>
        <time>2018-09-23T15:37:31Z</time>
      </trkpt>
      <trkpt lat="46.10314" lon="6.47095">
        <ele>1323.39</ele>
        <time>2018-09-23T15:37:32Z</time>
      </trkpt>
      <trkpt lat="46.10294" lon="6.47107">
        <ele>1323.39</ele>
        <time>2018-09-23T15:37:39Z</time>
      </trkpt>
      <trkpt lat="46.10284" lon="6.47117">
        <ele>1323.39</ele>
        <time>2018-09-23T15:37:44Z</time>
      </trkpt>
    </trkseg>
  </trk>
</gpx>